<?xml version="1.0" encoding="UTF-8" standalone="no" ?>
<gpx xmlns="http://www.topografix.com/GPX/1/1" xmlns:xsi="http://www.w3.org/2001/XMLSchema-instance" xsi:schemaLocation="http://www.topografix.com/GPX/1/1 http://www.topografix.com/GPX/1/1/gpx.xsd" version="1.1" creator="VisuGPX - https://www.visugpx.com">
  <metadata>
    <name>rando St-Chiron -Lardy (91) 20 km facile</name>
    <desc><![CDATA[Randonnée dans l'Essonne - 20 km facile - jolis sous-bois, champs de céréales.
A retrouver également sur [url]http://trekkingzone.wordpress.com[/url]]]></desc>
  </metadata>
  <trk>
    <name><![CDATA[3 juin 2018 à 09:43:30]]></name>
    <cmt><![CDATA[3 juin 2018 à 09:43:30]]></cmt>
    <trkseg>
      <trkpt lat="48.55101" lon="2.1261">
        <ele>66</ele>
        <time>2018-06-03T07:43:31Z</time>
      </trkpt>
      <trkpt lat="48.55101" lon="2.1261">
        <ele>66</ele>
        <time>2018-06-03T07:43:32Z</time>
      </trkpt>
      <trkpt lat="48.55104" lon="2.12617">
        <ele>66</ele>
        <time>2018-06-03T07:45:33Z</time>
      </trkpt>
      <trkpt lat="48.55104" lon="2.12633">
        <ele>66</ele>
        <time>2018-06-03T07:45:42Z</time>
      </trkpt>
      <trkpt lat="48.55116" lon="2.12688">
        <ele>67</ele>
        <time>2018-06-03T07:46:14Z</time>
      </trkpt>
      <trkpt lat="48.55128" lon="2.12747">
        <ele>67</ele>
        <time>2018-06-03T07:46:47Z</time>
      </trkpt>
      <trkpt lat="48.55132" lon="2.12768">
        <ele>67</ele>
        <time>2018-06-03T07:46:59Z</time>
      </trkpt>
      <trkpt lat="48.55139" lon="2.12815">
        <ele>68</ele>
        <time>2018-06-03T07:47:27Z</time>
      </trkpt>
      <trkpt lat="48.55136" lon="2.12822">
        <ele>68</ele>
        <time>2018-06-03T07:47:32Z</time>
      </trkpt>
      <trkpt lat="48.55134" lon="2.1283">
        <ele>68</ele>
        <time>2018-06-03T07:47:37Z</time>
      </trkpt>
      <trkpt lat="48.55131" lon="2.12835">
        <ele>68</ele>
        <time>2018-06-03T07:47:40Z</time>
      </trkpt>
      <trkpt lat="48.5509" lon="2.12872">
        <ele>65</ele>
        <time>2018-06-03T07:48:11Z</time>
      </trkpt>
      <trkpt lat="48.55063" lon="2.12897">
        <ele>64</ele>
        <time>2018-06-03T07:48:35Z</time>
      </trkpt>
      <trkpt lat="48.55059" lon="2.12904">
        <ele>64</ele>
        <time>2018-06-03T07:48:39Z</time>
      </trkpt>
      <trkpt lat="48.55036" lon="2.12922">
        <ele>63</ele>
        <time>2018-06-03T07:48:58Z</time>
      </trkpt>
      <trkpt lat="48.55033" lon="2.12928">
        <ele>63</ele>
        <time>2018-06-03T07:49:02Z</time>
      </trkpt>
      <trkpt lat="48.55028" lon="2.12933">
        <ele>64</ele>
        <time>2018-06-03T07:49:07Z</time>
      </trkpt>
      <trkpt lat="48.55018" lon="2.12938">
        <ele>64</ele>
        <time>2018-06-03T07:49:16Z</time>
      </trkpt>
      <trkpt lat="48.55003" lon="2.12953">
        <ele>63</ele>
        <time>2018-06-03T07:49:28Z</time>
      </trkpt>
      <trkpt lat="48.54994" lon="2.1296">
        <ele>63</ele>
        <time>2018-06-03T07:49:36Z</time>
      </trkpt>
      <trkpt lat="48.5496" lon="2.12998">
        <ele>64</ele>
        <time>2018-06-03T07:50:10Z</time>
      </trkpt>
      <trkpt lat="48.54949" lon="2.13014">
        <ele>65</ele>
        <time>2018-06-03T07:50:22Z</time>
      </trkpt>
      <trkpt lat="48.54946" lon="2.13021">
        <ele>65</ele>
        <time>2018-06-03T07:50:27Z</time>
      </trkpt>
      <trkpt lat="48.54935" lon="2.13065">
        <ele>67</ele>
        <time>2018-06-03T07:50:51Z</time>
      </trkpt>
      <trkpt lat="48.54929" lon="2.13077">
        <ele>67</ele>
        <time>2018-06-03T07:50:58Z</time>
      </trkpt>
      <trkpt lat="48.54913" lon="2.13096">
        <ele>68</ele>
        <time>2018-06-03T07:51:14Z</time>
      </trkpt>
      <trkpt lat="48.54904" lon="2.13105">
        <ele>69</ele>
        <time>2018-06-03T07:51:22Z</time>
      </trkpt>
      <trkpt lat="48.54864" lon="2.13124">
        <ele>72</ele>
        <time>2018-06-03T07:51:56Z</time>
      </trkpt>
      <trkpt lat="48.54848" lon="2.13127">
        <ele>73</ele>
        <time>2018-06-03T07:52:10Z</time>
      </trkpt>
      <trkpt lat="48.54838" lon="2.13126">
        <ele>74</ele>
        <time>2018-06-03T07:52:18Z</time>
      </trkpt>
      <trkpt lat="48.54828" lon="2.13128">
        <ele>75</ele>
        <time>2018-06-03T07:52:26Z</time>
      </trkpt>
      <trkpt lat="48.54808" lon="2.13139">
        <ele>76</ele>
        <time>2018-06-03T07:52:42Z</time>
      </trkpt>
      <trkpt lat="48.54769" lon="2.1315">
        <ele>80</ele>
        <time>2018-06-03T07:53:16Z</time>
      </trkpt>
      <trkpt lat="48.54764" lon="2.13155">
        <ele>81</ele>
        <time>2018-06-03T07:53:21Z</time>
      </trkpt>
      <trkpt lat="48.54762" lon="2.13164">
        <ele>81</ele>
        <time>2018-06-03T07:53:25Z</time>
      </trkpt>
      <trkpt lat="48.54764" lon="2.13219">
        <ele>82</ele>
        <time>2018-06-03T07:53:52Z</time>
      </trkpt>
      <trkpt lat="48.5477" lon="2.13241">
        <ele>83</ele>
        <time>2018-06-03T07:54:04Z</time>
      </trkpt>
      <trkpt lat="48.54773" lon="2.13247">
        <ele>84</ele>
        <time>2018-06-03T07:54:08Z</time>
      </trkpt>
      <trkpt lat="48.54783" lon="2.13309">
        <ele>85</ele>
        <time>2018-06-03T07:54:40Z</time>
      </trkpt>
      <trkpt lat="48.54785" lon="2.13317">
        <ele>84</ele>
        <time>2018-06-03T07:54:44Z</time>
      </trkpt>
      <trkpt lat="48.54785" lon="2.13325">
        <ele>84</ele>
        <time>2018-06-03T07:54:48Z</time>
      </trkpt>
      <trkpt lat="48.54796" lon="2.13393">
        <ele>84</ele>
        <time>2018-06-03T07:55:22Z</time>
      </trkpt>
      <trkpt lat="48.548" lon="2.13408">
        <ele>84</ele>
        <time>2018-06-03T07:55:30Z</time>
      </trkpt>
      <trkpt lat="48.54803" lon="2.13414">
        <ele>84</ele>
        <time>2018-06-03T07:55:33Z</time>
      </trkpt>
      <trkpt lat="48.54806" lon="2.13443">
        <ele>84</ele>
        <time>2018-06-03T07:55:48Z</time>
      </trkpt>
      <trkpt lat="48.54809" lon="2.1345">
        <ele>84</ele>
        <time>2018-06-03T07:55:52Z</time>
      </trkpt>
      <trkpt lat="48.54809" lon="2.13457">
        <ele>84</ele>
        <time>2018-06-03T07:55:56Z</time>
      </trkpt>
      <trkpt lat="48.54809" lon="2.13466">
        <ele>84</ele>
        <time>2018-06-03T07:56:01Z</time>
      </trkpt>
      <trkpt lat="48.54814" lon="2.13488">
        <ele>84</ele>
        <time>2018-06-03T07:56:12Z</time>
      </trkpt>
      <trkpt lat="48.54814" lon="2.13497">
        <ele>84</ele>
        <time>2018-06-03T07:56:17Z</time>
      </trkpt>
      <trkpt lat="48.54827" lon="2.13553">
        <ele>84</ele>
        <time>2018-06-03T07:56:49Z</time>
      </trkpt>
      <trkpt lat="48.54847" lon="2.13608">
        <ele>86</ele>
        <time>2018-06-03T07:57:23Z</time>
      </trkpt>
      <trkpt lat="48.54866" lon="2.13662">
        <ele>86</ele>
        <time>2018-06-03T07:57:54Z</time>
      </trkpt>
      <trkpt lat="48.54877" lon="2.13722">
        <ele>87</ele>
        <time>2018-06-03T07:58:26Z</time>
      </trkpt>
      <trkpt lat="48.54882" lon="2.13743">
        <ele>87</ele>
        <time>2018-06-03T07:58:37Z</time>
      </trkpt>
      <trkpt lat="48.54882" lon="2.13751">
        <ele>87</ele>
        <time>2018-06-03T07:58:42Z</time>
      </trkpt>
      <trkpt lat="48.54886" lon="2.13772">
        <ele>87</ele>
        <time>2018-06-03T07:58:54Z</time>
      </trkpt>
      <trkpt lat="48.54887" lon="2.13786">
        <ele>87</ele>
        <time>2018-06-03T07:59:02Z</time>
      </trkpt>
      <trkpt lat="48.54897" lon="2.13815">
        <ele>87</ele>
        <time>2018-06-03T07:59:18Z</time>
      </trkpt>
      <trkpt lat="48.54898" lon="2.13829">
        <ele>88</ele>
        <time>2018-06-03T07:59:26Z</time>
      </trkpt>
      <trkpt lat="48.54907" lon="2.13865">
        <ele>89</ele>
        <time>2018-06-03T07:59:49Z</time>
      </trkpt>
      <trkpt lat="48.54904" lon="2.13881">
        <ele>89</ele>
        <time>2018-06-03T07:59:58Z</time>
      </trkpt>
      <trkpt lat="48.54904" lon="2.13897">
        <ele>90</ele>
        <time>2018-06-03T08:00:23Z</time>
      </trkpt>
      <trkpt lat="48.54905" lon="2.13901">
        <ele>92</ele>
        <time>2018-06-03T08:03:23Z</time>
      </trkpt>
      <trkpt lat="48.54902" lon="2.13907">
        <ele>93</ele>
        <time>2018-06-03T08:04:26Z</time>
      </trkpt>
      <trkpt lat="48.54898" lon="2.13906">
        <ele>93</ele>
        <time>2018-06-03T08:04:52Z</time>
      </trkpt>
      <trkpt lat="48.54905" lon="2.139">
        <ele>95</ele>
        <time>2018-06-03T08:06:23Z</time>
      </trkpt>
      <trkpt lat="48.54902" lon="2.13909">
        <ele>96</ele>
        <time>2018-06-03T08:08:03Z</time>
      </trkpt>
      <trkpt lat="48.54905" lon="2.13915">
        <ele>96</ele>
        <time>2018-06-03T08:08:09Z</time>
      </trkpt>
      <trkpt lat="48.54905" lon="2.13933">
        <ele>98</ele>
        <time>2018-06-03T08:08:25Z</time>
      </trkpt>
      <trkpt lat="48.54915" lon="2.13971">
        <ele>100</ele>
        <time>2018-06-03T08:08:53Z</time>
      </trkpt>
      <trkpt lat="48.5493" lon="2.14">
        <ele>102</ele>
        <time>2018-06-03T08:09:16Z</time>
      </trkpt>
      <trkpt lat="48.54933" lon="2.14038">
        <ele>104</ele>
        <time>2018-06-03T08:09:35Z</time>
      </trkpt>
      <trkpt lat="48.54931" lon="2.14059">
        <ele>105</ele>
        <time>2018-06-03T08:09:44Z</time>
      </trkpt>
      <trkpt lat="48.54928" lon="2.14066">
        <ele>105</ele>
        <time>2018-06-03T08:09:47Z</time>
      </trkpt>
      <trkpt lat="48.54927" lon="2.14074">
        <ele>105</ele>
        <time>2018-06-03T08:09:50Z</time>
      </trkpt>
      <trkpt lat="48.54927" lon="2.1409">
        <ele>104</ele>
        <time>2018-06-03T08:09:58Z</time>
      </trkpt>
      <trkpt lat="48.54926" lon="2.14097">
        <ele>104</ele>
        <time>2018-06-03T08:10:01Z</time>
      </trkpt>
      <trkpt lat="48.54924" lon="2.14104">
        <ele>104</ele>
        <time>2018-06-03T08:10:04Z</time>
      </trkpt>
      <trkpt lat="48.54923" lon="2.14112">
        <ele>104</ele>
        <time>2018-06-03T08:10:08Z</time>
      </trkpt>
      <trkpt lat="48.54923" lon="2.14143">
        <ele>104</ele>
        <time>2018-06-03T08:10:23Z</time>
      </trkpt>
      <trkpt lat="48.54922" lon="2.14151">
        <ele>104</ele>
        <time>2018-06-03T08:10:27Z</time>
      </trkpt>
      <trkpt lat="48.54922" lon="2.14158">
        <ele>104</ele>
        <time>2018-06-03T08:10:32Z</time>
      </trkpt>
      <trkpt lat="48.54925" lon="2.14165">
        <ele>104</ele>
        <time>2018-06-03T08:10:36Z</time>
      </trkpt>
      <trkpt lat="48.54929" lon="2.14195">
        <ele>103</ele>
        <time>2018-06-03T08:10:48Z</time>
      </trkpt>
      <trkpt lat="48.5493" lon="2.14236">
        <ele>104</ele>
        <time>2018-06-03T08:11:08Z</time>
      </trkpt>
      <trkpt lat="48.54933" lon="2.14251">
        <ele>104</ele>
        <time>2018-06-03T08:11:16Z</time>
      </trkpt>
      <trkpt lat="48.54933" lon="2.14259">
        <ele>104</ele>
        <time>2018-06-03T08:11:20Z</time>
      </trkpt>
      <trkpt lat="48.54937" lon="2.14274">
        <ele>105</ele>
        <time>2018-06-03T08:11:30Z</time>
      </trkpt>
      <trkpt lat="48.54937" lon="2.14282">
        <ele>106</ele>
        <time>2018-06-03T08:11:34Z</time>
      </trkpt>
      <trkpt lat="48.54939" lon="2.14288">
        <ele>106</ele>
        <time>2018-06-03T08:11:39Z</time>
      </trkpt>
      <trkpt lat="48.54941" lon="2.14315">
        <ele>106</ele>
        <time>2018-06-03T08:11:54Z</time>
      </trkpt>
      <trkpt lat="48.54941" lon="2.14331">
        <ele>107</ele>
        <time>2018-06-03T08:12:04Z</time>
      </trkpt>
      <trkpt lat="48.5494" lon="2.1434">
        <ele>107</ele>
        <time>2018-06-03T08:12:08Z</time>
      </trkpt>
      <trkpt lat="48.5494" lon="2.14355">
        <ele>107</ele>
        <time>2018-06-03T08:12:14Z</time>
      </trkpt>
      <trkpt lat="48.54941" lon="2.14378">
        <ele>106</ele>
        <time>2018-06-03T08:12:25Z</time>
      </trkpt>
      <trkpt lat="48.54938" lon="2.14385">
        <ele>106</ele>
        <time>2018-06-03T08:12:30Z</time>
      </trkpt>
      <trkpt lat="48.54937" lon="2.14403">
        <ele>106</ele>
        <time>2018-06-03T08:12:36Z</time>
      </trkpt>
      <trkpt lat="48.54939" lon="2.14417">
        <ele>106</ele>
        <time>2018-06-03T08:12:42Z</time>
      </trkpt>
      <trkpt lat="48.54936" lon="2.14446">
        <ele>106</ele>
        <time>2018-06-03T08:12:55Z</time>
      </trkpt>
      <trkpt lat="48.54938" lon="2.14453">
        <ele>106</ele>
        <time>2018-06-03T08:13:00Z</time>
      </trkpt>
      <trkpt lat="48.54938" lon="2.1447">
        <ele>106</ele>
        <time>2018-06-03T08:13:08Z</time>
      </trkpt>
      <trkpt lat="48.54937" lon="2.14477">
        <ele>107</ele>
        <time>2018-06-03T08:13:13Z</time>
      </trkpt>
      <trkpt lat="48.54937" lon="2.145">
        <ele>107</ele>
        <time>2018-06-03T08:13:26Z</time>
      </trkpt>
      <trkpt lat="48.54941" lon="2.14516">
        <ele>108</ele>
        <time>2018-06-03T08:13:34Z</time>
      </trkpt>
      <trkpt lat="48.54941" lon="2.14523">
        <ele>109</ele>
        <time>2018-06-03T08:13:38Z</time>
      </trkpt>
      <trkpt lat="48.54939" lon="2.14531">
        <ele>109</ele>
        <time>2018-06-03T08:13:42Z</time>
      </trkpt>
      <trkpt lat="48.54937" lon="2.1457">
        <ele>109</ele>
        <time>2018-06-03T08:14:02Z</time>
      </trkpt>
      <trkpt lat="48.54939" lon="2.14577">
        <ele>109</ele>
        <time>2018-06-03T08:14:06Z</time>
      </trkpt>
      <trkpt lat="48.54938" lon="2.14602">
        <ele>108</ele>
        <time>2018-06-03T08:14:18Z</time>
      </trkpt>
      <trkpt lat="48.54939" lon="2.14619">
        <ele>107</ele>
        <time>2018-06-03T08:14:26Z</time>
      </trkpt>
      <trkpt lat="48.54934" lon="2.14648">
        <ele>106</ele>
        <time>2018-06-03T08:14:40Z</time>
      </trkpt>
      <trkpt lat="48.54924" lon="2.14678">
        <ele>105</ele>
        <time>2018-06-03T08:14:54Z</time>
      </trkpt>
      <trkpt lat="48.54925" lon="2.14688">
        <ele>105</ele>
        <time>2018-06-03T08:15:00Z</time>
      </trkpt>
      <trkpt lat="48.54927" lon="2.14695">
        <ele>105</ele>
        <time>2018-06-03T08:15:05Z</time>
      </trkpt>
      <trkpt lat="48.54924" lon="2.14709">
        <ele>104</ele>
        <time>2018-06-03T08:15:14Z</time>
      </trkpt>
      <trkpt lat="48.54921" lon="2.14748">
        <ele>104</ele>
        <time>2018-06-03T08:15:30Z</time>
      </trkpt>
      <trkpt lat="48.54922" lon="2.14759">
        <ele>104</ele>
        <time>2018-06-03T08:15:37Z</time>
      </trkpt>
      <trkpt lat="48.54922" lon="2.14766">
        <ele>103</ele>
        <time>2018-06-03T08:15:40Z</time>
      </trkpt>
      <trkpt lat="48.54929" lon="2.14804">
        <ele>103</ele>
        <time>2018-06-03T08:15:58Z</time>
      </trkpt>
      <trkpt lat="48.54924" lon="2.14826">
        <ele>103</ele>
        <time>2018-06-03T08:16:08Z</time>
      </trkpt>
      <trkpt lat="48.54928" lon="2.1484">
        <ele>103</ele>
        <time>2018-06-03T08:16:17Z</time>
      </trkpt>
      <trkpt lat="48.54932" lon="2.14845">
        <ele>103</ele>
        <time>2018-06-03T08:16:21Z</time>
      </trkpt>
      <trkpt lat="48.54932" lon="2.14854">
        <ele>103</ele>
        <time>2018-06-03T08:16:25Z</time>
      </trkpt>
      <trkpt lat="48.54929" lon="2.1486">
        <ele>103</ele>
        <time>2018-06-03T08:16:28Z</time>
      </trkpt>
      <trkpt lat="48.54928" lon="2.14867">
        <ele>103</ele>
        <time>2018-06-03T08:16:31Z</time>
      </trkpt>
      <trkpt lat="48.54928" lon="2.14875">
        <ele>103</ele>
        <time>2018-06-03T08:16:34Z</time>
      </trkpt>
      <trkpt lat="48.54927" lon="2.14882">
        <ele>103</ele>
        <time>2018-06-03T08:16:37Z</time>
      </trkpt>
      <trkpt lat="48.54928" lon="2.1489">
        <ele>103</ele>
        <time>2018-06-03T08:16:42Z</time>
      </trkpt>
      <trkpt lat="48.54933" lon="2.14903">
        <ele>103</ele>
        <time>2018-06-03T08:16:50Z</time>
      </trkpt>
      <trkpt lat="48.54935" lon="2.14918">
        <ele>103</ele>
        <time>2018-06-03T08:16:58Z</time>
      </trkpt>
      <trkpt lat="48.54938" lon="2.14924">
        <ele>103</ele>
        <time>2018-06-03T08:17:03Z</time>
      </trkpt>
      <trkpt lat="48.54933" lon="2.14931">
        <ele>103</ele>
        <time>2018-06-03T08:17:35Z</time>
      </trkpt>
      <trkpt lat="48.54929" lon="2.14933">
        <ele>103</ele>
        <time>2018-06-03T08:19:22Z</time>
      </trkpt>
      <trkpt lat="48.54928" lon="2.14941">
        <ele>103</ele>
        <time>2018-06-03T08:19:27Z</time>
      </trkpt>
      <trkpt lat="48.54928" lon="2.1495">
        <ele>103</ele>
        <time>2018-06-03T08:19:34Z</time>
      </trkpt>
      <trkpt lat="48.5493" lon="2.14957">
        <ele>103</ele>
        <time>2018-06-03T08:19:41Z</time>
      </trkpt>
      <trkpt lat="48.5493" lon="2.14972">
        <ele>104</ele>
        <time>2018-06-03T08:19:51Z</time>
      </trkpt>
      <trkpt lat="48.54928" lon="2.14979">
        <ele>104</ele>
        <time>2018-06-03T08:19:56Z</time>
      </trkpt>
      <trkpt lat="48.54928" lon="2.14986">
        <ele>104</ele>
        <time>2018-06-03T08:20:01Z</time>
      </trkpt>
      <trkpt lat="48.54925" lon="2.14994">
        <ele>104</ele>
        <time>2018-06-03T08:20:06Z</time>
      </trkpt>
      <trkpt lat="48.54925" lon="2.15005">
        <ele>105</ele>
        <time>2018-06-03T08:20:12Z</time>
      </trkpt>
      <trkpt lat="48.54914" lon="2.15061">
        <ele>106</ele>
        <time>2018-06-03T08:20:45Z</time>
      </trkpt>
      <trkpt lat="48.54913" lon="2.15068">
        <ele>106</ele>
        <time>2018-06-03T08:20:49Z</time>
      </trkpt>
      <trkpt lat="48.54918" lon="2.15092">
        <ele>107</ele>
        <time>2018-06-03T08:21:05Z</time>
      </trkpt>
      <trkpt lat="48.5492" lon="2.15107">
        <ele>107</ele>
        <time>2018-06-03T08:21:13Z</time>
      </trkpt>
      <trkpt lat="48.54922" lon="2.15114">
        <ele>107</ele>
        <time>2018-06-03T08:21:17Z</time>
      </trkpt>
      <trkpt lat="48.54924" lon="2.15144">
        <ele>108</ele>
        <time>2018-06-03T08:21:34Z</time>
      </trkpt>
      <trkpt lat="48.5492" lon="2.15203">
        <ele>108</ele>
        <time>2018-06-03T08:22:06Z</time>
      </trkpt>
      <trkpt lat="48.54918" lon="2.15212">
        <ele>108</ele>
        <time>2018-06-03T08:22:10Z</time>
      </trkpt>
      <trkpt lat="48.54921" lon="2.15236">
        <ele>109</ele>
        <time>2018-06-03T08:22:21Z</time>
      </trkpt>
      <trkpt lat="48.5492" lon="2.15244">
        <ele>109</ele>
        <time>2018-06-03T08:22:25Z</time>
      </trkpt>
      <trkpt lat="48.54916" lon="2.15273">
        <ele>109</ele>
        <time>2018-06-03T08:22:39Z</time>
      </trkpt>
      <trkpt lat="48.5492" lon="2.15288">
        <ele>109</ele>
        <time>2018-06-03T08:22:49Z</time>
      </trkpt>
      <trkpt lat="48.54919" lon="2.15296">
        <ele>110</ele>
        <time>2018-06-03T08:22:53Z</time>
      </trkpt>
      <trkpt lat="48.5492" lon="2.1531">
        <ele>110</ele>
        <time>2018-06-03T08:23:02Z</time>
      </trkpt>
      <trkpt lat="48.54914" lon="2.15346">
        <ele>112</ele>
        <time>2018-06-03T08:23:21Z</time>
      </trkpt>
      <trkpt lat="48.54907" lon="2.15358">
        <ele>113</ele>
        <time>2018-06-03T08:23:29Z</time>
      </trkpt>
      <trkpt lat="48.54906" lon="2.15365">
        <ele>113</ele>
        <time>2018-06-03T08:23:33Z</time>
      </trkpt>
      <trkpt lat="48.54903" lon="2.15381">
        <ele>114</ele>
        <time>2018-06-03T08:23:41Z</time>
      </trkpt>
      <trkpt lat="48.54893" lon="2.15401">
        <ele>115</ele>
        <time>2018-06-03T08:23:51Z</time>
      </trkpt>
      <trkpt lat="48.54891" lon="2.15407">
        <ele>116</ele>
        <time>2018-06-03T08:23:56Z</time>
      </trkpt>
      <trkpt lat="48.54889" lon="2.15416">
        <ele>117</ele>
        <time>2018-06-03T08:24:01Z</time>
      </trkpt>
      <trkpt lat="48.54891" lon="2.15423">
        <ele>118</ele>
        <time>2018-06-03T08:24:06Z</time>
      </trkpt>
      <trkpt lat="48.54886" lon="2.15438">
        <ele>119</ele>
        <time>2018-06-03T08:24:16Z</time>
      </trkpt>
      <trkpt lat="48.5488" lon="2.15449">
        <ele>121</ele>
        <time>2018-06-03T08:24:26Z</time>
      </trkpt>
      <trkpt lat="48.54879" lon="2.1547">
        <ele>123</ele>
        <time>2018-06-03T08:24:43Z</time>
      </trkpt>
      <trkpt lat="48.54878" lon="2.15479">
        <ele>123</ele>
        <time>2018-06-03T08:24:48Z</time>
      </trkpt>
      <trkpt lat="48.54875" lon="2.15485">
        <ele>122</ele>
        <time>2018-06-03T08:24:51Z</time>
      </trkpt>
      <trkpt lat="48.54874" lon="2.15503">
        <ele>122</ele>
        <time>2018-06-03T08:25:02Z</time>
      </trkpt>
      <trkpt lat="48.54875" lon="2.1551">
        <ele>121</ele>
        <time>2018-06-03T08:25:07Z</time>
      </trkpt>
      <trkpt lat="48.54874" lon="2.15519">
        <ele>121</ele>
        <time>2018-06-03T08:25:12Z</time>
      </trkpt>
      <trkpt lat="48.54863" lon="2.15557">
        <ele>120</ele>
        <time>2018-06-03T08:25:29Z</time>
      </trkpt>
      <trkpt lat="48.54863" lon="2.15563">
        <ele>119</ele>
        <time>2018-06-03T08:25:34Z</time>
      </trkpt>
      <trkpt lat="48.5486" lon="2.1557">
        <ele>119</ele>
        <time>2018-06-03T08:25:47Z</time>
      </trkpt>
      <trkpt lat="48.54861" lon="2.1559">
        <ele>119</ele>
        <time>2018-06-03T08:26:22Z</time>
      </trkpt>
      <trkpt lat="48.54863" lon="2.15595">
        <ele>119</ele>
        <time>2018-06-03T08:26:26Z</time>
      </trkpt>
      <trkpt lat="48.54868" lon="2.15603">
        <ele>119</ele>
        <time>2018-06-03T08:26:32Z</time>
      </trkpt>
      <trkpt lat="48.54864" lon="2.15634">
        <ele>118</ele>
        <time>2018-06-03T08:26:49Z</time>
      </trkpt>
      <trkpt lat="48.54866" lon="2.15641">
        <ele>118</ele>
        <time>2018-06-03T08:26:54Z</time>
      </trkpt>
      <trkpt lat="48.54867" lon="2.15651">
        <ele>118</ele>
        <time>2018-06-03T08:27:00Z</time>
      </trkpt>
      <trkpt lat="48.54871" lon="2.15665">
        <ele>118</ele>
        <time>2018-06-03T08:27:07Z</time>
      </trkpt>
      <trkpt lat="48.5488" lon="2.15712">
        <ele>117</ele>
        <time>2018-06-03T08:27:35Z</time>
      </trkpt>
      <trkpt lat="48.5488" lon="2.15719">
        <ele>117</ele>
        <time>2018-06-03T08:27:39Z</time>
      </trkpt>
      <trkpt lat="48.54893" lon="2.1575">
        <ele>116</ele>
        <time>2018-06-03T08:27:58Z</time>
      </trkpt>
      <trkpt lat="48.54921" lon="2.15793">
        <ele>115</ele>
        <time>2018-06-03T08:28:32Z</time>
      </trkpt>
      <trkpt lat="48.54949" lon="2.15831">
        <ele>114</ele>
        <time>2018-06-03T08:28:59Z</time>
      </trkpt>
      <trkpt lat="48.54954" lon="2.15834">
        <ele>114</ele>
        <time>2018-06-03T08:29:03Z</time>
      </trkpt>
      <trkpt lat="48.54963" lon="2.15843">
        <ele>114</ele>
        <time>2018-06-03T08:29:13Z</time>
      </trkpt>
      <trkpt lat="48.54973" lon="2.15849">
        <ele>114</ele>
        <time>2018-06-03T08:29:21Z</time>
      </trkpt>
      <trkpt lat="48.54976" lon="2.15856">
        <ele>114</ele>
        <time>2018-06-03T08:29:25Z</time>
      </trkpt>
      <trkpt lat="48.5498" lon="2.1586">
        <ele>114</ele>
        <time>2018-06-03T08:29:28Z</time>
      </trkpt>
      <trkpt lat="48.5499" lon="2.15865">
        <ele>113</ele>
        <time>2018-06-03T08:29:35Z</time>
      </trkpt>
      <trkpt lat="48.55015" lon="2.15892">
        <ele>111</ele>
        <time>2018-06-03T08:29:54Z</time>
      </trkpt>
      <trkpt lat="48.55036" lon="2.15923">
        <ele>110</ele>
        <time>2018-06-03T08:30:15Z</time>
      </trkpt>
      <trkpt lat="48.55041" lon="2.15927">
        <ele>110</ele>
        <time>2018-06-03T08:30:19Z</time>
      </trkpt>
      <trkpt lat="48.55045" lon="2.15933">
        <ele>109</ele>
        <time>2018-06-03T08:30:24Z</time>
      </trkpt>
      <trkpt lat="48.55046" lon="2.1594">
        <ele>109</ele>
        <time>2018-06-03T08:30:28Z</time>
      </trkpt>
      <trkpt lat="48.55044" lon="2.15947">
        <ele>109</ele>
        <time>2018-06-03T08:30:33Z</time>
      </trkpt>
      <trkpt lat="48.5504" lon="2.15955">
        <ele>109</ele>
        <time>2018-06-03T08:30:40Z</time>
      </trkpt>
      <trkpt lat="48.5503" lon="2.15958">
        <ele>110</ele>
        <time>2018-06-03T08:30:48Z</time>
      </trkpt>
      <trkpt lat="48.55026" lon="2.15961">
        <ele>110</ele>
        <time>2018-06-03T08:30:52Z</time>
      </trkpt>
      <trkpt lat="48.5502" lon="2.15963">
        <ele>110</ele>
        <time>2018-06-03T08:30:56Z</time>
      </trkpt>
      <trkpt lat="48.55016" lon="2.15962">
        <ele>110</ele>
        <time>2018-06-03T08:30:59Z</time>
      </trkpt>
      <trkpt lat="48.54997" lon="2.1598">
        <ele>110</ele>
        <time>2018-06-03T08:31:15Z</time>
      </trkpt>
      <trkpt lat="48.54989" lon="2.1599">
        <ele>110</ele>
        <time>2018-06-03T08:31:22Z</time>
      </trkpt>
      <trkpt lat="48.54978" lon="2.15997">
        <ele>110</ele>
        <time>2018-06-03T08:31:31Z</time>
      </trkpt>
      <trkpt lat="48.54967" lon="2.16012">
        <ele>110</ele>
        <time>2018-06-03T08:31:42Z</time>
      </trkpt>
      <trkpt lat="48.54929" lon="2.16036">
        <ele>111</ele>
        <time>2018-06-03T08:32:14Z</time>
      </trkpt>
      <trkpt lat="48.54925" lon="2.16039">
        <ele>111</ele>
        <time>2018-06-03T08:32:18Z</time>
      </trkpt>
      <trkpt lat="48.54916" lon="2.16046">
        <ele>111</ele>
        <time>2018-06-03T08:32:26Z</time>
      </trkpt>
      <trkpt lat="48.54911" lon="2.16047">
        <ele>111</ele>
        <time>2018-06-03T08:32:31Z</time>
      </trkpt>
      <trkpt lat="48.54902" lon="2.16054">
        <ele>111</ele>
        <time>2018-06-03T08:32:39Z</time>
      </trkpt>
      <trkpt lat="48.54898" lon="2.1606">
        <ele>111</ele>
        <time>2018-06-03T08:32:43Z</time>
      </trkpt>
      <trkpt lat="48.54885" lon="2.16068">
        <ele>111</ele>
        <time>2018-06-03T08:32:54Z</time>
      </trkpt>
      <trkpt lat="48.54876" lon="2.1608">
        <ele>111</ele>
        <time>2018-06-03T08:33:01Z</time>
      </trkpt>
      <trkpt lat="48.54835" lon="2.16116">
        <ele>110</ele>
        <time>2018-06-03T08:33:36Z</time>
      </trkpt>
      <trkpt lat="48.54831" lon="2.16118">
        <ele>110</ele>
        <time>2018-06-03T08:33:40Z</time>
      </trkpt>
      <trkpt lat="48.54822" lon="2.16126">
        <ele>110</ele>
        <time>2018-06-03T08:33:49Z</time>
      </trkpt>
      <trkpt lat="48.54817" lon="2.16128">
        <ele>110</ele>
        <time>2018-06-03T08:33:52Z</time>
      </trkpt>
      <trkpt lat="48.54804" lon="2.1614">
        <ele>109</ele>
        <time>2018-06-03T08:34:03Z</time>
      </trkpt>
      <trkpt lat="48.54794" lon="2.16144">
        <ele>108</ele>
        <time>2018-06-03T08:34:10Z</time>
      </trkpt>
      <trkpt lat="48.54784" lon="2.16145">
        <ele>108</ele>
        <time>2018-06-03T08:34:17Z</time>
      </trkpt>
      <trkpt lat="48.54775" lon="2.16154">
        <ele>107</ele>
        <time>2018-06-03T08:34:24Z</time>
      </trkpt>
      <trkpt lat="48.54771" lon="2.16157">
        <ele>107</ele>
        <time>2018-06-03T08:34:27Z</time>
      </trkpt>
      <trkpt lat="48.5473" lon="2.16157">
        <ele>105</ele>
        <time>2018-06-03T08:34:59Z</time>
      </trkpt>
      <trkpt lat="48.54725" lon="2.16155">
        <ele>105</ele>
        <time>2018-06-03T08:35:03Z</time>
      </trkpt>
      <trkpt lat="48.54715" lon="2.16158">
        <ele>105</ele>
        <time>2018-06-03T08:35:12Z</time>
      </trkpt>
      <trkpt lat="48.5471" lon="2.16157">
        <ele>104</ele>
        <time>2018-06-03T08:35:18Z</time>
      </trkpt>
      <trkpt lat="48.54705" lon="2.16161">
        <ele>104</ele>
        <time>2018-06-03T08:35:23Z</time>
      </trkpt>
      <trkpt lat="48.54687" lon="2.16208">
        <ele>103</ele>
        <time>2018-06-03T08:35:58Z</time>
      </trkpt>
      <trkpt lat="48.54686" lon="2.16217">
        <ele>103</ele>
        <time>2018-06-03T08:36:02Z</time>
      </trkpt>
      <trkpt lat="48.54672" lon="2.16243">
        <ele>102</ele>
        <time>2018-06-03T08:36:16Z</time>
      </trkpt>
      <trkpt lat="48.54667" lon="2.16257">
        <ele>102</ele>
        <time>2018-06-03T08:36:23Z</time>
      </trkpt>
      <trkpt lat="48.54643" lon="2.16319">
        <ele>98</ele>
        <time>2018-06-03T08:36:57Z</time>
      </trkpt>
      <trkpt lat="48.54626" lon="2.16376">
        <ele>95</ele>
        <time>2018-06-03T08:37:30Z</time>
      </trkpt>
      <trkpt lat="48.5462" lon="2.1639">
        <ele>94</ele>
        <time>2018-06-03T08:37:38Z</time>
      </trkpt>
      <trkpt lat="48.54621" lon="2.16397">
        <ele>94</ele>
        <time>2018-06-03T08:37:43Z</time>
      </trkpt>
      <trkpt lat="48.54623" lon="2.16406">
        <ele>94</ele>
        <time>2018-06-03T08:37:56Z</time>
      </trkpt>
      <trkpt lat="48.5464" lon="2.16455">
        <ele>93</ele>
        <time>2018-06-03T08:38:24Z</time>
      </trkpt>
      <trkpt lat="48.54653" lon="2.16469">
        <ele>93</ele>
        <time>2018-06-03T08:38:36Z</time>
      </trkpt>
      <trkpt lat="48.5469" lon="2.16499">
        <ele>92</ele>
        <time>2018-06-03T08:39:08Z</time>
      </trkpt>
      <trkpt lat="48.547" lon="2.16508">
        <ele>92</ele>
        <time>2018-06-03T08:39:16Z</time>
      </trkpt>
      <trkpt lat="48.5474" lon="2.1654">
        <ele>91</ele>
        <time>2018-06-03T08:39:50Z</time>
      </trkpt>
      <trkpt lat="48.54781" lon="2.16566">
        <ele>90</ele>
        <time>2018-06-03T08:40:23Z</time>
      </trkpt>
      <trkpt lat="48.54794" lon="2.16579">
        <ele>90</ele>
        <time>2018-06-03T08:40:35Z</time>
      </trkpt>
      <trkpt lat="48.5481" lon="2.16587">
        <ele>90</ele>
        <time>2018-06-03T08:40:49Z</time>
      </trkpt>
      <trkpt lat="48.54824" lon="2.16597">
        <ele>90</ele>
        <time>2018-06-03T08:41:01Z</time>
      </trkpt>
      <trkpt lat="48.54829" lon="2.16599">
        <ele>90</ele>
        <time>2018-06-03T08:41:05Z</time>
      </trkpt>
      <trkpt lat="48.54848" lon="2.16613">
        <ele>89</ele>
        <time>2018-06-03T08:41:22Z</time>
      </trkpt>
      <trkpt lat="48.54885" lon="2.16648">
        <ele>88</ele>
        <time>2018-06-03T08:41:54Z</time>
      </trkpt>
      <trkpt lat="48.54906" lon="2.16665">
        <ele>87</ele>
        <time>2018-06-03T08:42:14Z</time>
      </trkpt>
      <trkpt lat="48.5492" lon="2.16674">
        <ele>87</ele>
        <time>2018-06-03T08:42:25Z</time>
      </trkpt>
      <trkpt lat="48.54957" lon="2.16702">
        <ele>86</ele>
        <time>2018-06-03T08:42:56Z</time>
      </trkpt>
      <trkpt lat="48.54961" lon="2.16705">
        <ele>86</ele>
        <time>2018-06-03T08:43:00Z</time>
      </trkpt>
      <trkpt lat="48.54966" lon="2.16708">
        <ele>86</ele>
        <time>2018-06-03T08:43:04Z</time>
      </trkpt>
      <trkpt lat="48.55008" lon="2.16736">
        <ele>84</ele>
        <time>2018-06-03T08:43:38Z</time>
      </trkpt>
      <trkpt lat="48.55049" lon="2.16762">
        <ele>82</ele>
        <time>2018-06-03T08:44:11Z</time>
      </trkpt>
      <trkpt lat="48.55054" lon="2.16764">
        <ele>82</ele>
        <time>2018-06-03T08:44:15Z</time>
      </trkpt>
      <trkpt lat="48.55077" lon="2.16784">
        <ele>81</ele>
        <time>2018-06-03T08:44:33Z</time>
      </trkpt>
      <trkpt lat="48.55086" lon="2.16789">
        <ele>81</ele>
        <time>2018-06-03T08:44:41Z</time>
      </trkpt>
      <trkpt lat="48.55119" lon="2.16817">
        <ele>80</ele>
        <time>2018-06-03T08:45:09Z</time>
      </trkpt>
      <trkpt lat="48.55123" lon="2.16819">
        <ele>80</ele>
        <time>2018-06-03T08:45:12Z</time>
      </trkpt>
      <trkpt lat="48.55156" lon="2.16862">
        <ele>79</ele>
        <time>2018-06-03T08:45:43Z</time>
      </trkpt>
      <trkpt lat="48.55185" lon="2.16893">
        <ele>78</ele>
        <time>2018-06-03T08:46:09Z</time>
      </trkpt>
      <trkpt lat="48.55189" lon="2.16902">
        <ele>79</ele>
        <time>2018-06-03T08:46:22Z</time>
      </trkpt>
      <trkpt lat="48.55193" lon="2.16908">
        <ele>79</ele>
        <time>2018-06-03T08:46:34Z</time>
      </trkpt>
      <trkpt lat="48.55208" lon="2.16918">
        <ele>78</ele>
        <time>2018-06-03T08:46:59Z</time>
      </trkpt>
      <trkpt lat="48.55215" lon="2.16922">
        <ele>79</ele>
        <time>2018-06-03T08:47:06Z</time>
      </trkpt>
      <trkpt lat="48.55219" lon="2.16926">
        <ele>79</ele>
        <time>2018-06-03T08:47:11Z</time>
      </trkpt>
      <trkpt lat="48.55225" lon="2.16928">
        <ele>78</ele>
        <time>2018-06-03T08:47:17Z</time>
      </trkpt>
      <trkpt lat="48.55234" lon="2.1693">
        <ele>78</ele>
        <time>2018-06-03T08:47:24Z</time>
      </trkpt>
      <trkpt lat="48.55239" lon="2.16932">
        <ele>79</ele>
        <time>2018-06-03T08:47:28Z</time>
      </trkpt>
      <trkpt lat="48.55278" lon="2.16951">
        <ele>79</ele>
        <time>2018-06-03T08:48:01Z</time>
      </trkpt>
      <trkpt lat="48.55284" lon="2.16952">
        <ele>79</ele>
        <time>2018-06-03T08:48:06Z</time>
      </trkpt>
      <trkpt lat="48.55289" lon="2.16952">
        <ele>79</ele>
        <time>2018-06-03T08:48:10Z</time>
      </trkpt>
      <trkpt lat="48.55294" lon="2.16953">
        <ele>79</ele>
        <time>2018-06-03T08:48:14Z</time>
      </trkpt>
      <trkpt lat="48.55336" lon="2.16957">
        <ele>79</ele>
        <time>2018-06-03T08:48:47Z</time>
      </trkpt>
      <trkpt lat="48.55351" lon="2.16958">
        <ele>79</ele>
        <time>2018-06-03T08:49:00Z</time>
      </trkpt>
      <trkpt lat="48.55368" lon="2.16955">
        <ele>80</ele>
        <time>2018-06-03T08:49:13Z</time>
      </trkpt>
      <trkpt lat="48.55393" lon="2.16957">
        <ele>81</ele>
        <time>2018-06-03T08:49:33Z</time>
      </trkpt>
      <trkpt lat="48.55433" lon="2.16957">
        <ele>80</ele>
        <time>2018-06-03T08:50:05Z</time>
      </trkpt>
      <trkpt lat="48.55438" lon="2.16958">
        <ele>80</ele>
        <time>2018-06-03T08:50:09Z</time>
      </trkpt>
      <trkpt lat="48.55466" lon="2.16959">
        <ele>79</ele>
        <time>2018-06-03T08:50:29Z</time>
      </trkpt>
      <trkpt lat="48.55487" lon="2.16963">
        <ele>80</ele>
        <time>2018-06-03T08:50:47Z</time>
      </trkpt>
      <trkpt lat="48.55509" lon="2.16966">
        <ele>80</ele>
        <time>2018-06-03T08:51:03Z</time>
      </trkpt>
      <trkpt lat="48.55542" lon="2.16985">
        <ele>81</ele>
        <time>2018-06-03T08:51:31Z</time>
      </trkpt>
      <trkpt lat="48.55547" lon="2.16988">
        <ele>81</ele>
        <time>2018-06-03T08:51:35Z</time>
      </trkpt>
      <trkpt lat="48.55584" lon="2.17015">
        <ele>81</ele>
        <time>2018-06-03T08:52:07Z</time>
      </trkpt>
      <trkpt lat="48.55618" lon="2.17038">
        <ele>81</ele>
        <time>2018-06-03T08:52:37Z</time>
      </trkpt>
      <trkpt lat="48.55624" lon="2.17045">
        <ele>81</ele>
        <time>2018-06-03T08:52:43Z</time>
      </trkpt>
      <trkpt lat="48.5566" lon="2.17072">
        <ele>82</ele>
        <time>2018-06-03T08:53:14Z</time>
      </trkpt>
      <trkpt lat="48.55666" lon="2.17077">
        <ele>82</ele>
        <time>2018-06-03T08:53:20Z</time>
      </trkpt>
      <trkpt lat="48.55681" lon="2.17084">
        <ele>82</ele>
        <time>2018-06-03T08:53:33Z</time>
      </trkpt>
      <trkpt lat="48.55684" lon="2.17089">
        <ele>82</ele>
        <time>2018-06-03T08:53:38Z</time>
      </trkpt>
      <trkpt lat="48.55693" lon="2.17094">
        <ele>82</ele>
        <time>2018-06-03T08:53:52Z</time>
      </trkpt>
      <trkpt lat="48.55698" lon="2.17102">
        <ele>82</ele>
        <time>2018-06-03T08:55:10Z</time>
      </trkpt>
      <trkpt lat="48.55708" lon="2.17114">
        <ele>82</ele>
        <time>2018-06-03T08:55:45Z</time>
      </trkpt>
      <trkpt lat="48.55713" lon="2.17123">
        <ele>82</ele>
        <time>2018-06-03T08:55:52Z</time>
      </trkpt>
      <trkpt lat="48.55723" lon="2.17133">
        <ele>82</ele>
        <time>2018-06-03T08:56:03Z</time>
      </trkpt>
      <trkpt lat="48.5575" lon="2.17171">
        <ele>81</ele>
        <time>2018-06-03T08:56:34Z</time>
      </trkpt>
      <trkpt lat="48.55781" lon="2.17221">
        <ele>81</ele>
        <time>2018-06-03T08:57:08Z</time>
      </trkpt>
      <trkpt lat="48.55785" lon="2.17227">
        <ele>80</ele>
        <time>2018-06-03T08:57:12Z</time>
      </trkpt>
      <trkpt lat="48.55815" lon="2.17278">
        <ele>79</ele>
        <time>2018-06-03T08:57:44Z</time>
      </trkpt>
      <trkpt lat="48.55842" lon="2.17328">
        <ele>77</ele>
        <time>2018-06-03T08:58:15Z</time>
      </trkpt>
      <trkpt lat="48.55868" lon="2.17377">
        <ele>76</ele>
        <time>2018-06-03T08:58:47Z</time>
      </trkpt>
      <trkpt lat="48.55889" lon="2.17413">
        <ele>76</ele>
        <time>2018-06-03T08:59:10Z</time>
      </trkpt>
      <trkpt lat="48.55904" lon="2.1743">
        <ele>75</ele>
        <time>2018-06-03T08:59:26Z</time>
      </trkpt>
      <trkpt lat="48.55941" lon="2.17461">
        <ele>75</ele>
        <time>2018-06-03T09:00:00Z</time>
      </trkpt>
      <trkpt lat="48.55959" lon="2.17472">
        <ele>75</ele>
        <time>2018-06-03T09:00:16Z</time>
      </trkpt>
      <trkpt lat="48.55991" lon="2.17507">
        <ele>73</ele>
        <time>2018-06-03T09:00:48Z</time>
      </trkpt>
      <trkpt lat="48.56028" lon="2.17538">
        <ele>71</ele>
        <time>2018-06-03T09:01:19Z</time>
      </trkpt>
      <trkpt lat="48.56032" lon="2.17541">
        <ele>71</ele>
        <time>2018-06-03T09:01:23Z</time>
      </trkpt>
      <trkpt lat="48.56069" lon="2.17574">
        <ele>70</ele>
        <time>2018-06-03T09:01:54Z</time>
      </trkpt>
      <trkpt lat="48.56108" lon="2.17603">
        <ele>68</ele>
        <time>2018-06-03T09:02:27Z</time>
      </trkpt>
      <trkpt lat="48.56112" lon="2.17608">
        <ele>68</ele>
        <time>2018-06-03T09:02:31Z</time>
      </trkpt>
      <trkpt lat="48.56121" lon="2.17628">
        <ele>67</ele>
        <time>2018-06-03T09:02:42Z</time>
      </trkpt>
      <trkpt lat="48.56132" lon="2.17663">
        <ele>66</ele>
        <time>2018-06-03T09:03:01Z</time>
      </trkpt>
      <trkpt lat="48.56143" lon="2.17676">
        <ele>66</ele>
        <time>2018-06-03T09:03:16Z</time>
      </trkpt>
      <trkpt lat="48.56146" lon="2.17682">
        <ele>65</ele>
        <time>2018-06-03T09:03:20Z</time>
      </trkpt>
      <trkpt lat="48.56162" lon="2.17697">
        <ele>64</ele>
        <time>2018-06-03T09:03:57Z</time>
      </trkpt>
      <trkpt lat="48.56164" lon="2.17703">
        <ele>64</ele>
        <time>2018-06-03T09:04:02Z</time>
      </trkpt>
      <trkpt lat="48.56163" lon="2.17711">
        <ele>64</ele>
        <time>2018-06-03T09:04:06Z</time>
      </trkpt>
      <trkpt lat="48.5616" lon="2.17718">
        <ele>64</ele>
        <time>2018-06-03T09:04:10Z</time>
      </trkpt>
      <trkpt lat="48.5615" lon="2.17734">
        <ele>63</ele>
        <time>2018-06-03T09:04:18Z</time>
      </trkpt>
      <trkpt lat="48.5613" lon="2.17788">
        <ele>62</ele>
        <time>2018-06-03T09:04:50Z</time>
      </trkpt>
      <trkpt lat="48.56126" lon="2.17795">
        <ele>62</ele>
        <time>2018-06-03T09:04:54Z</time>
      </trkpt>
      <trkpt lat="48.56103" lon="2.17844">
        <ele>61</ele>
        <time>2018-06-03T09:05:25Z</time>
      </trkpt>
      <trkpt lat="48.56101" lon="2.1785">
        <ele>61</ele>
        <time>2018-06-03T09:05:29Z</time>
      </trkpt>
      <trkpt lat="48.56092" lon="2.17869">
        <ele>62</ele>
        <time>2018-06-03T09:05:40Z</time>
      </trkpt>
      <trkpt lat="48.56072" lon="2.17922">
        <ele>62</ele>
        <time>2018-06-03T09:06:12Z</time>
      </trkpt>
      <trkpt lat="48.56052" lon="2.17975">
        <ele>64</ele>
        <time>2018-06-03T09:06:45Z</time>
      </trkpt>
      <trkpt lat="48.56049" lon="2.17981">
        <ele>65</ele>
        <time>2018-06-03T09:06:49Z</time>
      </trkpt>
      <trkpt lat="48.56028" lon="2.1803">
        <ele>68</ele>
        <time>2018-06-03T09:07:23Z</time>
      </trkpt>
      <trkpt lat="48.56026" lon="2.18037">
        <ele>69</ele>
        <time>2018-06-03T09:07:28Z</time>
      </trkpt>
      <trkpt lat="48.56024" lon="2.18044">
        <ele>69</ele>
        <time>2018-06-03T09:07:33Z</time>
      </trkpt>
      <trkpt lat="48.56006" lon="2.18091">
        <ele>72</ele>
        <time>2018-06-03T09:08:04Z</time>
      </trkpt>
      <trkpt lat="48.55993" lon="2.18126">
        <ele>75</ele>
        <time>2018-06-03T09:08:29Z</time>
      </trkpt>
      <trkpt lat="48.55993" lon="2.18135">
        <ele>76</ele>
        <time>2018-06-03T09:08:34Z</time>
      </trkpt>
      <trkpt lat="48.5599" lon="2.18144">
        <ele>76</ele>
        <time>2018-06-03T09:08:41Z</time>
      </trkpt>
      <trkpt lat="48.55986" lon="2.18156">
        <ele>76</ele>
        <time>2018-06-03T09:08:59Z</time>
      </trkpt>
      <trkpt lat="48.55983" lon="2.18161">
        <ele>77</ele>
        <time>2018-06-03T09:09:04Z</time>
      </trkpt>
      <trkpt lat="48.55981" lon="2.18168">
        <ele>77</ele>
        <time>2018-06-03T09:09:29Z</time>
      </trkpt>
      <trkpt lat="48.55977" lon="2.18185">
        <ele>78</ele>
        <time>2018-06-03T09:10:11Z</time>
      </trkpt>
      <trkpt lat="48.55975" lon="2.18193">
        <ele>78</ele>
        <time>2018-06-03T09:11:15Z</time>
      </trkpt>
      <trkpt lat="48.55966" lon="2.18206">
        <ele>78</ele>
        <time>2018-06-03T09:11:25Z</time>
      </trkpt>
      <trkpt lat="48.55962" lon="2.18208">
        <ele>79</ele>
        <time>2018-06-03T09:11:30Z</time>
      </trkpt>
      <trkpt lat="48.55958" lon="2.18213">
        <ele>79</ele>
        <time>2018-06-03T09:11:34Z</time>
      </trkpt>
      <trkpt lat="48.55953" lon="2.18227">
        <ele>80</ele>
        <time>2018-06-03T09:11:42Z</time>
      </trkpt>
      <trkpt lat="48.55947" lon="2.18238">
        <ele>81</ele>
        <time>2018-06-03T09:11:50Z</time>
      </trkpt>
      <trkpt lat="48.55934" lon="2.1825">
        <ele>82</ele>
        <time>2018-06-03T09:12:02Z</time>
      </trkpt>
      <trkpt lat="48.55927" lon="2.18262">
        <ele>83</ele>
        <time>2018-06-03T09:12:11Z</time>
      </trkpt>
      <trkpt lat="48.55924" lon="2.18269">
        <ele>84</ele>
        <time>2018-06-03T09:12:16Z</time>
      </trkpt>
      <trkpt lat="48.55918" lon="2.18274">
        <ele>85</ele>
        <time>2018-06-03T09:12:24Z</time>
      </trkpt>
      <trkpt lat="48.55888" lon="2.18269">
        <ele>86</ele>
        <time>2018-06-03T09:12:51Z</time>
      </trkpt>
      <trkpt lat="48.55885" lon="2.18274">
        <ele>87</ele>
        <time>2018-06-03T09:12:59Z</time>
      </trkpt>
      <trkpt lat="48.55891" lon="2.18281">
        <ele>88</ele>
        <time>2018-06-03T09:13:10Z</time>
      </trkpt>
      <trkpt lat="48.55895" lon="2.18287">
        <ele>88</ele>
        <time>2018-06-03T09:13:15Z</time>
      </trkpt>
      <trkpt lat="48.55897" lon="2.18295">
        <ele>88</ele>
        <time>2018-06-03T09:13:19Z</time>
      </trkpt>
      <trkpt lat="48.55895" lon="2.18303">
        <ele>89</ele>
        <time>2018-06-03T09:13:24Z</time>
      </trkpt>
      <trkpt lat="48.55892" lon="2.18309">
        <ele>89</ele>
        <time>2018-06-03T09:13:28Z</time>
      </trkpt>
      <trkpt lat="48.55891" lon="2.18316">
        <ele>90</ele>
        <time>2018-06-03T09:13:33Z</time>
      </trkpt>
      <trkpt lat="48.55891" lon="2.18323">
        <ele>90</ele>
        <time>2018-06-03T09:13:37Z</time>
      </trkpt>
      <trkpt lat="48.55896" lon="2.18329">
        <ele>91</ele>
        <time>2018-06-03T09:13:39Z</time>
      </trkpt>
      <trkpt lat="48.55898" lon="2.18337">
        <ele>91</ele>
        <time>2018-06-03T09:13:42Z</time>
      </trkpt>
      <trkpt lat="48.55894" lon="2.18344">
        <ele>93</ele>
        <time>2018-06-03T09:13:51Z</time>
      </trkpt>
      <trkpt lat="48.5588" lon="2.18363">
        <ele>95</ele>
        <time>2018-06-03T09:14:07Z</time>
      </trkpt>
      <trkpt lat="48.55875" lon="2.18378">
        <ele>98</ele>
        <time>2018-06-03T09:14:19Z</time>
      </trkpt>
      <trkpt lat="48.55874" lon="2.18387">
        <ele>99</ele>
        <time>2018-06-03T09:14:24Z</time>
      </trkpt>
      <trkpt lat="48.55872" lon="2.18393">
        <ele>100</ele>
        <time>2018-06-03T09:14:29Z</time>
      </trkpt>
      <trkpt lat="48.55871" lon="2.18401">
        <ele>101</ele>
        <time>2018-06-03T09:14:34Z</time>
      </trkpt>
      <trkpt lat="48.55872" lon="2.18408">
        <ele>101</ele>
        <time>2018-06-03T09:14:38Z</time>
      </trkpt>
      <trkpt lat="48.55872" lon="2.18416">
        <ele>102</ele>
        <time>2018-06-03T09:14:43Z</time>
      </trkpt>
      <trkpt lat="48.5587" lon="2.18423">
        <ele>103</ele>
        <time>2018-06-03T09:14:47Z</time>
      </trkpt>
      <trkpt lat="48.55854" lon="2.18462">
        <ele>105</ele>
        <time>2018-06-03T09:15:13Z</time>
      </trkpt>
      <trkpt lat="48.5584" lon="2.18516">
        <ele>109</ele>
        <time>2018-06-03T09:15:47Z</time>
      </trkpt>
      <trkpt lat="48.55837" lon="2.18529">
        <ele>110</ele>
        <time>2018-06-03T09:15:54Z</time>
      </trkpt>
      <trkpt lat="48.55836" lon="2.18543">
        <ele>111</ele>
        <time>2018-06-03T09:16:02Z</time>
      </trkpt>
      <trkpt lat="48.55831" lon="2.18556">
        <ele>111</ele>
        <time>2018-06-03T09:16:10Z</time>
      </trkpt>
      <trkpt lat="48.55827" lon="2.18585">
        <ele>114</ele>
        <time>2018-06-03T09:16:28Z</time>
      </trkpt>
      <trkpt lat="48.55826" lon="2.18614">
        <ele>117</ele>
        <time>2018-06-03T09:16:46Z</time>
      </trkpt>
      <trkpt lat="48.55827" lon="2.18621">
        <ele>118</ele>
        <time>2018-06-03T09:16:50Z</time>
      </trkpt>
      <trkpt lat="48.55826" lon="2.18633">
        <ele>120</ele>
        <time>2018-06-03T09:16:59Z</time>
      </trkpt>
      <trkpt lat="48.55827" lon="2.1864">
        <ele>122</ele>
        <time>2018-06-03T09:17:04Z</time>
      </trkpt>
      <trkpt lat="48.55824" lon="2.18675">
        <ele>126</ele>
        <time>2018-06-03T09:17:29Z</time>
      </trkpt>
      <trkpt lat="48.55819" lon="2.18688">
        <ele>127</ele>
        <time>2018-06-03T09:17:37Z</time>
      </trkpt>
      <trkpt lat="48.55801" lon="2.18732">
        <ele>133</ele>
        <time>2018-06-03T09:18:11Z</time>
      </trkpt>
      <trkpt lat="48.55798" lon="2.18745">
        <ele>134</ele>
        <time>2018-06-03T09:18:20Z</time>
      </trkpt>
      <trkpt lat="48.55796" lon="2.1876">
        <ele>137</ele>
        <time>2018-06-03T09:18:35Z</time>
      </trkpt>
      <trkpt lat="48.55799" lon="2.18766">
        <ele>138</ele>
        <time>2018-06-03T09:18:41Z</time>
      </trkpt>
      <trkpt lat="48.55799" lon="2.18777">
        <ele>139</ele>
        <time>2018-06-03T09:18:53Z</time>
      </trkpt>
      <trkpt lat="48.55797" lon="2.18784">
        <ele>139</ele>
        <time>2018-06-03T09:19:05Z</time>
      </trkpt>
      <trkpt lat="48.55797" lon="2.18787">
        <ele>140</ele>
        <time>2018-06-03T09:21:00Z</time>
      </trkpt>
      <trkpt lat="48.55798" lon="2.18786">
        <ele>143</ele>
        <time>2018-06-03T09:34:01Z</time>
      </trkpt>
      <trkpt lat="48.55804" lon="2.18786">
        <ele>143</ele>
        <time>2018-06-03T09:34:19Z</time>
      </trkpt>
      <trkpt lat="48.55801" lon="2.18798">
        <ele>143</ele>
        <time>2018-06-03T09:34:40Z</time>
      </trkpt>
      <trkpt lat="48.55788" lon="2.18804">
        <ele>142</ele>
        <time>2018-06-03T09:34:52Z</time>
      </trkpt>
      <trkpt lat="48.55762" lon="2.18812">
        <ele>142</ele>
        <time>2018-06-03T09:35:09Z</time>
      </trkpt>
      <trkpt lat="48.55756" lon="2.18814">
        <ele>142</ele>
        <time>2018-06-03T09:35:13Z</time>
      </trkpt>
      <trkpt lat="48.55752" lon="2.18818">
        <ele>143</ele>
        <time>2018-06-03T09:35:17Z</time>
      </trkpt>
      <trkpt lat="48.55731" lon="2.18824">
        <ele>143</ele>
        <time>2018-06-03T09:35:33Z</time>
      </trkpt>
      <trkpt lat="48.55726" lon="2.18829">
        <ele>143</ele>
        <time>2018-06-03T09:35:38Z</time>
      </trkpt>
      <trkpt lat="48.55721" lon="2.18852">
        <ele>143</ele>
        <time>2018-06-03T09:35:52Z</time>
      </trkpt>
      <trkpt lat="48.5572" lon="2.1886">
        <ele>143</ele>
        <time>2018-06-03T09:35:57Z</time>
      </trkpt>
      <trkpt lat="48.5572" lon="2.18876">
        <ele>143</ele>
        <time>2018-06-03T09:36:05Z</time>
      </trkpt>
      <trkpt lat="48.55718" lon="2.18883">
        <ele>143</ele>
        <time>2018-06-03T09:36:09Z</time>
      </trkpt>
      <trkpt lat="48.55716" lon="2.189">
        <ele>143</ele>
        <time>2018-06-03T09:36:17Z</time>
      </trkpt>
      <trkpt lat="48.55714" lon="2.18907">
        <ele>143</ele>
        <time>2018-06-03T09:36:21Z</time>
      </trkpt>
      <trkpt lat="48.55711" lon="2.18929">
        <ele>143</ele>
        <time>2018-06-03T09:36:33Z</time>
      </trkpt>
      <trkpt lat="48.55713" lon="2.18947">
        <ele>143</ele>
        <time>2018-06-03T09:36:41Z</time>
      </trkpt>
      <trkpt lat="48.55712" lon="2.18954">
        <ele>143</ele>
        <time>2018-06-03T09:36:45Z</time>
      </trkpt>
      <trkpt lat="48.55713" lon="2.18969">
        <ele>144</ele>
        <time>2018-06-03T09:36:53Z</time>
      </trkpt>
      <trkpt lat="48.55711" lon="2.18976">
        <ele>143</ele>
        <time>2018-06-03T09:36:57Z</time>
      </trkpt>
      <trkpt lat="48.55709" lon="2.18982">
        <ele>143</ele>
        <time>2018-06-03T09:37:02Z</time>
      </trkpt>
      <trkpt lat="48.55707" lon="2.19">
        <ele>141</ele>
        <time>2018-06-03T09:37:14Z</time>
      </trkpt>
      <trkpt lat="48.55701" lon="2.19019">
        <ele>138</ele>
        <time>2018-06-03T09:37:27Z</time>
      </trkpt>
      <trkpt lat="48.55701" lon="2.19049">
        <ele>136</ele>
        <time>2018-06-03T09:37:41Z</time>
      </trkpt>
      <trkpt lat="48.55703" lon="2.19056">
        <ele>135</ele>
        <time>2018-06-03T09:37:46Z</time>
      </trkpt>
      <trkpt lat="48.55703" lon="2.19067">
        <ele>134</ele>
        <time>2018-06-03T09:37:53Z</time>
      </trkpt>
      <trkpt lat="48.55705" lon="2.19074">
        <ele>133</ele>
        <time>2018-06-03T09:37:57Z</time>
      </trkpt>
      <trkpt lat="48.55704" lon="2.19084">
        <ele>133</ele>
        <time>2018-06-03T09:38:03Z</time>
      </trkpt>
      <trkpt lat="48.55704" lon="2.191">
        <ele>132</ele>
        <time>2018-06-03T09:38:11Z</time>
      </trkpt>
      <trkpt lat="48.55711" lon="2.19114">
        <ele>132</ele>
        <time>2018-06-03T09:38:18Z</time>
      </trkpt>
      <trkpt lat="48.55711" lon="2.19122">
        <ele>131</ele>
        <time>2018-06-03T09:38:21Z</time>
      </trkpt>
      <trkpt lat="48.55716" lon="2.19134">
        <ele>131</ele>
        <time>2018-06-03T09:38:27Z</time>
      </trkpt>
      <trkpt lat="48.55717" lon="2.19142">
        <ele>131</ele>
        <time>2018-06-03T09:38:31Z</time>
      </trkpt>
      <trkpt lat="48.55715" lon="2.19149">
        <ele>130</ele>
        <time>2018-06-03T09:38:34Z</time>
      </trkpt>
      <trkpt lat="48.55715" lon="2.19157">
        <ele>130</ele>
        <time>2018-06-03T09:38:38Z</time>
      </trkpt>
      <trkpt lat="48.5572" lon="2.1918">
        <ele>130</ele>
        <time>2018-06-03T09:38:51Z</time>
      </trkpt>
      <trkpt lat="48.55714" lon="2.19195">
        <ele>129</ele>
        <time>2018-06-03T09:38:58Z</time>
      </trkpt>
      <trkpt lat="48.55714" lon="2.19211">
        <ele>129</ele>
        <time>2018-06-03T09:39:06Z</time>
      </trkpt>
      <trkpt lat="48.55716" lon="2.19217">
        <ele>128</ele>
        <time>2018-06-03T09:39:10Z</time>
      </trkpt>
      <trkpt lat="48.55716" lon="2.19234">
        <ele>128</ele>
        <time>2018-06-03T09:39:20Z</time>
      </trkpt>
      <trkpt lat="48.55714" lon="2.19241">
        <ele>128</ele>
        <time>2018-06-03T09:39:24Z</time>
      </trkpt>
      <trkpt lat="48.55711" lon="2.19247">
        <ele>127</ele>
        <time>2018-06-03T09:39:27Z</time>
      </trkpt>
      <trkpt lat="48.55711" lon="2.19254">
        <ele>127</ele>
        <time>2018-06-03T09:39:31Z</time>
      </trkpt>
      <trkpt lat="48.55713" lon="2.19261">
        <ele>127</ele>
        <time>2018-06-03T09:39:35Z</time>
      </trkpt>
      <trkpt lat="48.5571" lon="2.19277">
        <ele>126</ele>
        <time>2018-06-03T09:39:43Z</time>
      </trkpt>
      <trkpt lat="48.55707" lon="2.19282">
        <ele>126</ele>
        <time>2018-06-03T09:39:47Z</time>
      </trkpt>
      <trkpt lat="48.55705" lon="2.1929">
        <ele>125</ele>
        <time>2018-06-03T09:39:51Z</time>
      </trkpt>
      <trkpt lat="48.55705" lon="2.19298">
        <ele>125</ele>
        <time>2018-06-03T09:39:55Z</time>
      </trkpt>
      <trkpt lat="48.55703" lon="2.19306">
        <ele>124</ele>
        <time>2018-06-03T09:39:59Z</time>
      </trkpt>
      <trkpt lat="48.55696" lon="2.19316">
        <ele>124</ele>
        <time>2018-06-03T09:40:07Z</time>
      </trkpt>
      <trkpt lat="48.55694" lon="2.19324">
        <ele>124</ele>
        <time>2018-06-03T09:40:11Z</time>
      </trkpt>
      <trkpt lat="48.55694" lon="2.1934">
        <ele>122</ele>
        <time>2018-06-03T09:40:21Z</time>
      </trkpt>
      <trkpt lat="48.55692" lon="2.19347">
        <ele>122</ele>
        <time>2018-06-03T09:40:25Z</time>
      </trkpt>
      <trkpt lat="48.55693" lon="2.19363">
        <ele>121</ele>
        <time>2018-06-03T09:40:33Z</time>
      </trkpt>
      <trkpt lat="48.55688" lon="2.19386">
        <ele>120</ele>
        <time>2018-06-03T09:40:45Z</time>
      </trkpt>
      <trkpt lat="48.5568" lon="2.19397">
        <ele>119</ele>
        <time>2018-06-03T09:40:53Z</time>
      </trkpt>
      <trkpt lat="48.5568" lon="2.19405">
        <ele>119</ele>
        <time>2018-06-03T09:40:57Z</time>
      </trkpt>
      <trkpt lat="48.5568" lon="2.19413">
        <ele>119</ele>
        <time>2018-06-03T09:41:01Z</time>
      </trkpt>
      <trkpt lat="48.55678" lon="2.1942">
        <ele>118</ele>
        <time>2018-06-03T09:41:05Z</time>
      </trkpt>
      <trkpt lat="48.55676" lon="2.19427">
        <ele>118</ele>
        <time>2018-06-03T09:41:08Z</time>
      </trkpt>
      <trkpt lat="48.5567" lon="2.19442">
        <ele>117</ele>
        <time>2018-06-03T09:41:16Z</time>
      </trkpt>
      <trkpt lat="48.55666" lon="2.19462">
        <ele>116</ele>
        <time>2018-06-03T09:41:26Z</time>
      </trkpt>
      <trkpt lat="48.55663" lon="2.195">
        <ele>115</ele>
        <time>2018-06-03T09:41:44Z</time>
      </trkpt>
      <trkpt lat="48.55659" lon="2.19513">
        <ele>114</ele>
        <time>2018-06-03T09:41:52Z</time>
      </trkpt>
      <trkpt lat="48.55654" lon="2.19565">
        <ele>113</ele>
        <time>2018-06-03T09:42:18Z</time>
      </trkpt>
      <trkpt lat="48.55652" lon="2.19571">
        <ele>113</ele>
        <time>2018-06-03T09:42:22Z</time>
      </trkpt>
      <trkpt lat="48.55651" lon="2.19578">
        <ele>113</ele>
        <time>2018-06-03T09:42:25Z</time>
      </trkpt>
      <trkpt lat="48.55651" lon="2.19586">
        <ele>112</ele>
        <time>2018-06-03T09:42:29Z</time>
      </trkpt>
      <trkpt lat="48.5565" lon="2.19593">
        <ele>112</ele>
        <time>2018-06-03T09:42:32Z</time>
      </trkpt>
      <trkpt lat="48.55648" lon="2.196">
        <ele>112</ele>
        <time>2018-06-03T09:42:35Z</time>
      </trkpt>
      <trkpt lat="48.5564" lon="2.19661">
        <ele>110</ele>
        <time>2018-06-03T09:43:10Z</time>
      </trkpt>
      <trkpt lat="48.5564" lon="2.19668">
        <ele>110</ele>
        <time>2018-06-03T09:43:14Z</time>
      </trkpt>
      <trkpt lat="48.55639" lon="2.19674">
        <ele>110</ele>
        <time>2018-06-03T09:43:18Z</time>
      </trkpt>
      <trkpt lat="48.55637" lon="2.19689">
        <ele>110</ele>
        <time>2018-06-03T09:43:25Z</time>
      </trkpt>
      <trkpt lat="48.55634" lon="2.19705">
        <ele>109</ele>
        <time>2018-06-03T09:43:33Z</time>
      </trkpt>
      <trkpt lat="48.55631" lon="2.19743">
        <ele>109</ele>
        <time>2018-06-03T09:43:54Z</time>
      </trkpt>
      <trkpt lat="48.55622" lon="2.19772">
        <ele>108</ele>
        <time>2018-06-03T09:44:10Z</time>
      </trkpt>
      <trkpt lat="48.55618" lon="2.19787">
        <ele>109</ele>
        <time>2018-06-03T09:44:18Z</time>
      </trkpt>
      <trkpt lat="48.55615" lon="2.19792">
        <ele>109</ele>
        <time>2018-06-03T09:44:22Z</time>
      </trkpt>
      <trkpt lat="48.55611" lon="2.19795">
        <ele>108</ele>
        <time>2018-06-03T09:44:26Z</time>
      </trkpt>
      <trkpt lat="48.556" lon="2.19796">
        <ele>109</ele>
        <time>2018-06-03T09:44:34Z</time>
      </trkpt>
      <trkpt lat="48.55562" lon="2.19776">
        <ele>108</ele>
        <time>2018-06-03T09:45:07Z</time>
      </trkpt>
      <trkpt lat="48.55558" lon="2.19773">
        <ele>109</ele>
        <time>2018-06-03T09:45:11Z</time>
      </trkpt>
      <trkpt lat="48.55552" lon="2.19773">
        <ele>109</ele>
        <time>2018-06-03T09:45:15Z</time>
      </trkpt>
      <trkpt lat="48.55515" lon="2.19757">
        <ele>109</ele>
        <time>2018-06-03T09:45:47Z</time>
      </trkpt>
      <trkpt lat="48.55492" lon="2.1975">
        <ele>111</ele>
        <time>2018-06-03T09:46:06Z</time>
      </trkpt>
      <trkpt lat="48.55477" lon="2.19751">
        <ele>112</ele>
        <time>2018-06-03T09:46:21Z</time>
      </trkpt>
      <trkpt lat="48.55461" lon="2.19754">
        <ele>112</ele>
        <time>2018-06-03T09:46:36Z</time>
      </trkpt>
      <trkpt lat="48.55456" lon="2.19753">
        <ele>112</ele>
        <time>2018-06-03T09:46:45Z</time>
      </trkpt>
      <trkpt lat="48.55428" lon="2.19755">
        <ele>110</ele>
        <time>2018-06-03T09:47:14Z</time>
      </trkpt>
      <trkpt lat="48.55422" lon="2.19757">
        <ele>110</ele>
        <time>2018-06-03T09:47:18Z</time>
      </trkpt>
      <trkpt lat="48.55406" lon="2.19765">
        <ele>109</ele>
        <time>2018-06-03T09:47:34Z</time>
      </trkpt>
      <trkpt lat="48.55388" lon="2.19762">
        <ele>108</ele>
        <time>2018-06-03T09:47:44Z</time>
      </trkpt>
      <trkpt lat="48.55368" lon="2.19752">
        <ele>108</ele>
        <time>2018-06-03T09:48:02Z</time>
      </trkpt>
      <trkpt lat="48.5536" lon="2.19744">
        <ele>108</ele>
        <time>2018-06-03T09:48:10Z</time>
      </trkpt>
      <trkpt lat="48.55352" lon="2.19722">
        <ele>108</ele>
        <time>2018-06-03T09:48:21Z</time>
      </trkpt>
      <trkpt lat="48.55348" lon="2.19716">
        <ele>108</ele>
        <time>2018-06-03T09:48:25Z</time>
      </trkpt>
      <trkpt lat="48.55347" lon="2.19709">
        <ele>108</ele>
        <time>2018-06-03T09:48:29Z</time>
      </trkpt>
      <trkpt lat="48.55344" lon="2.19704">
        <ele>108</ele>
        <time>2018-06-03T09:48:33Z</time>
      </trkpt>
      <trkpt lat="48.55338" lon="2.19698">
        <ele>109</ele>
        <time>2018-06-03T09:48:41Z</time>
      </trkpt>
      <trkpt lat="48.55328" lon="2.19677">
        <ele>109</ele>
        <time>2018-06-03T09:48:56Z</time>
      </trkpt>
      <trkpt lat="48.5532" lon="2.19666">
        <ele>110</ele>
        <time>2018-06-03T09:49:06Z</time>
      </trkpt>
      <trkpt lat="48.55313" lon="2.19657">
        <ele>110</ele>
        <time>2018-06-03T09:49:13Z</time>
      </trkpt>
      <trkpt lat="48.553" lon="2.19633">
        <ele>111</ele>
        <time>2018-06-03T09:49:28Z</time>
      </trkpt>
      <trkpt lat="48.55298" lon="2.19626">
        <ele>111</ele>
        <time>2018-06-03T09:49:31Z</time>
      </trkpt>
      <trkpt lat="48.55294" lon="2.19622">
        <ele>110</ele>
        <time>2018-06-03T09:49:35Z</time>
      </trkpt>
      <trkpt lat="48.55291" lon="2.19616">
        <ele>110</ele>
        <time>2018-06-03T09:49:39Z</time>
      </trkpt>
      <trkpt lat="48.55287" lon="2.1961">
        <ele>110</ele>
        <time>2018-06-03T09:49:44Z</time>
      </trkpt>
      <trkpt lat="48.55281" lon="2.19597">
        <ele>111</ele>
        <time>2018-06-03T09:49:51Z</time>
      </trkpt>
      <trkpt lat="48.55273" lon="2.1959">
        <ele>111</ele>
        <time>2018-06-03T09:49:57Z</time>
      </trkpt>
      <trkpt lat="48.55271" lon="2.19584">
        <ele>111</ele>
        <time>2018-06-03T09:50:01Z</time>
      </trkpt>
      <trkpt lat="48.55269" lon="2.19577">
        <ele>111</ele>
        <time>2018-06-03T09:50:05Z</time>
      </trkpt>
      <trkpt lat="48.55266" lon="2.1957">
        <ele>111</ele>
        <time>2018-06-03T09:50:10Z</time>
      </trkpt>
      <trkpt lat="48.55261" lon="2.19565">
        <ele>111</ele>
        <time>2018-06-03T09:50:14Z</time>
      </trkpt>
      <trkpt lat="48.55254" lon="2.19552">
        <ele>111</ele>
        <time>2018-06-03T09:50:23Z</time>
      </trkpt>
      <trkpt lat="48.55246" lon="2.19545">
        <ele>111</ele>
        <time>2018-06-03T09:50:31Z</time>
      </trkpt>
      <trkpt lat="48.55242" lon="2.19538">
        <ele>112</ele>
        <time>2018-06-03T09:50:37Z</time>
      </trkpt>
      <trkpt lat="48.55224" lon="2.19519">
        <ele>112</ele>
        <time>2018-06-03T09:50:54Z</time>
      </trkpt>
      <trkpt lat="48.55221" lon="2.19513">
        <ele>112</ele>
        <time>2018-06-03T09:50:58Z</time>
      </trkpt>
      <trkpt lat="48.55217" lon="2.1951">
        <ele>113</ele>
        <time>2018-06-03T09:51:03Z</time>
      </trkpt>
      <trkpt lat="48.55199" lon="2.19485">
        <ele>113</ele>
        <time>2018-06-03T09:51:21Z</time>
      </trkpt>
      <trkpt lat="48.55193" lon="2.19472">
        <ele>113</ele>
        <time>2018-06-03T09:51:28Z</time>
      </trkpt>
      <trkpt lat="48.55177" lon="2.19451">
        <ele>114</ele>
        <time>2018-06-03T09:51:45Z</time>
      </trkpt>
      <trkpt lat="48.55166" lon="2.19444">
        <ele>114</ele>
        <time>2018-06-03T09:51:55Z</time>
      </trkpt>
      <trkpt lat="48.55154" lon="2.19423">
        <ele>115</ele>
        <time>2018-06-03T09:52:18Z</time>
      </trkpt>
      <trkpt lat="48.55149" lon="2.19402">
        <ele>115</ele>
        <time>2018-06-03T09:52:31Z</time>
      </trkpt>
      <trkpt lat="48.55149" lon="2.19387">
        <ele>116</ele>
        <time>2018-06-03T09:52:40Z</time>
      </trkpt>
      <trkpt lat="48.55152" lon="2.19375">
        <ele>116</ele>
        <time>2018-06-03T09:52:51Z</time>
      </trkpt>
      <trkpt lat="48.5515" lon="2.19368">
        <ele>116</ele>
        <time>2018-06-03T09:52:56Z</time>
      </trkpt>
      <trkpt lat="48.55152" lon="2.19352">
        <ele>117</ele>
        <time>2018-06-03T09:53:06Z</time>
      </trkpt>
      <trkpt lat="48.5515" lon="2.19335">
        <ele>118</ele>
        <time>2018-06-03T09:53:16Z</time>
      </trkpt>
      <trkpt lat="48.55144" lon="2.19319">
        <ele>119</ele>
        <time>2018-06-03T09:53:26Z</time>
      </trkpt>
      <trkpt lat="48.55144" lon="2.19312">
        <ele>120</ele>
        <time>2018-06-03T09:53:30Z</time>
      </trkpt>
      <trkpt lat="48.55144" lon="2.19284">
        <ele>121</ele>
        <time>2018-06-03T09:53:48Z</time>
      </trkpt>
      <trkpt lat="48.55144" lon="2.19275">
        <ele>122</ele>
        <time>2018-06-03T09:53:57Z</time>
      </trkpt>
      <trkpt lat="48.5514" lon="2.1927">
        <ele>122</ele>
        <time>2018-06-03T09:54:04Z</time>
      </trkpt>
      <trkpt lat="48.55142" lon="2.1926">
        <ele>123</ele>
        <time>2018-06-03T09:54:16Z</time>
      </trkpt>
      <trkpt lat="48.55142" lon="2.19252">
        <ele>123</ele>
        <time>2018-06-03T09:54:22Z</time>
      </trkpt>
      <trkpt lat="48.55141" lon="2.19246">
        <ele>125</ele>
        <time>2018-06-03T09:54:28Z</time>
      </trkpt>
      <trkpt lat="48.55139" lon="2.19239">
        <ele>125</ele>
        <time>2018-06-03T09:54:34Z</time>
      </trkpt>
      <trkpt lat="48.55143" lon="2.19229">
        <ele>125</ele>
        <time>2018-06-03T09:54:51Z</time>
      </trkpt>
      <trkpt lat="48.55147" lon="2.19225">
        <ele>125</ele>
        <time>2018-06-03T09:55:52Z</time>
      </trkpt>
      <trkpt lat="48.55149" lon="2.19216">
        <ele>125</ele>
        <time>2018-06-03T09:56:04Z</time>
      </trkpt>
      <trkpt lat="48.55143" lon="2.19219">
        <ele>124</ele>
        <time>2018-06-03T09:56:15Z</time>
      </trkpt>
      <trkpt lat="48.5514" lon="2.19229">
        <ele>125</ele>
        <time>2018-06-03T09:57:22Z</time>
      </trkpt>
      <trkpt lat="48.55142" lon="2.19229">
        <ele>127</ele>
        <time>2018-06-03T10:46:52Z</time>
      </trkpt>
      <trkpt lat="48.55144" lon="2.19223">
        <ele>127</ele>
        <time>2018-06-03T10:47:10Z</time>
      </trkpt>
      <trkpt lat="48.55145" lon="2.19223">
        <ele>128</ele>
        <time>2018-06-03T11:17:55Z</time>
      </trkpt>
      <trkpt lat="48.55138" lon="2.19223">
        <ele>129</ele>
        <time>2018-06-03T11:19:43Z</time>
      </trkpt>
      <trkpt lat="48.5514" lon="2.19216">
        <ele>129</ele>
        <time>2018-06-03T11:21:43Z</time>
      </trkpt>
      <trkpt lat="48.55145" lon="2.19213">
        <ele>129</ele>
        <time>2018-06-03T11:21:49Z</time>
      </trkpt>
      <trkpt lat="48.55148" lon="2.19209">
        <ele>129</ele>
        <time>2018-06-03T11:21:54Z</time>
      </trkpt>
      <trkpt lat="48.5515" lon="2.19219">
        <ele>129</ele>
        <time>2018-06-03T11:23:14Z</time>
      </trkpt>
      <trkpt lat="48.55148" lon="2.19225">
        <ele>129</ele>
        <time>2018-06-03T11:23:50Z</time>
      </trkpt>
      <trkpt lat="48.55149" lon="2.19219">
        <ele>129</ele>
        <time>2018-06-03T11:29:48Z</time>
      </trkpt>
      <trkpt lat="48.55149" lon="2.19212">
        <ele>129</ele>
        <time>2018-06-03T11:30:00Z</time>
      </trkpt>
      <trkpt lat="48.55154" lon="2.19201">
        <ele>128</ele>
        <time>2018-06-03T11:30:18Z</time>
      </trkpt>
      <trkpt lat="48.55155" lon="2.19191">
        <ele>130</ele>
        <time>2018-06-03T11:30:26Z</time>
      </trkpt>
      <trkpt lat="48.55161" lon="2.19179">
        <ele>130</ele>
        <time>2018-06-03T11:30:35Z</time>
      </trkpt>
      <trkpt lat="48.55164" lon="2.19172">
        <ele>131</ele>
        <time>2018-06-03T11:30:38Z</time>
      </trkpt>
      <trkpt lat="48.55164" lon="2.19166">
        <ele>130</ele>
        <time>2018-06-03T11:30:42Z</time>
      </trkpt>
      <trkpt lat="48.55161" lon="2.19151">
        <ele>130</ele>
        <time>2018-06-03T11:30:51Z</time>
      </trkpt>
      <trkpt lat="48.55152" lon="2.19122">
        <ele>130</ele>
        <time>2018-06-03T11:31:13Z</time>
      </trkpt>
      <trkpt lat="48.55141" lon="2.19118">
        <ele>128</ele>
        <time>2018-06-03T11:31:31Z</time>
      </trkpt>
      <trkpt lat="48.55117" lon="2.19106">
        <ele>128</ele>
        <time>2018-06-03T11:31:51Z</time>
      </trkpt>
      <trkpt lat="48.55112" lon="2.19103">
        <ele>128</ele>
        <time>2018-06-03T11:31:55Z</time>
      </trkpt>
      <trkpt lat="48.55096" lon="2.191">
        <ele>127</ele>
        <time>2018-06-03T11:32:07Z</time>
      </trkpt>
      <trkpt lat="48.55087" lon="2.19095">
        <ele>127</ele>
        <time>2018-06-03T11:32:15Z</time>
      </trkpt>
      <trkpt lat="48.55071" lon="2.19091">
        <ele>127</ele>
        <time>2018-06-03T11:32:28Z</time>
      </trkpt>
      <trkpt lat="48.55058" lon="2.19082">
        <ele>127</ele>
        <time>2018-06-03T11:32:41Z</time>
      </trkpt>
      <trkpt lat="48.55027" lon="2.19062">
        <ele>128</ele>
        <time>2018-06-03T11:33:11Z</time>
      </trkpt>
      <trkpt lat="48.55022" lon="2.19061">
        <ele>129</ele>
        <time>2018-06-03T11:33:16Z</time>
      </trkpt>
      <trkpt lat="48.55017" lon="2.19059">
        <ele>129</ele>
        <time>2018-06-03T11:33:21Z</time>
      </trkpt>
      <trkpt lat="48.55009" lon="2.19051">
        <ele>130</ele>
        <time>2018-06-03T11:33:31Z</time>
      </trkpt>
      <trkpt lat="48.54995" lon="2.19049">
        <ele>131</ele>
        <time>2018-06-03T11:33:45Z</time>
      </trkpt>
      <trkpt lat="48.5499" lon="2.19049">
        <ele>131</ele>
        <time>2018-06-03T11:33:50Z</time>
      </trkpt>
      <trkpt lat="48.54986" lon="2.19044">
        <ele>131</ele>
        <time>2018-06-03T11:33:54Z</time>
      </trkpt>
      <trkpt lat="48.54963" lon="2.1903">
        <ele>132</ele>
        <time>2018-06-03T11:34:21Z</time>
      </trkpt>
      <trkpt lat="48.54956" lon="2.1902">
        <ele>133</ele>
        <time>2018-06-03T11:34:29Z</time>
      </trkpt>
      <trkpt lat="48.54924" lon="2.18999">
        <ele>134</ele>
        <time>2018-06-03T11:35:00Z</time>
      </trkpt>
      <trkpt lat="48.54898" lon="2.18974">
        <ele>138</ele>
        <time>2018-06-03T11:35:27Z</time>
      </trkpt>
      <trkpt lat="48.54883" lon="2.18963">
        <ele>140</ele>
        <time>2018-06-03T11:35:47Z</time>
      </trkpt>
      <trkpt lat="48.54861" lon="2.18941">
        <ele>144</ele>
        <time>2018-06-03T11:36:20Z</time>
      </trkpt>
      <trkpt lat="48.54854" lon="2.18932">
        <ele>145</ele>
        <time>2018-06-03T11:36:29Z</time>
      </trkpt>
      <trkpt lat="48.54838" lon="2.18915">
        <ele>146</ele>
        <time>2018-06-03T11:36:42Z</time>
      </trkpt>
      <trkpt lat="48.54834" lon="2.18903">
        <ele>147</ele>
        <time>2018-06-03T11:36:51Z</time>
      </trkpt>
      <trkpt lat="48.54829" lon="2.18888">
        <ele>149</ele>
        <time>2018-06-03T11:37:06Z</time>
      </trkpt>
      <trkpt lat="48.54822" lon="2.18872">
        <ele>150</ele>
        <time>2018-06-03T11:37:22Z</time>
      </trkpt>
      <trkpt lat="48.54811" lon="2.18864">
        <ele>152</ele>
        <time>2018-06-03T11:37:32Z</time>
      </trkpt>
      <trkpt lat="48.54781" lon="2.18855">
        <ele>151</ele>
        <time>2018-06-03T11:37:53Z</time>
      </trkpt>
      <trkpt lat="48.54746" lon="2.18831">
        <ele>151</ele>
        <time>2018-06-03T11:38:29Z</time>
      </trkpt>
      <trkpt lat="48.54722" lon="2.18813">
        <ele>152</ele>
        <time>2018-06-03T11:38:52Z</time>
      </trkpt>
      <trkpt lat="48.54713" lon="2.1881">
        <ele>152</ele>
        <time>2018-06-03T11:38:57Z</time>
      </trkpt>
      <trkpt lat="48.54687" lon="2.18787">
        <ele>152</ele>
        <time>2018-06-03T11:39:20Z</time>
      </trkpt>
      <trkpt lat="48.5467" lon="2.18766">
        <ele>152</ele>
        <time>2018-06-03T11:39:37Z</time>
      </trkpt>
      <trkpt lat="48.54661" lon="2.18758">
        <ele>152</ele>
        <time>2018-06-03T11:39:44Z</time>
      </trkpt>
      <trkpt lat="48.54654" lon="2.18749">
        <ele>151</ele>
        <time>2018-06-03T11:39:51Z</time>
      </trkpt>
      <trkpt lat="48.54652" lon="2.18743">
        <ele>151</ele>
        <time>2018-06-03T11:39:55Z</time>
      </trkpt>
      <trkpt lat="48.54648" lon="2.18737">
        <ele>151</ele>
        <time>2018-06-03T11:39:59Z</time>
      </trkpt>
      <trkpt lat="48.54631" lon="2.187">
        <ele>146</ele>
        <time>2018-06-03T11:40:26Z</time>
      </trkpt>
      <trkpt lat="48.54629" lon="2.18689">
        <ele>144</ele>
        <time>2018-06-03T11:40:35Z</time>
      </trkpt>
      <trkpt lat="48.54629" lon="2.1868">
        <ele>143</ele>
        <time>2018-06-03T11:40:42Z</time>
      </trkpt>
      <trkpt lat="48.54638" lon="2.18661">
        <ele>140</ele>
        <time>2018-06-03T11:41:00Z</time>
      </trkpt>
      <trkpt lat="48.54636" lon="2.18654">
        <ele>139</ele>
        <time>2018-06-03T11:41:06Z</time>
      </trkpt>
      <trkpt lat="48.54637" lon="2.18646">
        <ele>138</ele>
        <time>2018-06-03T11:41:12Z</time>
      </trkpt>
      <trkpt lat="48.54634" lon="2.1864">
        <ele>137</ele>
        <time>2018-06-03T11:41:17Z</time>
      </trkpt>
      <trkpt lat="48.54633" lon="2.18626">
        <ele>135</ele>
        <time>2018-06-03T11:41:26Z</time>
      </trkpt>
      <trkpt lat="48.54631" lon="2.18618">
        <ele>134</ele>
        <time>2018-06-03T11:41:33Z</time>
      </trkpt>
      <trkpt lat="48.5462" lon="2.18603">
        <ele>130</ele>
        <time>2018-06-03T11:41:46Z</time>
      </trkpt>
      <trkpt lat="48.5461" lon="2.18559">
        <ele>123</ele>
        <time>2018-06-03T11:42:17Z</time>
      </trkpt>
      <trkpt lat="48.54612" lon="2.18551">
        <ele>123</ele>
        <time>2018-06-03T11:42:21Z</time>
      </trkpt>
      <trkpt lat="48.54604" lon="2.18543">
        <ele>122</ele>
        <time>2018-06-03T11:42:28Z</time>
      </trkpt>
      <trkpt lat="48.54601" lon="2.18535">
        <ele>121</ele>
        <time>2018-06-03T11:42:33Z</time>
      </trkpt>
      <trkpt lat="48.54601" lon="2.18511">
        <ele>119</ele>
        <time>2018-06-03T11:42:43Z</time>
      </trkpt>
      <trkpt lat="48.54595" lon="2.18495">
        <ele>118</ele>
        <time>2018-06-03T11:42:51Z</time>
      </trkpt>
      <trkpt lat="48.54595" lon="2.18466">
        <ele>115</ele>
        <time>2018-06-03T11:43:09Z</time>
      </trkpt>
      <trkpt lat="48.54591" lon="2.18462">
        <ele>115</ele>
        <time>2018-06-03T11:43:14Z</time>
      </trkpt>
      <trkpt lat="48.54591" lon="2.18452">
        <ele>114</ele>
        <time>2018-06-03T11:43:19Z</time>
      </trkpt>
      <trkpt lat="48.54589" lon="2.18436">
        <ele>113</ele>
        <time>2018-06-03T11:43:29Z</time>
      </trkpt>
      <trkpt lat="48.54585" lon="2.18429">
        <ele>112</ele>
        <time>2018-06-03T11:43:34Z</time>
      </trkpt>
      <trkpt lat="48.54582" lon="2.18425">
        <ele>112</ele>
        <time>2018-06-03T11:43:37Z</time>
      </trkpt>
      <trkpt lat="48.54577" lon="2.18415">
        <ele>111</ele>
        <time>2018-06-03T11:43:45Z</time>
      </trkpt>
      <trkpt lat="48.54575" lon="2.18398">
        <ele>110</ele>
        <time>2018-06-03T11:43:53Z</time>
      </trkpt>
      <trkpt lat="48.54573" lon="2.18393">
        <ele>110</ele>
        <time>2018-06-03T11:43:56Z</time>
      </trkpt>
      <trkpt lat="48.54549" lon="2.18352">
        <ele>109</ele>
        <time>2018-06-03T11:44:24Z</time>
      </trkpt>
      <trkpt lat="48.54548" lon="2.18343">
        <ele>108</ele>
        <time>2018-06-03T11:44:29Z</time>
      </trkpt>
      <trkpt lat="48.54545" lon="2.18336">
        <ele>107</ele>
        <time>2018-06-03T11:44:34Z</time>
      </trkpt>
      <trkpt lat="48.54544" lon="2.18329">
        <ele>107</ele>
        <time>2018-06-03T11:44:37Z</time>
      </trkpt>
      <trkpt lat="48.5454" lon="2.18325">
        <ele>106</ele>
        <time>2018-06-03T11:44:41Z</time>
      </trkpt>
      <trkpt lat="48.5453" lon="2.18318">
        <ele>104</ele>
        <time>2018-06-03T11:44:49Z</time>
      </trkpt>
      <trkpt lat="48.54521" lon="2.18316">
        <ele>104</ele>
        <time>2018-06-03T11:44:54Z</time>
      </trkpt>
      <trkpt lat="48.54517" lon="2.18314">
        <ele>104</ele>
        <time>2018-06-03T11:44:57Z</time>
      </trkpt>
      <trkpt lat="48.54512" lon="2.18306">
        <ele>102</ele>
        <time>2018-06-03T11:45:08Z</time>
      </trkpt>
      <trkpt lat="48.54506" lon="2.18302">
        <ele>101</ele>
        <time>2018-06-03T11:45:14Z</time>
      </trkpt>
      <trkpt lat="48.54503" lon="2.18298">
        <ele>100</ele>
        <time>2018-06-03T11:45:17Z</time>
      </trkpt>
      <trkpt lat="48.54493" lon="2.18291">
        <ele>100</ele>
        <time>2018-06-03T11:45:25Z</time>
      </trkpt>
      <trkpt lat="48.54479" lon="2.18276">
        <ele>99</ele>
        <time>2018-06-03T11:45:35Z</time>
      </trkpt>
      <trkpt lat="48.54468" lon="2.18245">
        <ele>99</ele>
        <time>2018-06-03T11:45:48Z</time>
      </trkpt>
      <trkpt lat="48.54467" lon="2.18237">
        <ele>99</ele>
        <time>2018-06-03T11:45:51Z</time>
      </trkpt>
      <trkpt lat="48.54464" lon="2.18225">
        <ele>99</ele>
        <time>2018-06-03T11:45:57Z</time>
      </trkpt>
      <trkpt lat="48.54466" lon="2.18208">
        <ele>98</ele>
        <time>2018-06-03T11:46:06Z</time>
      </trkpt>
      <trkpt lat="48.54463" lon="2.18191">
        <ele>96</ele>
        <time>2018-06-03T11:46:16Z</time>
      </trkpt>
      <trkpt lat="48.54462" lon="2.18176">
        <ele>95</ele>
        <time>2018-06-03T11:46:23Z</time>
      </trkpt>
      <trkpt lat="48.54464" lon="2.18161">
        <ele>95</ele>
        <time>2018-06-03T11:46:29Z</time>
      </trkpt>
      <trkpt lat="48.54463" lon="2.18154">
        <ele>95</ele>
        <time>2018-06-03T11:46:32Z</time>
      </trkpt>
      <trkpt lat="48.54465" lon="2.18146">
        <ele>94</ele>
        <time>2018-06-03T11:46:36Z</time>
      </trkpt>
      <trkpt lat="48.54462" lon="2.18139">
        <ele>94</ele>
        <time>2018-06-03T11:46:40Z</time>
      </trkpt>
      <trkpt lat="48.54453" lon="2.18118">
        <ele>93</ele>
        <time>2018-06-03T11:46:50Z</time>
      </trkpt>
      <trkpt lat="48.54447" lon="2.18097">
        <ele>93</ele>
        <time>2018-06-03T11:47:01Z</time>
      </trkpt>
      <trkpt lat="48.54441" lon="2.18095">
        <ele>93</ele>
        <time>2018-06-03T11:47:08Z</time>
      </trkpt>
      <trkpt lat="48.54436" lon="2.18097">
        <ele>93</ele>
        <time>2018-06-03T11:47:13Z</time>
      </trkpt>
      <trkpt lat="48.5443" lon="2.18095">
        <ele>93</ele>
        <time>2018-06-03T11:47:16Z</time>
      </trkpt>
      <trkpt lat="48.54415" lon="2.18105">
        <ele>92</ele>
        <time>2018-06-03T11:47:33Z</time>
      </trkpt>
      <trkpt lat="48.54411" lon="2.18111">
        <ele>92</ele>
        <time>2018-06-03T11:47:44Z</time>
      </trkpt>
      <trkpt lat="48.54406" lon="2.18108">
        <ele>92</ele>
        <time>2018-06-03T11:47:51Z</time>
      </trkpt>
      <trkpt lat="48.544" lon="2.1811">
        <ele>92</ele>
        <time>2018-06-03T11:47:55Z</time>
      </trkpt>
      <trkpt lat="48.54395" lon="2.18108">
        <ele>92</ele>
        <time>2018-06-03T11:47:58Z</time>
      </trkpt>
      <trkpt lat="48.54389" lon="2.18107">
        <ele>91</ele>
        <time>2018-06-03T11:48:02Z</time>
      </trkpt>
      <trkpt lat="48.54383" lon="2.181">
        <ele>91</ele>
        <time>2018-06-03T11:48:13Z</time>
      </trkpt>
      <trkpt lat="48.54375" lon="2.18095">
        <ele>89</ele>
        <time>2018-06-03T11:50:37Z</time>
      </trkpt>
      <trkpt lat="48.54366" lon="2.18086">
        <ele>89</ele>
        <time>2018-06-03T11:50:46Z</time>
      </trkpt>
      <trkpt lat="48.54362" lon="2.18084">
        <ele>89</ele>
        <time>2018-06-03T11:50:50Z</time>
      </trkpt>
      <trkpt lat="48.54346" lon="2.18063">
        <ele>88</ele>
        <time>2018-06-03T11:51:07Z</time>
      </trkpt>
      <trkpt lat="48.5434" lon="2.18051">
        <ele>88</ele>
        <time>2018-06-03T11:51:14Z</time>
      </trkpt>
      <trkpt lat="48.54333" lon="2.18048">
        <ele>88</ele>
        <time>2018-06-03T11:51:18Z</time>
      </trkpt>
      <trkpt lat="48.5433" lon="2.18042">
        <ele>88</ele>
        <time>2018-06-03T11:51:21Z</time>
      </trkpt>
      <trkpt lat="48.54328" lon="2.18035">
        <ele>88</ele>
        <time>2018-06-03T11:51:24Z</time>
      </trkpt>
      <trkpt lat="48.54319" lon="2.18023">
        <ele>88</ele>
        <time>2018-06-03T11:51:33Z</time>
      </trkpt>
      <trkpt lat="48.54309" lon="2.18016">
        <ele>88</ele>
        <time>2018-06-03T11:51:39Z</time>
      </trkpt>
      <trkpt lat="48.54293" lon="2.17999">
        <ele>87</ele>
        <time>2018-06-03T11:51:54Z</time>
      </trkpt>
      <trkpt lat="48.54276" lon="2.17986">
        <ele>87</ele>
        <time>2018-06-03T11:52:10Z</time>
      </trkpt>
      <trkpt lat="48.54246" lon="2.17953">
        <ele>88</ele>
        <time>2018-06-03T11:52:38Z</time>
      </trkpt>
      <trkpt lat="48.54207" lon="2.17931">
        <ele>88</ele>
        <time>2018-06-03T11:53:10Z</time>
      </trkpt>
      <trkpt lat="48.54203" lon="2.17928">
        <ele>89</ele>
        <time>2018-06-03T11:53:14Z</time>
      </trkpt>
      <trkpt lat="48.54199" lon="2.17923">
        <ele>89</ele>
        <time>2018-06-03T11:53:18Z</time>
      </trkpt>
      <trkpt lat="48.54174" lon="2.17912">
        <ele>91</ele>
        <time>2018-06-03T11:53:39Z</time>
      </trkpt>
      <trkpt lat="48.54166" lon="2.17911">
        <ele>92</ele>
        <time>2018-06-03T11:53:49Z</time>
      </trkpt>
      <trkpt lat="48.54155" lon="2.1792">
        <ele>92</ele>
        <time>2018-06-03T11:54:01Z</time>
      </trkpt>
      <trkpt lat="48.54153" lon="2.17927">
        <ele>92</ele>
        <time>2018-06-03T11:54:06Z</time>
      </trkpt>
      <trkpt lat="48.5415" lon="2.17932">
        <ele>92</ele>
        <time>2018-06-03T11:54:11Z</time>
      </trkpt>
      <trkpt lat="48.54139" lon="2.17928">
        <ele>93</ele>
        <time>2018-06-03T11:54:18Z</time>
      </trkpt>
      <trkpt lat="48.54129" lon="2.1792">
        <ele>93</ele>
        <time>2018-06-03T11:54:25Z</time>
      </trkpt>
      <trkpt lat="48.5412" lon="2.17916">
        <ele>93</ele>
        <time>2018-06-03T11:54:32Z</time>
      </trkpt>
      <trkpt lat="48.54115" lon="2.17912">
        <ele>93</ele>
        <time>2018-06-03T11:54:37Z</time>
      </trkpt>
      <trkpt lat="48.54109" lon="2.17908">
        <ele>93</ele>
        <time>2018-06-03T11:54:44Z</time>
      </trkpt>
      <trkpt lat="48.54102" lon="2.17905">
        <ele>93</ele>
        <time>2018-06-03T11:55:28Z</time>
      </trkpt>
      <trkpt lat="48.54103" lon="2.17898">
        <ele>93</ele>
        <time>2018-06-03T11:55:33Z</time>
      </trkpt>
      <trkpt lat="48.54107" lon="2.17883">
        <ele>93</ele>
        <time>2018-06-03T11:55:46Z</time>
      </trkpt>
      <trkpt lat="48.54112" lon="2.17876">
        <ele>93</ele>
        <time>2018-06-03T11:56:00Z</time>
      </trkpt>
      <trkpt lat="48.54119" lon="2.17876">
        <ele>93</ele>
        <time>2018-06-03T11:56:26Z</time>
      </trkpt>
      <trkpt lat="48.54117" lon="2.17866">
        <ele>91</ele>
        <time>2018-06-03T12:02:40Z</time>
      </trkpt>
      <trkpt lat="48.54117" lon="2.17859">
        <ele>91</ele>
        <time>2018-06-03T12:02:46Z</time>
      </trkpt>
      <trkpt lat="48.54115" lon="2.17859">
        <ele>91</ele>
        <time>2018-06-03T12:04:11Z</time>
      </trkpt>
      <trkpt lat="48.54109" lon="2.17865">
        <ele>91</ele>
        <time>2018-06-03T12:04:37Z</time>
      </trkpt>
      <trkpt lat="48.54105" lon="2.1787">
        <ele>91</ele>
        <time>2018-06-03T12:04:43Z</time>
      </trkpt>
      <trkpt lat="48.54102" lon="2.17882">
        <ele>90</ele>
        <time>2018-06-03T12:04:54Z</time>
      </trkpt>
      <trkpt lat="48.54104" lon="2.17888">
        <ele>90</ele>
        <time>2018-06-03T12:05:00Z</time>
      </trkpt>
      <trkpt lat="48.54098" lon="2.17899">
        <ele>91</ele>
        <time>2018-06-03T12:05:11Z</time>
      </trkpt>
      <trkpt lat="48.54106" lon="2.17905">
        <ele>91</ele>
        <time>2018-06-03T12:05:41Z</time>
      </trkpt>
      <trkpt lat="48.54111" lon="2.17909">
        <ele>90</ele>
        <time>2018-06-03T12:05:55Z</time>
      </trkpt>
      <trkpt lat="48.54115" lon="2.17917">
        <ele>90</ele>
        <time>2018-06-03T12:06:07Z</time>
      </trkpt>
      <trkpt lat="48.5412" lon="2.1792">
        <ele>90</ele>
        <time>2018-06-03T12:06:12Z</time>
      </trkpt>
      <trkpt lat="48.54126" lon="2.17921">
        <ele>90</ele>
        <time>2018-06-03T12:06:32Z</time>
      </trkpt>
      <trkpt lat="48.5413" lon="2.17925">
        <ele>90</ele>
        <time>2018-06-03T12:06:36Z</time>
      </trkpt>
      <trkpt lat="48.54133" lon="2.1793">
        <ele>90</ele>
        <time>2018-06-03T12:06:41Z</time>
      </trkpt>
      <trkpt lat="48.54137" lon="2.17942">
        <ele>89</ele>
        <time>2018-06-03T12:06:55Z</time>
      </trkpt>
      <trkpt lat="48.54137" lon="2.17965">
        <ele>89</ele>
        <time>2018-06-03T12:07:07Z</time>
      </trkpt>
      <trkpt lat="48.54136" lon="2.17973">
        <ele>90</ele>
        <time>2018-06-03T12:07:11Z</time>
      </trkpt>
      <trkpt lat="48.54137" lon="2.17981">
        <ele>90</ele>
        <time>2018-06-03T12:07:15Z</time>
      </trkpt>
      <trkpt lat="48.54138" lon="2.17989">
        <ele>90</ele>
        <time>2018-06-03T12:07:19Z</time>
      </trkpt>
      <trkpt lat="48.54134" lon="2.18021">
        <ele>90</ele>
        <time>2018-06-03T12:07:36Z</time>
      </trkpt>
      <trkpt lat="48.54132" lon="2.18035">
        <ele>90</ele>
        <time>2018-06-03T12:07:44Z</time>
      </trkpt>
      <trkpt lat="48.5413" lon="2.1805">
        <ele>90</ele>
        <time>2018-06-03T12:07:52Z</time>
      </trkpt>
      <trkpt lat="48.54122" lon="2.18071">
        <ele>90</ele>
        <time>2018-06-03T12:08:04Z</time>
      </trkpt>
      <trkpt lat="48.54121" lon="2.18078">
        <ele>90</ele>
        <time>2018-06-03T12:08:08Z</time>
      </trkpt>
      <trkpt lat="48.54112" lon="2.18095">
        <ele>90</ele>
        <time>2018-06-03T12:08:19Z</time>
      </trkpt>
      <trkpt lat="48.54104" lon="2.18105">
        <ele>90</ele>
        <time>2018-06-03T12:08:26Z</time>
      </trkpt>
      <trkpt lat="48.54102" lon="2.18111">
        <ele>90</ele>
        <time>2018-06-03T12:08:29Z</time>
      </trkpt>
      <trkpt lat="48.54102" lon="2.18118">
        <ele>90</ele>
        <time>2018-06-03T12:08:33Z</time>
      </trkpt>
      <trkpt lat="48.54104" lon="2.18124">
        <ele>90</ele>
        <time>2018-06-03T12:08:38Z</time>
      </trkpt>
      <trkpt lat="48.54104" lon="2.18178">
        <ele>92</ele>
        <time>2018-06-03T12:09:10Z</time>
      </trkpt>
      <trkpt lat="48.54107" lon="2.18207">
        <ele>93</ele>
        <time>2018-06-03T12:09:27Z</time>
      </trkpt>
      <trkpt lat="48.54109" lon="2.18213">
        <ele>93</ele>
        <time>2018-06-03T12:09:31Z</time>
      </trkpt>
      <trkpt lat="48.54106" lon="2.18228">
        <ele>93</ele>
        <time>2018-06-03T12:09:39Z</time>
      </trkpt>
      <trkpt lat="48.54105" lon="2.18236">
        <ele>94</ele>
        <time>2018-06-03T12:09:44Z</time>
      </trkpt>
      <trkpt lat="48.54107" lon="2.18243">
        <ele>94</ele>
        <time>2018-06-03T12:09:48Z</time>
      </trkpt>
      <trkpt lat="48.54109" lon="2.18298">
        <ele>98</ele>
        <time>2018-06-03T12:10:21Z</time>
      </trkpt>
      <trkpt lat="48.54109" lon="2.18345">
        <ele>100</ele>
        <time>2018-06-03T12:10:53Z</time>
      </trkpt>
      <trkpt lat="48.54107" lon="2.184">
        <ele>104</ele>
        <time>2018-06-03T12:11:28Z</time>
      </trkpt>
      <trkpt lat="48.54107" lon="2.18431">
        <ele>107</ele>
        <time>2018-06-03T12:11:48Z</time>
      </trkpt>
      <trkpt lat="48.54108" lon="2.18458">
        <ele>110</ele>
        <time>2018-06-03T12:12:30Z</time>
      </trkpt>
      <trkpt lat="48.54107" lon="2.18488">
        <ele>113</ele>
        <time>2018-06-03T12:12:49Z</time>
      </trkpt>
      <trkpt lat="48.54104" lon="2.18496">
        <ele>114</ele>
        <time>2018-06-03T12:12:57Z</time>
      </trkpt>
      <trkpt lat="48.54098" lon="2.18507">
        <ele>116</ele>
        <time>2018-06-03T12:13:07Z</time>
      </trkpt>
      <trkpt lat="48.54096" lon="2.18515">
        <ele>117</ele>
        <time>2018-06-03T12:13:12Z</time>
      </trkpt>
      <trkpt lat="48.54094" lon="2.18527">
        <ele>119</ele>
        <time>2018-06-03T12:13:22Z</time>
      </trkpt>
      <trkpt lat="48.54096" lon="2.18533">
        <ele>119</ele>
        <time>2018-06-03T12:13:26Z</time>
      </trkpt>
      <trkpt lat="48.54094" lon="2.1854">
        <ele>121</ele>
        <time>2018-06-03T12:13:33Z</time>
      </trkpt>
      <trkpt lat="48.54094" lon="2.18548">
        <ele>122</ele>
        <time>2018-06-03T12:13:38Z</time>
      </trkpt>
      <trkpt lat="48.54091" lon="2.18554">
        <ele>123</ele>
        <time>2018-06-03T12:13:43Z</time>
      </trkpt>
      <trkpt lat="48.54094" lon="2.18578">
        <ele>126</ele>
        <time>2018-06-03T12:14:00Z</time>
      </trkpt>
      <trkpt lat="48.54095" lon="2.18584">
        <ele>127</ele>
        <time>2018-06-03T12:14:04Z</time>
      </trkpt>
      <trkpt lat="48.54095" lon="2.18604">
        <ele>130</ele>
        <time>2018-06-03T12:14:18Z</time>
      </trkpt>
      <trkpt lat="48.54094" lon="2.18616">
        <ele>131</ele>
        <time>2018-06-03T12:14:27Z</time>
      </trkpt>
      <trkpt lat="48.54091" lon="2.18622">
        <ele>132</ele>
        <time>2018-06-03T12:14:32Z</time>
      </trkpt>
      <trkpt lat="48.54091" lon="2.18629">
        <ele>133</ele>
        <time>2018-06-03T12:14:37Z</time>
      </trkpt>
      <trkpt lat="48.5409" lon="2.18637">
        <ele>135</ele>
        <time>2018-06-03T12:14:45Z</time>
      </trkpt>
      <trkpt lat="48.5409" lon="2.18652">
        <ele>137</ele>
        <time>2018-06-03T12:14:55Z</time>
      </trkpt>
      <trkpt lat="48.54091" lon="2.1866">
        <ele>138</ele>
        <time>2018-06-03T12:15:00Z</time>
      </trkpt>
      <trkpt lat="48.5409" lon="2.18667">
        <ele>139</ele>
        <time>2018-06-03T12:15:05Z</time>
      </trkpt>
      <trkpt lat="48.54091" lon="2.18675">
        <ele>140</ele>
        <time>2018-06-03T12:15:10Z</time>
      </trkpt>
      <trkpt lat="48.5409" lon="2.18682">
        <ele>140</ele>
        <time>2018-06-03T12:15:15Z</time>
      </trkpt>
      <trkpt lat="48.54088" lon="2.18697">
        <ele>142</ele>
        <time>2018-06-03T12:15:24Z</time>
      </trkpt>
      <trkpt lat="48.54089" lon="2.18707">
        <ele>143</ele>
        <time>2018-06-03T12:15:32Z</time>
      </trkpt>
      <trkpt lat="48.54087" lon="2.18716">
        <ele>143</ele>
        <time>2018-06-03T12:15:37Z</time>
      </trkpt>
      <trkpt lat="48.54091" lon="2.18756">
        <ele>145</ele>
        <time>2018-06-03T12:16:00Z</time>
      </trkpt>
      <trkpt lat="48.5409" lon="2.18763">
        <ele>146</ele>
        <time>2018-06-03T12:16:04Z</time>
      </trkpt>
      <trkpt lat="48.54091" lon="2.18771">
        <ele>145</ele>
        <time>2018-06-03T12:16:09Z</time>
      </trkpt>
      <trkpt lat="48.54094" lon="2.18776">
        <ele>146</ele>
        <time>2018-06-03T12:16:12Z</time>
      </trkpt>
      <trkpt lat="48.54096" lon="2.18792">
        <ele>146</ele>
        <time>2018-06-03T12:16:19Z</time>
      </trkpt>
      <trkpt lat="48.54095" lon="2.18808">
        <ele>146</ele>
        <time>2018-06-03T12:16:29Z</time>
      </trkpt>
      <trkpt lat="48.54097" lon="2.18816">
        <ele>146</ele>
        <time>2018-06-03T12:16:34Z</time>
      </trkpt>
      <trkpt lat="48.54099" lon="2.18826">
        <ele>146</ele>
        <time>2018-06-03T12:16:41Z</time>
      </trkpt>
      <trkpt lat="48.54105" lon="2.18848">
        <ele>146</ele>
        <time>2018-06-03T12:16:51Z</time>
      </trkpt>
      <trkpt lat="48.54105" lon="2.18856">
        <ele>146</ele>
        <time>2018-06-03T12:16:56Z</time>
      </trkpt>
      <trkpt lat="48.54111" lon="2.1887">
        <ele>146</ele>
        <time>2018-06-03T12:17:03Z</time>
      </trkpt>
      <trkpt lat="48.54114" lon="2.1889">
        <ele>146</ele>
        <time>2018-06-03T12:17:15Z</time>
      </trkpt>
      <trkpt lat="48.54117" lon="2.18904">
        <ele>146</ele>
        <time>2018-06-03T12:17:29Z</time>
      </trkpt>
      <trkpt lat="48.54127" lon="2.18929">
        <ele>147</ele>
        <time>2018-06-03T12:17:46Z</time>
      </trkpt>
      <trkpt lat="48.54128" lon="2.18935">
        <ele>147</ele>
        <time>2018-06-03T12:17:49Z</time>
      </trkpt>
      <trkpt lat="48.54129" lon="2.18944">
        <ele>147</ele>
        <time>2018-06-03T12:17:57Z</time>
      </trkpt>
      <trkpt lat="48.54135" lon="2.18958">
        <ele>147</ele>
        <time>2018-06-03T12:18:05Z</time>
      </trkpt>
      <trkpt lat="48.54142" lon="2.18972">
        <ele>147</ele>
        <time>2018-06-03T12:18:12Z</time>
      </trkpt>
      <trkpt lat="48.54143" lon="2.18978">
        <ele>147</ele>
        <time>2018-06-03T12:18:17Z</time>
      </trkpt>
      <trkpt lat="48.54143" lon="2.18988">
        <ele>147</ele>
        <time>2018-06-03T12:18:24Z</time>
      </trkpt>
      <trkpt lat="48.54147" lon="2.19001">
        <ele>147</ele>
        <time>2018-06-03T12:18:32Z</time>
      </trkpt>
      <trkpt lat="48.54148" lon="2.19008">
        <ele>147</ele>
        <time>2018-06-03T12:18:37Z</time>
      </trkpt>
      <trkpt lat="48.54155" lon="2.19034">
        <ele>146</ele>
        <time>2018-06-03T12:18:57Z</time>
      </trkpt>
      <trkpt lat="48.54175" lon="2.1907">
        <ele>146</ele>
        <time>2018-06-03T12:19:18Z</time>
      </trkpt>
      <trkpt lat="48.54178" lon="2.19077">
        <ele>146</ele>
        <time>2018-06-03T12:19:22Z</time>
      </trkpt>
      <trkpt lat="48.54182" lon="2.19083">
        <ele>146</ele>
        <time>2018-06-03T12:19:25Z</time>
      </trkpt>
      <trkpt lat="48.54182" lon="2.1909">
        <ele>146</ele>
        <time>2018-06-03T12:19:30Z</time>
      </trkpt>
      <trkpt lat="48.54199" lon="2.19113">
        <ele>146</ele>
        <time>2018-06-03T12:19:56Z</time>
      </trkpt>
      <trkpt lat="48.54209" lon="2.19138">
        <ele>146</ele>
        <time>2018-06-03T12:20:10Z</time>
      </trkpt>
      <trkpt lat="48.54207" lon="2.19153">
        <ele>145</ele>
        <time>2018-06-03T12:20:16Z</time>
      </trkpt>
      <trkpt lat="48.54197" lon="2.19176">
        <ele>145</ele>
        <time>2018-06-03T12:20:29Z</time>
      </trkpt>
      <trkpt lat="48.542" lon="2.19193">
        <ele>145</ele>
        <time>2018-06-03T12:20:45Z</time>
      </trkpt>
      <trkpt lat="48.54233" lon="2.19251">
        <ele>145</ele>
        <time>2018-06-03T12:21:31Z</time>
      </trkpt>
      <trkpt lat="48.54238" lon="2.19262">
        <ele>146</ele>
        <time>2018-06-03T12:21:36Z</time>
      </trkpt>
      <trkpt lat="48.54238" lon="2.19269">
        <ele>145</ele>
        <time>2018-06-03T12:22:42Z</time>
      </trkpt>
      <trkpt lat="48.54238" lon="2.19276">
        <ele>145</ele>
        <time>2018-06-03T12:23:06Z</time>
      </trkpt>
      <trkpt lat="48.54244" lon="2.19284">
        <ele>145</ele>
        <time>2018-06-03T12:23:39Z</time>
      </trkpt>
      <trkpt lat="48.5425" lon="2.19282">
        <ele>145</ele>
        <time>2018-06-03T12:23:47Z</time>
      </trkpt>
      <trkpt lat="48.54257" lon="2.19293">
        <ele>145</ele>
        <time>2018-06-03T12:24:23Z</time>
      </trkpt>
      <trkpt lat="48.54273" lon="2.19336">
        <ele>145</ele>
        <time>2018-06-03T12:24:57Z</time>
      </trkpt>
      <trkpt lat="48.54284" lon="2.19362">
        <ele>145</ele>
        <time>2018-06-03T12:25:14Z</time>
      </trkpt>
      <trkpt lat="48.54298" lon="2.19385">
        <ele>144</ele>
        <time>2018-06-03T12:25:29Z</time>
      </trkpt>
      <trkpt lat="48.54302" lon="2.194">
        <ele>145</ele>
        <time>2018-06-03T12:25:36Z</time>
      </trkpt>
      <trkpt lat="48.54322" lon="2.19431">
        <ele>144</ele>
        <time>2018-06-03T12:25:58Z</time>
      </trkpt>
      <trkpt lat="48.5433" lon="2.19437">
        <ele>144</ele>
        <time>2018-06-03T12:26:07Z</time>
      </trkpt>
      <trkpt lat="48.54342" lon="2.19449">
        <ele>145</ele>
        <time>2018-06-03T12:26:19Z</time>
      </trkpt>
      <trkpt lat="48.54347" lon="2.19461">
        <ele>145</ele>
        <time>2018-06-03T12:26:26Z</time>
      </trkpt>
      <trkpt lat="48.54346" lon="2.19476">
        <ele>145</ele>
        <time>2018-06-03T12:26:35Z</time>
      </trkpt>
      <trkpt lat="48.54341" lon="2.19487">
        <ele>144</ele>
        <time>2018-06-03T12:26:42Z</time>
      </trkpt>
      <trkpt lat="48.54338" lon="2.19509">
        <ele>145</ele>
        <time>2018-06-03T12:26:52Z</time>
      </trkpt>
      <trkpt lat="48.54338" lon="2.19517">
        <ele>145</ele>
        <time>2018-06-03T12:26:56Z</time>
      </trkpt>
      <trkpt lat="48.54334" lon="2.19533">
        <ele>144</ele>
        <time>2018-06-03T12:27:06Z</time>
      </trkpt>
      <trkpt lat="48.54327" lon="2.19544">
        <ele>144</ele>
        <time>2018-06-03T12:27:15Z</time>
      </trkpt>
      <trkpt lat="48.54326" lon="2.19552">
        <ele>144</ele>
        <time>2018-06-03T12:27:20Z</time>
      </trkpt>
      <trkpt lat="48.54326" lon="2.1956">
        <ele>144</ele>
        <time>2018-06-03T12:27:24Z</time>
      </trkpt>
      <trkpt lat="48.54325" lon="2.19569">
        <ele>144</ele>
        <time>2018-06-03T12:27:38Z</time>
      </trkpt>
      <trkpt lat="48.54326" lon="2.19576">
        <ele>144</ele>
        <time>2018-06-03T12:27:42Z</time>
      </trkpt>
      <trkpt lat="48.54329" lon="2.19583">
        <ele>144</ele>
        <time>2018-06-03T12:27:47Z</time>
      </trkpt>
      <trkpt lat="48.54338" lon="2.19598">
        <ele>142</ele>
        <time>2018-06-03T12:28:01Z</time>
      </trkpt>
      <trkpt lat="48.54341" lon="2.19606">
        <ele>141</ele>
        <time>2018-06-03T12:28:05Z</time>
      </trkpt>
      <trkpt lat="48.54345" lon="2.19609">
        <ele>141</ele>
        <time>2018-06-03T12:28:08Z</time>
      </trkpt>
      <trkpt lat="48.5435" lon="2.19627">
        <ele>138</ele>
        <time>2018-06-03T12:28:18Z</time>
      </trkpt>
      <trkpt lat="48.54353" lon="2.19632">
        <ele>137</ele>
        <time>2018-06-03T12:28:22Z</time>
      </trkpt>
      <trkpt lat="48.54357" lon="2.19641">
        <ele>136</ele>
        <time>2018-06-03T12:28:29Z</time>
      </trkpt>
      <trkpt lat="48.54356" lon="2.19685">
        <ele>131</ele>
        <time>2018-06-03T12:28:52Z</time>
      </trkpt>
      <trkpt lat="48.54364" lon="2.19693">
        <ele>131</ele>
        <time>2018-06-03T12:28:59Z</time>
      </trkpt>
      <trkpt lat="48.5437" lon="2.19711">
        <ele>128</ele>
        <time>2018-06-03T12:29:13Z</time>
      </trkpt>
      <trkpt lat="48.54392" lon="2.19753">
        <ele>121</ele>
        <time>2018-06-03T12:29:49Z</time>
      </trkpt>
      <trkpt lat="48.54422" lon="2.19806">
        <ele>115</ele>
        <time>2018-06-03T12:30:27Z</time>
      </trkpt>
      <trkpt lat="48.5443" lon="2.19811">
        <ele>115</ele>
        <time>2018-06-03T12:30:33Z</time>
      </trkpt>
      <trkpt lat="48.54445" lon="2.1983">
        <ele>112</ele>
        <time>2018-06-03T12:30:50Z</time>
      </trkpt>
      <trkpt lat="48.54486" lon="2.19866">
        <ele>110</ele>
        <time>2018-06-03T12:31:21Z</time>
      </trkpt>
      <trkpt lat="48.54497" lon="2.19876">
        <ele>109</ele>
        <time>2018-06-03T12:31:31Z</time>
      </trkpt>
      <trkpt lat="48.54532" lon="2.19915">
        <ele>107</ele>
        <time>2018-06-03T12:32:06Z</time>
      </trkpt>
      <trkpt lat="48.54538" lon="2.19924">
        <ele>107</ele>
        <time>2018-06-03T12:32:13Z</time>
      </trkpt>
      <trkpt lat="48.54549" lon="2.19949">
        <ele>107</ele>
        <time>2018-06-03T12:32:28Z</time>
      </trkpt>
      <trkpt lat="48.54571" lon="2.19969">
        <ele>106</ele>
        <time>2018-06-03T12:32:49Z</time>
      </trkpt>
      <trkpt lat="48.54579" lon="2.19978">
        <ele>107</ele>
        <time>2018-06-03T12:32:56Z</time>
      </trkpt>
      <trkpt lat="48.54584" lon="2.19982">
        <ele>106</ele>
        <time>2018-06-03T12:33:00Z</time>
      </trkpt>
      <trkpt lat="48.54587" lon="2.19987">
        <ele>106</ele>
        <time>2018-06-03T12:33:03Z</time>
      </trkpt>
      <trkpt lat="48.54625" lon="2.20015">
        <ele>106</ele>
        <time>2018-06-03T12:33:33Z</time>
      </trkpt>
      <trkpt lat="48.54629" lon="2.2002">
        <ele>106</ele>
        <time>2018-06-03T12:33:38Z</time>
      </trkpt>
      <trkpt lat="48.54633" lon="2.20022">
        <ele>106</ele>
        <time>2018-06-03T12:33:42Z</time>
      </trkpt>
      <trkpt lat="48.54637" lon="2.20027">
        <ele>106</ele>
        <time>2018-06-03T12:33:46Z</time>
      </trkpt>
      <trkpt lat="48.5464" lon="2.20033">
        <ele>105</ele>
        <time>2018-06-03T12:33:51Z</time>
      </trkpt>
      <trkpt lat="48.54645" lon="2.20037">
        <ele>105</ele>
        <time>2018-06-03T12:33:56Z</time>
      </trkpt>
      <trkpt lat="48.54668" lon="2.20065">
        <ele>105</ele>
        <time>2018-06-03T12:34:14Z</time>
      </trkpt>
      <trkpt lat="48.54673" lon="2.20069">
        <ele>105</ele>
        <time>2018-06-03T12:34:18Z</time>
      </trkpt>
      <trkpt lat="48.54689" lon="2.20075">
        <ele>105</ele>
        <time>2018-06-03T12:34:29Z</time>
      </trkpt>
      <trkpt lat="48.54732" lon="2.20115">
        <ele>104</ele>
        <time>2018-06-03T12:35:02Z</time>
      </trkpt>
      <trkpt lat="48.54764" lon="2.20143">
        <ele>105</ele>
        <time>2018-06-03T12:35:34Z</time>
      </trkpt>
      <trkpt lat="48.54768" lon="2.20148">
        <ele>105</ele>
        <time>2018-06-03T12:35:38Z</time>
      </trkpt>
      <trkpt lat="48.54775" lon="2.20152">
        <ele>105</ele>
        <time>2018-06-03T12:35:46Z</time>
      </trkpt>
      <trkpt lat="48.54779" lon="2.20155">
        <ele>105</ele>
        <time>2018-06-03T12:35:51Z</time>
      </trkpt>
      <trkpt lat="48.54784" lon="2.20157">
        <ele>105</ele>
        <time>2018-06-03T12:35:56Z</time>
      </trkpt>
      <trkpt lat="48.54788" lon="2.20162">
        <ele>105</ele>
        <time>2018-06-03T12:36:01Z</time>
      </trkpt>
      <trkpt lat="48.54787" lon="2.2017">
        <ele>104</ele>
        <time>2018-06-03T12:36:06Z</time>
      </trkpt>
      <trkpt lat="48.54784" lon="2.20176">
        <ele>104</ele>
        <time>2018-06-03T12:36:10Z</time>
      </trkpt>
      <trkpt lat="48.54776" lon="2.20186">
        <ele>104</ele>
        <time>2018-06-03T12:36:17Z</time>
      </trkpt>
      <trkpt lat="48.54775" lon="2.20194">
        <ele>104</ele>
        <time>2018-06-03T12:36:21Z</time>
      </trkpt>
      <trkpt lat="48.54772" lon="2.202">
        <ele>104</ele>
        <time>2018-06-03T12:36:25Z</time>
      </trkpt>
      <trkpt lat="48.54764" lon="2.20209">
        <ele>104</ele>
        <time>2018-06-03T12:36:33Z</time>
      </trkpt>
      <trkpt lat="48.5476" lon="2.20218">
        <ele>104</ele>
        <time>2018-06-03T12:36:40Z</time>
      </trkpt>
      <trkpt lat="48.54755" lon="2.20223">
        <ele>104</ele>
        <time>2018-06-03T12:36:44Z</time>
      </trkpt>
      <trkpt lat="48.5475" lon="2.20224">
        <ele>104</ele>
        <time>2018-06-03T12:36:48Z</time>
      </trkpt>
      <trkpt lat="48.54746" lon="2.20228">
        <ele>105</ele>
        <time>2018-06-03T12:36:52Z</time>
      </trkpt>
      <trkpt lat="48.54712" lon="2.20267">
        <ele>104</ele>
        <time>2018-06-03T12:37:24Z</time>
      </trkpt>
      <trkpt lat="48.547" lon="2.20281">
        <ele>104</ele>
        <time>2018-06-03T12:37:36Z</time>
      </trkpt>
      <trkpt lat="48.54694" lon="2.20296">
        <ele>103</ele>
        <time>2018-06-03T12:37:45Z</time>
      </trkpt>
      <trkpt lat="48.5469" lon="2.20301">
        <ele>103</ele>
        <time>2018-06-03T12:37:49Z</time>
      </trkpt>
      <trkpt lat="48.54684" lon="2.20314">
        <ele>103</ele>
        <time>2018-06-03T12:37:56Z</time>
      </trkpt>
      <trkpt lat="48.54683" lon="2.20322">
        <ele>103</ele>
        <time>2018-06-03T12:38:00Z</time>
      </trkpt>
      <trkpt lat="48.54685" lon="2.20342">
        <ele>103</ele>
        <time>2018-06-03T12:38:14Z</time>
      </trkpt>
      <trkpt lat="48.54684" lon="2.2035">
        <ele>103</ele>
        <time>2018-06-03T12:38:18Z</time>
      </trkpt>
      <trkpt lat="48.54682" lon="2.20356">
        <ele>103</ele>
        <time>2018-06-03T12:38:22Z</time>
      </trkpt>
      <trkpt lat="48.54677" lon="2.20363">
        <ele>103</ele>
        <time>2018-06-03T12:38:29Z</time>
      </trkpt>
      <trkpt lat="48.54674" lon="2.2037">
        <ele>103</ele>
        <time>2018-06-03T12:38:34Z</time>
      </trkpt>
      <trkpt lat="48.5466" lon="2.20414">
        <ele>103</ele>
        <time>2018-06-03T12:39:02Z</time>
      </trkpt>
      <trkpt lat="48.54651" lon="2.20424">
        <ele>103</ele>
        <time>2018-06-03T12:39:07Z</time>
      </trkpt>
      <trkpt lat="48.54634" lon="2.20453">
        <ele>103</ele>
        <time>2018-06-03T12:39:27Z</time>
      </trkpt>
      <trkpt lat="48.54625" lon="2.2046">
        <ele>104</ele>
        <time>2018-06-03T12:39:34Z</time>
      </trkpt>
      <trkpt lat="48.54615" lon="2.2048">
        <ele>105</ele>
        <time>2018-06-03T12:39:50Z</time>
      </trkpt>
      <trkpt lat="48.54602" lon="2.20496">
        <ele>105</ele>
        <time>2018-06-03T12:40:02Z</time>
      </trkpt>
      <trkpt lat="48.54596" lon="2.20512">
        <ele>105</ele>
        <time>2018-06-03T12:40:13Z</time>
      </trkpt>
      <trkpt lat="48.54592" lon="2.20516">
        <ele>105</ele>
        <time>2018-06-03T12:40:16Z</time>
      </trkpt>
      <trkpt lat="48.54569" lon="2.20552">
        <ele>105</ele>
        <time>2018-06-03T12:40:35Z</time>
      </trkpt>
      <trkpt lat="48.54556" lon="2.20565">
        <ele>105</ele>
        <time>2018-06-03T12:40:44Z</time>
      </trkpt>
      <trkpt lat="48.54552" lon="2.20579">
        <ele>105</ele>
        <time>2018-06-03T12:40:51Z</time>
      </trkpt>
      <trkpt lat="48.54522" lon="2.20619">
        <ele>105</ele>
        <time>2018-06-03T12:41:17Z</time>
      </trkpt>
      <trkpt lat="48.54516" lon="2.20625">
        <ele>104</ele>
        <time>2018-06-03T12:41:24Z</time>
      </trkpt>
      <trkpt lat="48.54511" lon="2.20629">
        <ele>105</ele>
        <time>2018-06-03T12:41:28Z</time>
      </trkpt>
      <trkpt lat="48.54497" lon="2.20649">
        <ele>105</ele>
        <time>2018-06-03T12:41:45Z</time>
      </trkpt>
      <trkpt lat="48.54495" lon="2.20656">
        <ele>105</ele>
        <time>2018-06-03T12:41:49Z</time>
      </trkpt>
      <trkpt lat="48.5449" lon="2.20667">
        <ele>105</ele>
        <time>2018-06-03T12:41:57Z</time>
      </trkpt>
      <trkpt lat="48.54487" lon="2.20674">
        <ele>105</ele>
        <time>2018-06-03T12:42:01Z</time>
      </trkpt>
      <trkpt lat="48.5446" lon="2.20704">
        <ele>106</ele>
        <time>2018-06-03T12:42:24Z</time>
      </trkpt>
      <trkpt lat="48.54446" lon="2.20727">
        <ele>106</ele>
        <time>2018-06-03T12:42:41Z</time>
      </trkpt>
      <trkpt lat="48.54444" lon="2.20734">
        <ele>106</ele>
        <time>2018-06-03T12:42:45Z</time>
      </trkpt>
      <trkpt lat="48.5444" lon="2.2074">
        <ele>106</ele>
        <time>2018-06-03T12:42:49Z</time>
      </trkpt>
      <trkpt lat="48.54438" lon="2.20747">
        <ele>106</ele>
        <time>2018-06-03T12:42:53Z</time>
      </trkpt>
      <trkpt lat="48.54438" lon="2.20755">
        <ele>106</ele>
        <time>2018-06-03T12:42:58Z</time>
      </trkpt>
      <trkpt lat="48.5444" lon="2.20762">
        <ele>105</ele>
        <time>2018-06-03T12:43:03Z</time>
      </trkpt>
      <trkpt lat="48.54449" lon="2.20771">
        <ele>104</ele>
        <time>2018-06-03T12:43:16Z</time>
      </trkpt>
      <trkpt lat="48.54457" lon="2.20781">
        <ele>104</ele>
        <time>2018-06-03T12:43:25Z</time>
      </trkpt>
      <trkpt lat="48.54461" lon="2.20784">
        <ele>104</ele>
        <time>2018-06-03T12:43:30Z</time>
      </trkpt>
      <trkpt lat="48.5447" lon="2.20792">
        <ele>103</ele>
        <time>2018-06-03T12:43:38Z</time>
      </trkpt>
      <trkpt lat="48.54477" lon="2.20794">
        <ele>103</ele>
        <time>2018-06-03T12:43:45Z</time>
      </trkpt>
      <trkpt lat="48.54481" lon="2.20797">
        <ele>103</ele>
        <time>2018-06-03T12:43:49Z</time>
      </trkpt>
      <trkpt lat="48.54493" lon="2.20809">
        <ele>103</ele>
        <time>2018-06-03T12:43:59Z</time>
      </trkpt>
      <trkpt lat="48.54498" lon="2.20813">
        <ele>103</ele>
        <time>2018-06-03T12:44:02Z</time>
      </trkpt>
      <trkpt lat="48.54525" lon="2.20836">
        <ele>102</ele>
        <time>2018-06-03T12:44:25Z</time>
      </trkpt>
      <trkpt lat="48.54536" lon="2.20841">
        <ele>102</ele>
        <time>2018-06-03T12:44:33Z</time>
      </trkpt>
      <trkpt lat="48.54567" lon="2.2087">
        <ele>101</ele>
        <time>2018-06-03T12:45:03Z</time>
      </trkpt>
      <trkpt lat="48.54577" lon="2.20873">
        <ele>101</ele>
        <time>2018-06-03T12:45:11Z</time>
      </trkpt>
      <trkpt lat="48.54592" lon="2.20882">
        <ele>101</ele>
        <time>2018-06-03T12:45:23Z</time>
      </trkpt>
      <trkpt lat="48.54622" lon="2.20909">
        <ele>100</ele>
        <time>2018-06-03T12:45:50Z</time>
      </trkpt>
      <trkpt lat="48.54651" lon="2.20925">
        <ele>99</ele>
        <time>2018-06-03T12:46:14Z</time>
      </trkpt>
      <trkpt lat="48.5469" lon="2.20959">
        <ele>99</ele>
        <time>2018-06-03T12:46:47Z</time>
      </trkpt>
      <trkpt lat="48.5473" lon="2.20987">
        <ele>98</ele>
        <time>2018-06-03T12:47:19Z</time>
      </trkpt>
      <trkpt lat="48.54743" lon="2.20997">
        <ele>98</ele>
        <time>2018-06-03T12:47:30Z</time>
      </trkpt>
      <trkpt lat="48.54748" lon="2.21001">
        <ele>98</ele>
        <time>2018-06-03T12:47:34Z</time>
      </trkpt>
      <trkpt lat="48.54754" lon="2.21006">
        <ele>97</ele>
        <time>2018-06-03T12:47:39Z</time>
      </trkpt>
      <trkpt lat="48.54789" lon="2.21035">
        <ele>97</ele>
        <time>2018-06-03T12:48:10Z</time>
      </trkpt>
      <trkpt lat="48.548" lon="2.21042">
        <ele>97</ele>
        <time>2018-06-03T12:48:18Z</time>
      </trkpt>
      <trkpt lat="48.54813" lon="2.21055">
        <ele>97</ele>
        <time>2018-06-03T12:48:29Z</time>
      </trkpt>
      <trkpt lat="48.54819" lon="2.21057">
        <ele>96</ele>
        <time>2018-06-03T12:48:34Z</time>
      </trkpt>
      <trkpt lat="48.54846" lon="2.21078">
        <ele>96</ele>
        <time>2018-06-03T12:48:57Z</time>
      </trkpt>
      <trkpt lat="48.54853" lon="2.21089">
        <ele>96</ele>
        <time>2018-06-03T12:49:04Z</time>
      </trkpt>
      <trkpt lat="48.54872" lon="2.21102">
        <ele>95</ele>
        <time>2018-06-03T12:49:20Z</time>
      </trkpt>
      <trkpt lat="48.54873" lon="2.21109">
        <ele>95</ele>
        <time>2018-06-03T12:49:25Z</time>
      </trkpt>
      <trkpt lat="48.54867" lon="2.21129">
        <ele>95</ele>
        <time>2018-06-03T12:49:37Z</time>
      </trkpt>
      <trkpt lat="48.54864" lon="2.21145">
        <ele>94</ele>
        <time>2018-06-03T12:49:46Z</time>
      </trkpt>
      <trkpt lat="48.54863" lon="2.21153">
        <ele>95</ele>
        <time>2018-06-03T12:49:50Z</time>
      </trkpt>
      <trkpt lat="48.54855" lon="2.21191">
        <ele>94</ele>
        <time>2018-06-03T12:50:11Z</time>
      </trkpt>
      <trkpt lat="48.54852" lon="2.21198">
        <ele>94</ele>
        <time>2018-06-03T12:50:15Z</time>
      </trkpt>
      <trkpt lat="48.54845" lon="2.21208">
        <ele>94</ele>
        <time>2018-06-03T12:50:23Z</time>
      </trkpt>
      <trkpt lat="48.54841" lon="2.21223">
        <ele>94</ele>
        <time>2018-06-03T12:50:32Z</time>
      </trkpt>
      <trkpt lat="48.54838" lon="2.21231">
        <ele>93</ele>
        <time>2018-06-03T12:50:37Z</time>
      </trkpt>
      <trkpt lat="48.54836" lon="2.21238">
        <ele>93</ele>
        <time>2018-06-03T12:50:41Z</time>
      </trkpt>
      <trkpt lat="48.54831" lon="2.21252">
        <ele>93</ele>
        <time>2018-06-03T12:50:48Z</time>
      </trkpt>
      <trkpt lat="48.54829" lon="2.21259">
        <ele>94</ele>
        <time>2018-06-03T12:50:52Z</time>
      </trkpt>
      <trkpt lat="48.54824" lon="2.21272">
        <ele>94</ele>
        <time>2018-06-03T12:50:59Z</time>
      </trkpt>
      <trkpt lat="48.54823" lon="2.21279">
        <ele>94</ele>
        <time>2018-06-03T12:51:02Z</time>
      </trkpt>
      <trkpt lat="48.54819" lon="2.21294">
        <ele>94</ele>
        <time>2018-06-03T12:51:10Z</time>
      </trkpt>
      <trkpt lat="48.54816" lon="2.213">
        <ele>94</ele>
        <time>2018-06-03T12:51:14Z</time>
      </trkpt>
      <trkpt lat="48.54797" lon="2.21355">
        <ele>94</ele>
        <time>2018-06-03T12:51:47Z</time>
      </trkpt>
      <trkpt lat="48.54794" lon="2.21362">
        <ele>94</ele>
        <time>2018-06-03T12:51:51Z</time>
      </trkpt>
      <trkpt lat="48.54782" lon="2.21397">
        <ele>94</ele>
        <time>2018-06-03T12:52:11Z</time>
      </trkpt>
      <trkpt lat="48.54781" lon="2.21405">
        <ele>94</ele>
        <time>2018-06-03T12:52:15Z</time>
      </trkpt>
      <trkpt lat="48.54763" lon="2.21461">
        <ele>95</ele>
        <time>2018-06-03T12:52:47Z</time>
      </trkpt>
      <trkpt lat="48.5474" lon="2.21522">
        <ele>95</ele>
        <time>2018-06-03T12:53:21Z</time>
      </trkpt>
      <trkpt lat="48.54739" lon="2.21529">
        <ele>95</ele>
        <time>2018-06-03T12:53:25Z</time>
      </trkpt>
      <trkpt lat="48.54736" lon="2.21535">
        <ele>95</ele>
        <time>2018-06-03T12:53:29Z</time>
      </trkpt>
      <trkpt lat="48.54731" lon="2.21547">
        <ele>95</ele>
        <time>2018-06-03T12:53:37Z</time>
      </trkpt>
      <trkpt lat="48.54727" lon="2.21562">
        <ele>96</ele>
        <time>2018-06-03T12:53:45Z</time>
      </trkpt>
      <trkpt lat="48.54726" lon="2.2157">
        <ele>96</ele>
        <time>2018-06-03T12:53:50Z</time>
      </trkpt>
      <trkpt lat="48.54725" lon="2.21576">
        <ele>96</ele>
        <time>2018-06-03T12:53:59Z</time>
      </trkpt>
      <trkpt lat="48.54729" lon="2.21586">
        <ele>97</ele>
        <time>2018-06-03T12:56:04Z</time>
      </trkpt>
      <trkpt lat="48.54739" lon="2.21589">
        <ele>97</ele>
        <time>2018-06-03T12:56:13Z</time>
      </trkpt>
      <trkpt lat="48.54744" lon="2.21591">
        <ele>97</ele>
        <time>2018-06-03T12:56:17Z</time>
      </trkpt>
      <trkpt lat="48.54753" lon="2.21598">
        <ele>97</ele>
        <time>2018-06-03T12:56:26Z</time>
      </trkpt>
      <trkpt lat="48.54758" lon="2.21602">
        <ele>96</ele>
        <time>2018-06-03T12:56:34Z</time>
      </trkpt>
      <trkpt lat="48.54737" lon="2.21641">
        <ele>94</ele>
        <time>2018-06-03T12:56:58Z</time>
      </trkpt>
      <trkpt lat="48.54737" lon="2.2164">
        <ele>97</ele>
        <time>2018-06-03T12:57:14Z</time>
      </trkpt>
      <trkpt lat="48.54722" lon="2.21633">
        <ele>98</ele>
        <time>2018-06-03T12:57:26Z</time>
      </trkpt>
      <trkpt lat="48.54718" lon="2.21629">
        <ele>98</ele>
        <time>2018-06-03T12:57:30Z</time>
      </trkpt>
      <trkpt lat="48.5471" lon="2.2163">
        <ele>98</ele>
        <time>2018-06-03T12:57:39Z</time>
      </trkpt>
      <trkpt lat="48.54704" lon="2.21641">
        <ele>97</ele>
        <time>2018-06-03T12:57:47Z</time>
      </trkpt>
      <trkpt lat="48.54697" lon="2.21662">
        <ele>98</ele>
        <time>2018-06-03T12:57:59Z</time>
      </trkpt>
      <trkpt lat="48.54691" lon="2.21675">
        <ele>98</ele>
        <time>2018-06-03T12:58:07Z</time>
      </trkpt>
      <trkpt lat="48.5468" lon="2.2171">
        <ele>98</ele>
        <time>2018-06-03T12:58:27Z</time>
      </trkpt>
      <trkpt lat="48.54677" lon="2.21715">
        <ele>98</ele>
        <time>2018-06-03T12:58:31Z</time>
      </trkpt>
      <trkpt lat="48.54666" lon="2.2174">
        <ele>98</ele>
        <time>2018-06-03T12:58:47Z</time>
      </trkpt>
      <trkpt lat="48.54663" lon="2.21756">
        <ele>99</ele>
        <time>2018-06-03T12:58:55Z</time>
      </trkpt>
      <trkpt lat="48.54648" lon="2.21807">
        <ele>99</ele>
        <time>2018-06-03T12:59:23Z</time>
      </trkpt>
      <trkpt lat="48.54645" lon="2.21813">
        <ele>99</ele>
        <time>2018-06-03T12:59:27Z</time>
      </trkpt>
      <trkpt lat="48.54641" lon="2.21827">
        <ele>99</ele>
        <time>2018-06-03T12:59:35Z</time>
      </trkpt>
      <trkpt lat="48.54637" lon="2.21833">
        <ele>99</ele>
        <time>2018-06-03T12:59:39Z</time>
      </trkpt>
      <trkpt lat="48.54623" lon="2.21894">
        <ele>100</ele>
        <time>2018-06-03T13:00:12Z</time>
      </trkpt>
      <trkpt lat="48.54617" lon="2.21907">
        <ele>100</ele>
        <time>2018-06-03T13:00:21Z</time>
      </trkpt>
      <trkpt lat="48.54611" lon="2.21931">
        <ele>100</ele>
        <time>2018-06-03T13:00:34Z</time>
      </trkpt>
      <trkpt lat="48.54605" lon="2.21942">
        <ele>100</ele>
        <time>2018-06-03T13:00:42Z</time>
      </trkpt>
      <trkpt lat="48.54603" lon="2.21949">
        <ele>100</ele>
        <time>2018-06-03T13:00:46Z</time>
      </trkpt>
      <trkpt lat="48.54582" lon="2.22008">
        <ele>100</ele>
        <time>2018-06-03T13:01:20Z</time>
      </trkpt>
      <trkpt lat="48.54571" lon="2.22051">
        <ele>100</ele>
        <time>2018-06-03T13:01:44Z</time>
      </trkpt>
      <trkpt lat="48.54566" lon="2.22064">
        <ele>100</ele>
        <time>2018-06-03T13:01:51Z</time>
      </trkpt>
      <trkpt lat="48.54561" lon="2.22084">
        <ele>100</ele>
        <time>2018-06-03T13:02:00Z</time>
      </trkpt>
      <trkpt lat="48.54559" lon="2.22107">
        <ele>100</ele>
        <time>2018-06-03T13:02:12Z</time>
      </trkpt>
      <trkpt lat="48.54563" lon="2.22153">
        <ele>99</ele>
        <time>2018-06-03T13:02:35Z</time>
      </trkpt>
      <trkpt lat="48.54563" lon="2.22167">
        <ele>99</ele>
        <time>2018-06-03T13:02:42Z</time>
      </trkpt>
      <trkpt lat="48.54565" lon="2.22175">
        <ele>99</ele>
        <time>2018-06-03T13:02:46Z</time>
      </trkpt>
      <trkpt lat="48.54563" lon="2.22223">
        <ele>99</ele>
        <time>2018-06-03T13:03:11Z</time>
      </trkpt>
      <trkpt lat="48.54558" lon="2.22245">
        <ele>99</ele>
        <time>2018-06-03T13:03:23Z</time>
      </trkpt>
      <trkpt lat="48.54552" lon="2.22258">
        <ele>99</ele>
        <time>2018-06-03T13:03:32Z</time>
      </trkpt>
      <trkpt lat="48.54552" lon="2.22265">
        <ele>99</ele>
        <time>2018-06-03T13:03:36Z</time>
      </trkpt>
      <trkpt lat="48.54554" lon="2.22271">
        <ele>98</ele>
        <time>2018-06-03T13:03:39Z</time>
      </trkpt>
      <trkpt lat="48.5455" lon="2.22286">
        <ele>98</ele>
        <time>2018-06-03T13:03:46Z</time>
      </trkpt>
      <trkpt lat="48.54544" lon="2.22299">
        <ele>98</ele>
        <time>2018-06-03T13:03:53Z</time>
      </trkpt>
      <trkpt lat="48.54535" lon="2.22316">
        <ele>98</ele>
        <time>2018-06-03T13:04:05Z</time>
      </trkpt>
      <trkpt lat="48.54531" lon="2.22331">
        <ele>98</ele>
        <time>2018-06-03T13:04:12Z</time>
      </trkpt>
      <trkpt lat="48.5452" lon="2.22372">
        <ele>97</ele>
        <time>2018-06-03T13:04:34Z</time>
      </trkpt>
      <trkpt lat="48.54519" lon="2.22379">
        <ele>97</ele>
        <time>2018-06-03T13:04:37Z</time>
      </trkpt>
      <trkpt lat="48.54521" lon="2.22387">
        <ele>97</ele>
        <time>2018-06-03T13:04:41Z</time>
      </trkpt>
      <trkpt lat="48.54521" lon="2.22394">
        <ele>97</ele>
        <time>2018-06-03T13:04:46Z</time>
      </trkpt>
      <trkpt lat="48.54511" lon="2.22397">
        <ele>97</ele>
        <time>2018-06-03T13:04:52Z</time>
      </trkpt>
      <trkpt lat="48.54465" lon="2.224">
        <ele>96</ele>
        <time>2018-06-03T13:05:24Z</time>
      </trkpt>
      <trkpt lat="48.54423" lon="2.22403">
        <ele>96</ele>
        <time>2018-06-03T13:05:56Z</time>
      </trkpt>
      <trkpt lat="48.54381" lon="2.22406">
        <ele>96</ele>
        <time>2018-06-03T13:06:28Z</time>
      </trkpt>
      <trkpt lat="48.54371" lon="2.22406">
        <ele>96</ele>
        <time>2018-06-03T13:06:36Z</time>
      </trkpt>
      <trkpt lat="48.54333" lon="2.2241">
        <ele>95</ele>
        <time>2018-06-03T13:07:08Z</time>
      </trkpt>
      <trkpt lat="48.54313" lon="2.22411">
        <ele>95</ele>
        <time>2018-06-03T13:07:24Z</time>
      </trkpt>
      <trkpt lat="48.54308" lon="2.22412">
        <ele>95</ele>
        <time>2018-06-03T13:07:28Z</time>
      </trkpt>
      <trkpt lat="48.54269" lon="2.22416">
        <ele>95</ele>
        <time>2018-06-03T13:07:59Z</time>
      </trkpt>
      <trkpt lat="48.54225" lon="2.22417">
        <ele>95</ele>
        <time>2018-06-03T13:08:31Z</time>
      </trkpt>
      <trkpt lat="48.54188" lon="2.2242">
        <ele>95</ele>
        <time>2018-06-03T13:09:04Z</time>
      </trkpt>
      <trkpt lat="48.54174" lon="2.22424">
        <ele>95</ele>
        <time>2018-06-03T13:09:16Z</time>
      </trkpt>
      <trkpt lat="48.54143" lon="2.22425">
        <ele>95</ele>
        <time>2018-06-03T13:09:41Z</time>
      </trkpt>
      <trkpt lat="48.54128" lon="2.22431">
        <ele>96</ele>
        <time>2018-06-03T13:09:52Z</time>
      </trkpt>
      <trkpt lat="48.54086" lon="2.22432">
        <ele>96</ele>
        <time>2018-06-03T13:10:23Z</time>
      </trkpt>
      <trkpt lat="48.54055" lon="2.22437">
        <ele>97</ele>
        <time>2018-06-03T13:10:45Z</time>
      </trkpt>
      <trkpt lat="48.5404" lon="2.22431">
        <ele>97</ele>
        <time>2018-06-03T13:10:57Z</time>
      </trkpt>
      <trkpt lat="48.54026" lon="2.22428">
        <ele>98</ele>
        <time>2018-06-03T13:11:08Z</time>
      </trkpt>
      <trkpt lat="48.54021" lon="2.2243">
        <ele>98</ele>
        <time>2018-06-03T13:11:12Z</time>
      </trkpt>
      <trkpt lat="48.54012" lon="2.22429">
        <ele>98</ele>
        <time>2018-06-03T13:11:21Z</time>
      </trkpt>
      <trkpt lat="48.54006" lon="2.22426">
        <ele>98</ele>
        <time>2018-06-03T13:11:26Z</time>
      </trkpt>
      <trkpt lat="48.53996" lon="2.22424">
        <ele>99</ele>
        <time>2018-06-03T13:11:34Z</time>
      </trkpt>
      <trkpt lat="48.5397" lon="2.22434">
        <ele>100</ele>
        <time>2018-06-03T13:11:55Z</time>
      </trkpt>
      <trkpt lat="48.53931" lon="2.22436">
        <ele>101</ele>
        <time>2018-06-03T13:12:22Z</time>
      </trkpt>
      <trkpt lat="48.53925" lon="2.22438">
        <ele>102</ele>
        <time>2018-06-03T13:12:26Z</time>
      </trkpt>
      <trkpt lat="48.5392" lon="2.22438">
        <ele>102</ele>
        <time>2018-06-03T13:12:30Z</time>
      </trkpt>
      <trkpt lat="48.53915" lon="2.22432">
        <ele>102</ele>
        <time>2018-06-03T13:12:35Z</time>
      </trkpt>
      <trkpt lat="48.5391" lon="2.22431">
        <ele>102</ele>
        <time>2018-06-03T13:12:46Z</time>
      </trkpt>
      <trkpt lat="48.539" lon="2.22435">
        <ele>103</ele>
        <time>2018-06-03T13:12:54Z</time>
      </trkpt>
      <trkpt lat="48.53896" lon="2.22438">
        <ele>103</ele>
        <time>2018-06-03T13:12:58Z</time>
      </trkpt>
      <trkpt lat="48.53866" lon="2.2245">
        <ele>106</ele>
        <time>2018-06-03T13:13:20Z</time>
      </trkpt>
      <trkpt lat="48.53833" lon="2.22445">
        <ele>109</ele>
        <time>2018-06-03T13:13:50Z</time>
      </trkpt>
      <trkpt lat="48.53828" lon="2.22446">
        <ele>110</ele>
        <time>2018-06-03T13:13:54Z</time>
      </trkpt>
      <trkpt lat="48.53809" lon="2.2244">
        <ele>112</ele>
        <time>2018-06-03T13:14:10Z</time>
      </trkpt>
      <trkpt lat="48.53801" lon="2.22431">
        <ele>113</ele>
        <time>2018-06-03T13:14:18Z</time>
      </trkpt>
      <trkpt lat="48.53783" lon="2.22427">
        <ele>115</ele>
        <time>2018-06-03T13:14:37Z</time>
      </trkpt>
      <trkpt lat="48.53774" lon="2.22422">
        <ele>116</ele>
        <time>2018-06-03T13:14:44Z</time>
      </trkpt>
      <trkpt lat="48.53767" lon="2.22413">
        <ele>117</ele>
        <time>2018-06-03T13:14:51Z</time>
      </trkpt>
      <trkpt lat="48.53738" lon="2.22402">
        <ele>121</ele>
        <time>2018-06-03T13:15:23Z</time>
      </trkpt>
      <trkpt lat="48.53729" lon="2.22402">
        <ele>123</ele>
        <time>2018-06-03T13:15:31Z</time>
      </trkpt>
      <trkpt lat="48.53714" lon="2.22393">
        <ele>126</ele>
        <time>2018-06-03T13:15:49Z</time>
      </trkpt>
      <trkpt lat="48.53701" lon="2.22399">
        <ele>127</ele>
        <time>2018-06-03T13:15:58Z</time>
      </trkpt>
      <trkpt lat="48.53694" lon="2.22388">
        <ele>128</ele>
        <time>2018-06-03T13:16:06Z</time>
      </trkpt>
      <trkpt lat="48.53658" lon="2.2237">
        <ele>132</ele>
        <time>2018-06-03T13:16:36Z</time>
      </trkpt>
      <trkpt lat="48.53649" lon="2.2237">
        <ele>133</ele>
        <time>2018-06-03T13:16:43Z</time>
      </trkpt>
      <trkpt lat="48.53641" lon="2.22363">
        <ele>134</ele>
        <time>2018-06-03T13:16:50Z</time>
      </trkpt>
      <trkpt lat="48.53627" lon="2.22349">
        <ele>135</ele>
        <time>2018-06-03T13:17:04Z</time>
      </trkpt>
      <trkpt lat="48.53611" lon="2.22338">
        <ele>137</ele>
        <time>2018-06-03T13:17:20Z</time>
      </trkpt>
      <trkpt lat="48.53606" lon="2.22339">
        <ele>137</ele>
        <time>2018-06-03T13:17:25Z</time>
      </trkpt>
      <trkpt lat="48.53588" lon="2.22325">
        <ele>140</ele>
        <time>2018-06-03T13:17:43Z</time>
      </trkpt>
      <trkpt lat="48.53584" lon="2.22318">
        <ele>140</ele>
        <time>2018-06-03T13:17:48Z</time>
      </trkpt>
      <trkpt lat="48.53581" lon="2.22314">
        <ele>141</ele>
        <time>2018-06-03T13:17:51Z</time>
      </trkpt>
      <trkpt lat="48.53576" lon="2.2231">
        <ele>141</ele>
        <time>2018-06-03T13:17:55Z</time>
      </trkpt>
      <trkpt lat="48.53571" lon="2.22311">
        <ele>141</ele>
        <time>2018-06-03T13:17:59Z</time>
      </trkpt>
      <trkpt lat="48.53574" lon="2.22322">
        <ele>143</ele>
        <time>2018-06-03T13:19:46Z</time>
      </trkpt>
      <trkpt lat="48.53578" lon="2.22327">
        <ele>144</ele>
        <time>2018-06-03T13:19:51Z</time>
      </trkpt>
      <trkpt lat="48.53581" lon="2.22332">
        <ele>144</ele>
        <time>2018-06-03T13:19:59Z</time>
      </trkpt>
      <trkpt lat="48.53587" lon="2.22333">
        <ele>144</ele>
        <time>2018-06-03T13:20:53Z</time>
      </trkpt>
      <trkpt lat="48.53593" lon="2.22342">
        <ele>148</ele>
        <time>2018-06-03T13:28:49Z</time>
      </trkpt>
      <trkpt lat="48.53597" lon="2.22345">
        <ele>147</ele>
        <time>2018-06-03T13:28:54Z</time>
      </trkpt>
      <trkpt lat="48.53602" lon="2.22353">
        <ele>147</ele>
        <time>2018-06-03T13:29:03Z</time>
      </trkpt>
      <trkpt lat="48.53603" lon="2.2236">
        <ele>147</ele>
        <time>2018-06-03T13:29:07Z</time>
      </trkpt>
      <trkpt lat="48.53603" lon="2.22368">
        <ele>147</ele>
        <time>2018-06-03T13:29:11Z</time>
      </trkpt>
      <trkpt lat="48.53595" lon="2.2239">
        <ele>147</ele>
        <time>2018-06-03T13:29:23Z</time>
      </trkpt>
      <trkpt lat="48.53589" lon="2.22403">
        <ele>147</ele>
        <time>2018-06-03T13:29:31Z</time>
      </trkpt>
      <trkpt lat="48.53584" lon="2.22416">
        <ele>147</ele>
        <time>2018-06-03T13:29:39Z</time>
      </trkpt>
      <trkpt lat="48.53573" lon="2.22435">
        <ele>147</ele>
        <time>2018-06-03T13:29:50Z</time>
      </trkpt>
      <trkpt lat="48.5356" lon="2.22461">
        <ele>147</ele>
        <time>2018-06-03T13:30:05Z</time>
      </trkpt>
      <trkpt lat="48.53538" lon="2.22504">
        <ele>146</ele>
        <time>2018-06-03T13:30:32Z</time>
      </trkpt>
      <trkpt lat="48.5353" lon="2.22523">
        <ele>146</ele>
        <time>2018-06-03T13:30:44Z</time>
      </trkpt>
      <trkpt lat="48.5352" lon="2.22542">
        <ele>146</ele>
        <time>2018-06-03T13:30:56Z</time>
      </trkpt>
      <trkpt lat="48.53517" lon="2.22549">
        <ele>146</ele>
        <time>2018-06-03T13:31:00Z</time>
      </trkpt>
      <trkpt lat="48.53492" lon="2.22597">
        <ele>146</ele>
        <time>2018-06-03T13:31:32Z</time>
      </trkpt>
      <trkpt lat="48.53467" lon="2.22646">
        <ele>146</ele>
        <time>2018-06-03T13:32:04Z</time>
      </trkpt>
      <trkpt lat="48.53443" lon="2.22696">
        <ele>146</ele>
        <time>2018-06-03T13:32:36Z</time>
      </trkpt>
      <trkpt lat="48.53418" lon="2.22746">
        <ele>145</ele>
        <time>2018-06-03T13:33:08Z</time>
      </trkpt>
      <trkpt lat="48.53415" lon="2.22753">
        <ele>145</ele>
        <time>2018-06-03T13:33:12Z</time>
      </trkpt>
      <trkpt lat="48.53388" lon="2.22802">
        <ele>145</ele>
        <time>2018-06-03T13:33:43Z</time>
      </trkpt>
      <trkpt lat="48.53374" lon="2.22834">
        <ele>145</ele>
        <time>2018-06-03T13:34:04Z</time>
      </trkpt>
      <trkpt lat="48.53371" lon="2.22839">
        <ele>145</ele>
        <time>2018-06-03T13:34:09Z</time>
      </trkpt>
      <trkpt lat="48.53366" lon="2.22839">
        <ele>145</ele>
        <time>2018-06-03T13:34:29Z</time>
      </trkpt>
      <trkpt lat="48.53359" lon="2.22833">
        <ele>145</ele>
        <time>2018-06-03T13:36:16Z</time>
      </trkpt>
      <trkpt lat="48.53338" lon="2.22822">
        <ele>144</ele>
        <time>2018-06-03T13:36:33Z</time>
      </trkpt>
      <trkpt lat="48.53329" lon="2.22813">
        <ele>144</ele>
        <time>2018-06-03T13:36:41Z</time>
      </trkpt>
      <trkpt lat="48.53289" lon="2.22787">
        <ele>145</ele>
        <time>2018-06-03T13:37:14Z</time>
      </trkpt>
      <trkpt lat="48.53265" lon="2.22778">
        <ele>144</ele>
        <time>2018-06-03T13:37:33Z</time>
      </trkpt>
      <trkpt lat="48.53231" lon="2.22758">
        <ele>145</ele>
        <time>2018-06-03T13:38:01Z</time>
      </trkpt>
      <trkpt lat="48.5322" lon="2.22754">
        <ele>146</ele>
        <time>2018-06-03T13:38:09Z</time>
      </trkpt>
      <trkpt lat="48.53201" lon="2.22737">
        <ele>146</ele>
        <time>2018-06-03T13:38:25Z</time>
      </trkpt>
      <trkpt lat="48.53196" lon="2.22735">
        <ele>146</ele>
        <time>2018-06-03T13:38:28Z</time>
      </trkpt>
      <trkpt lat="48.53192" lon="2.2273">
        <ele>146</ele>
        <time>2018-06-03T13:38:32Z</time>
      </trkpt>
      <trkpt lat="48.53185" lon="2.22719">
        <ele>146</ele>
        <time>2018-06-03T13:38:41Z</time>
      </trkpt>
      <trkpt lat="48.53172" lon="2.22706">
        <ele>146</ele>
        <time>2018-06-03T13:38:53Z</time>
      </trkpt>
      <trkpt lat="48.53167" lon="2.22705">
        <ele>146</ele>
        <time>2018-06-03T13:38:57Z</time>
      </trkpt>
      <trkpt lat="48.53153" lon="2.22691">
        <ele>147</ele>
        <time>2018-06-03T13:39:09Z</time>
      </trkpt>
      <trkpt lat="48.53147" lon="2.2269">
        <ele>147</ele>
        <time>2018-06-03T13:39:13Z</time>
      </trkpt>
      <trkpt lat="48.53123" lon="2.22673">
        <ele>147</ele>
        <time>2018-06-03T13:39:33Z</time>
      </trkpt>
      <trkpt lat="48.53119" lon="2.22667">
        <ele>147</ele>
        <time>2018-06-03T13:39:37Z</time>
      </trkpt>
      <trkpt lat="48.53109" lon="2.22662">
        <ele>147</ele>
        <time>2018-06-03T13:39:45Z</time>
      </trkpt>
      <trkpt lat="48.53093" lon="2.22644">
        <ele>148</ele>
        <time>2018-06-03T13:40:02Z</time>
      </trkpt>
      <trkpt lat="48.53084" lon="2.22641">
        <ele>148</ele>
        <time>2018-06-03T13:40:11Z</time>
      </trkpt>
      <trkpt lat="48.53079" lon="2.22623">
        <ele>148</ele>
        <time>2018-06-03T13:40:24Z</time>
      </trkpt>
      <trkpt lat="48.53067" lon="2.2261">
        <ele>148</ele>
        <time>2018-06-03T13:40:36Z</time>
      </trkpt>
      <trkpt lat="48.53063" lon="2.22607">
        <ele>148</ele>
        <time>2018-06-03T13:40:40Z</time>
      </trkpt>
      <trkpt lat="48.5306" lon="2.22601">
        <ele>149</ele>
        <time>2018-06-03T13:40:44Z</time>
      </trkpt>
      <trkpt lat="48.53055" lon="2.22594">
        <ele>149</ele>
        <time>2018-06-03T13:40:51Z</time>
      </trkpt>
      <trkpt lat="48.53046" lon="2.22588">
        <ele>149</ele>
        <time>2018-06-03T13:40:59Z</time>
      </trkpt>
      <trkpt lat="48.5304" lon="2.22593">
        <ele>149</ele>
        <time>2018-06-03T13:41:07Z</time>
      </trkpt>
      <trkpt lat="48.53038" lon="2.22608">
        <ele>149</ele>
        <time>2018-06-03T13:41:15Z</time>
      </trkpt>
      <trkpt lat="48.53035" lon="2.22621">
        <ele>148</ele>
        <time>2018-06-03T13:41:24Z</time>
      </trkpt>
      <trkpt lat="48.53035" lon="2.22628">
        <ele>148</ele>
        <time>2018-06-03T13:41:27Z</time>
      </trkpt>
      <trkpt lat="48.53041" lon="2.22632">
        <ele>148</ele>
        <time>2018-06-03T13:41:34Z</time>
      </trkpt>
      <trkpt lat="48.53044" lon="2.22637">
        <ele>148</ele>
        <time>2018-06-03T13:41:38Z</time>
      </trkpt>
      <trkpt lat="48.53045" lon="2.22644">
        <ele>148</ele>
        <time>2018-06-03T13:41:52Z</time>
      </trkpt>
      <trkpt lat="48.5305" lon="2.22653">
        <ele>148</ele>
        <time>2018-06-03T13:42:03Z</time>
      </trkpt>
      <trkpt lat="48.5305" lon="2.2266">
        <ele>148</ele>
        <time>2018-06-03T13:42:07Z</time>
      </trkpt>
      <trkpt lat="48.53047" lon="2.22673">
        <ele>148</ele>
        <time>2018-06-03T13:42:14Z</time>
      </trkpt>
      <trkpt lat="48.53044" lon="2.2268">
        <ele>147</ele>
        <time>2018-06-03T13:42:19Z</time>
      </trkpt>
      <trkpt lat="48.53042" lon="2.2269">
        <ele>147</ele>
        <time>2018-06-03T13:42:25Z</time>
      </trkpt>
      <trkpt lat="48.53036" lon="2.22704">
        <ele>147</ele>
        <time>2018-06-03T13:42:33Z</time>
      </trkpt>
      <trkpt lat="48.53033" lon="2.2272">
        <ele>147</ele>
        <time>2018-06-03T13:42:39Z</time>
      </trkpt>
      <trkpt lat="48.53032" lon="2.22727">
        <ele>147</ele>
        <time>2018-06-03T13:42:43Z</time>
      </trkpt>
      <trkpt lat="48.53032" lon="2.22737">
        <ele>146</ele>
        <time>2018-06-03T13:42:56Z</time>
      </trkpt>
      <trkpt lat="48.5303" lon="2.22743">
        <ele>146</ele>
        <time>2018-06-03T13:43:00Z</time>
      </trkpt>
      <trkpt lat="48.53023" lon="2.22779">
        <ele>146</ele>
        <time>2018-06-03T13:43:20Z</time>
      </trkpt>
      <trkpt lat="48.53021" lon="2.22786">
        <ele>146</ele>
        <time>2018-06-03T13:43:24Z</time>
      </trkpt>
      <trkpt lat="48.53015" lon="2.22808">
        <ele>146</ele>
        <time>2018-06-03T13:43:36Z</time>
      </trkpt>
      <trkpt lat="48.53001" lon="2.22834">
        <ele>146</ele>
        <time>2018-06-03T13:43:52Z</time>
      </trkpt>
      <trkpt lat="48.52998" lon="2.22848">
        <ele>146</ele>
        <time>2018-06-03T13:44:00Z</time>
      </trkpt>
      <trkpt lat="48.52991" lon="2.22869">
        <ele>146</ele>
        <time>2018-06-03T13:44:12Z</time>
      </trkpt>
      <trkpt lat="48.52987" lon="2.2289">
        <ele>146</ele>
        <time>2018-06-03T13:44:29Z</time>
      </trkpt>
      <trkpt lat="48.52978" lon="2.22908">
        <ele>146</ele>
        <time>2018-06-03T13:44:41Z</time>
      </trkpt>
      <trkpt lat="48.52977" lon="2.22915">
        <ele>146</ele>
        <time>2018-06-03T13:44:45Z</time>
      </trkpt>
      <trkpt lat="48.5298" lon="2.22931">
        <ele>145</ele>
        <time>2018-06-03T13:44:54Z</time>
      </trkpt>
      <trkpt lat="48.52983" lon="2.22946">
        <ele>145</ele>
        <time>2018-06-03T13:45:02Z</time>
      </trkpt>
      <trkpt lat="48.52982" lon="2.22952">
        <ele>146</ele>
        <time>2018-06-03T13:45:12Z</time>
      </trkpt>
      <trkpt lat="48.52974" lon="2.22969">
        <ele>146</ele>
        <time>2018-06-03T13:45:43Z</time>
      </trkpt>
      <trkpt lat="48.52972" lon="2.22976">
        <ele>146</ele>
        <time>2018-06-03T13:45:47Z</time>
      </trkpt>
      <trkpt lat="48.52967" lon="2.22991">
        <ele>146</ele>
        <time>2018-06-03T13:45:57Z</time>
      </trkpt>
      <trkpt lat="48.52966" lon="2.22997">
        <ele>146</ele>
        <time>2018-06-03T13:46:02Z</time>
      </trkpt>
      <trkpt lat="48.52962" lon="2.23005">
        <ele>146</ele>
        <time>2018-06-03T13:46:09Z</time>
      </trkpt>
      <trkpt lat="48.52944" lon="2.23043">
        <ele>146</ele>
        <time>2018-06-03T13:46:31Z</time>
      </trkpt>
      <trkpt lat="48.5294" lon="2.23055">
        <ele>146</ele>
        <time>2018-06-03T13:46:39Z</time>
      </trkpt>
      <trkpt lat="48.52923" lon="2.23091">
        <ele>145</ele>
        <time>2018-06-03T13:47:04Z</time>
      </trkpt>
      <trkpt lat="48.52902" lon="2.23141">
        <ele>145</ele>
        <time>2018-06-03T13:47:37Z</time>
      </trkpt>
      <trkpt lat="48.5288" lon="2.23191">
        <ele>144</ele>
        <time>2018-06-03T13:48:09Z</time>
      </trkpt>
      <trkpt lat="48.52859" lon="2.23243">
        <ele>143</ele>
        <time>2018-06-03T13:48:43Z</time>
      </trkpt>
      <trkpt lat="48.52857" lon="2.23251">
        <ele>143</ele>
        <time>2018-06-03T13:48:48Z</time>
      </trkpt>
      <trkpt lat="48.52857" lon="2.23266">
        <ele>143</ele>
        <time>2018-06-03T13:48:56Z</time>
      </trkpt>
      <trkpt lat="48.5285" lon="2.23336">
        <ele>140</ele>
        <time>2018-06-03T13:49:28Z</time>
      </trkpt>
      <trkpt lat="48.52849" lon="2.23344">
        <ele>139</ele>
        <time>2018-06-03T13:49:32Z</time>
      </trkpt>
      <trkpt lat="48.52849" lon="2.23352">
        <ele>139</ele>
        <time>2018-06-03T13:49:36Z</time>
      </trkpt>
      <trkpt lat="48.5285" lon="2.23359">
        <ele>139</ele>
        <time>2018-06-03T13:49:40Z</time>
      </trkpt>
      <trkpt lat="48.52841" lon="2.23397">
        <ele>138</ele>
        <time>2018-06-03T13:50:00Z</time>
      </trkpt>
      <trkpt lat="48.52838" lon="2.23402">
        <ele>138</ele>
        <time>2018-06-03T13:50:04Z</time>
      </trkpt>
      <trkpt lat="48.52828" lon="2.23403">
        <ele>138</ele>
        <time>2018-06-03T13:50:11Z</time>
      </trkpt>
      <trkpt lat="48.52808" lon="2.23396">
        <ele>137</ele>
        <time>2018-06-03T13:50:28Z</time>
      </trkpt>
      <trkpt lat="48.52797" lon="2.2339">
        <ele>137</ele>
        <time>2018-06-03T13:50:36Z</time>
      </trkpt>
      <trkpt lat="48.52792" lon="2.23388">
        <ele>137</ele>
        <time>2018-06-03T13:50:40Z</time>
      </trkpt>
      <trkpt lat="48.52753" lon="2.23364">
        <ele>136</ele>
        <time>2018-06-03T13:51:14Z</time>
      </trkpt>
      <trkpt lat="48.52734" lon="2.23352">
        <ele>135</ele>
        <time>2018-06-03T13:51:29Z</time>
      </trkpt>
      <trkpt lat="48.5271" lon="2.23346">
        <ele>135</ele>
        <time>2018-06-03T13:51:47Z</time>
      </trkpt>
      <trkpt lat="48.52694" lon="2.23346">
        <ele>135</ele>
        <time>2018-06-03T13:51:59Z</time>
      </trkpt>
      <trkpt lat="48.52674" lon="2.23355">
        <ele>135</ele>
        <time>2018-06-03T13:52:15Z</time>
      </trkpt>
      <trkpt lat="48.52663" lon="2.23357">
        <ele>135</ele>
        <time>2018-06-03T13:52:23Z</time>
      </trkpt>
      <trkpt lat="48.52659" lon="2.23361">
        <ele>135</ele>
        <time>2018-06-03T13:52:27Z</time>
      </trkpt>
      <trkpt lat="48.52631" lon="2.23372">
        <ele>137</ele>
        <time>2018-06-03T13:52:52Z</time>
      </trkpt>
      <trkpt lat="48.52605" lon="2.23387">
        <ele>136</ele>
        <time>2018-06-03T13:53:13Z</time>
      </trkpt>
      <trkpt lat="48.52576" lon="2.23387">
        <ele>135</ele>
        <time>2018-06-03T13:53:30Z</time>
      </trkpt>
      <trkpt lat="48.52556" lon="2.23385">
        <ele>134</ele>
        <time>2018-06-03T13:53:43Z</time>
      </trkpt>
      <trkpt lat="48.52515" lon="2.23396">
        <ele>132</ele>
        <time>2018-06-03T13:54:15Z</time>
      </trkpt>
      <trkpt lat="48.52485" lon="2.23408">
        <ele>130</ele>
        <time>2018-06-03T13:54:39Z</time>
      </trkpt>
      <trkpt lat="48.52481" lon="2.23411">
        <ele>130</ele>
        <time>2018-06-03T13:54:43Z</time>
      </trkpt>
      <trkpt lat="48.52477" lon="2.23417">
        <ele>130</ele>
        <time>2018-06-03T13:54:48Z</time>
      </trkpt>
      <trkpt lat="48.52474" lon="2.23439">
        <ele>129</ele>
        <time>2018-06-03T13:55:04Z</time>
      </trkpt>
      <trkpt lat="48.52471" lon="2.23462">
        <ele>129</ele>
        <time>2018-06-03T13:55:16Z</time>
      </trkpt>
      <trkpt lat="48.52471" lon="2.2347">
        <ele>129</ele>
        <time>2018-06-03T13:55:21Z</time>
      </trkpt>
      <trkpt lat="48.52469" lon="2.23484">
        <ele>129</ele>
        <time>2018-06-03T13:55:29Z</time>
      </trkpt>
      <trkpt lat="48.52468" lon="2.23492">
        <ele>129</ele>
        <time>2018-06-03T13:55:34Z</time>
      </trkpt>
      <trkpt lat="48.52466" lon="2.23498">
        <ele>129</ele>
        <time>2018-06-03T13:55:38Z</time>
      </trkpt>
      <trkpt lat="48.52462" lon="2.23511">
        <ele>128</ele>
        <time>2018-06-03T13:55:46Z</time>
      </trkpt>
      <trkpt lat="48.5246" lon="2.23519">
        <ele>128</ele>
        <time>2018-06-03T13:55:51Z</time>
      </trkpt>
      <trkpt lat="48.52459" lon="2.23527">
        <ele>128</ele>
        <time>2018-06-03T13:55:56Z</time>
      </trkpt>
      <trkpt lat="48.52455" lon="2.23541">
        <ele>128</ele>
        <time>2018-06-03T13:56:04Z</time>
      </trkpt>
      <trkpt lat="48.52446" lon="2.2358">
        <ele>129</ele>
        <time>2018-06-03T13:56:26Z</time>
      </trkpt>
      <trkpt lat="48.52439" lon="2.236">
        <ele>129</ele>
        <time>2018-06-03T13:56:40Z</time>
      </trkpt>
      <trkpt lat="48.52425" lon="2.23624">
        <ele>129</ele>
        <time>2018-06-03T13:56:57Z</time>
      </trkpt>
      <trkpt lat="48.52415" lon="2.23644">
        <ele>129</ele>
        <time>2018-06-03T13:57:08Z</time>
      </trkpt>
      <trkpt lat="48.52384" lon="2.23687">
        <ele>128</ele>
        <time>2018-06-03T13:57:39Z</time>
      </trkpt>
      <trkpt lat="48.52372" lon="2.23701">
        <ele>129</ele>
        <time>2018-06-03T13:57:51Z</time>
      </trkpt>
      <trkpt lat="48.52365" lon="2.2371">
        <ele>129</ele>
        <time>2018-06-03T13:58:01Z</time>
      </trkpt>
      <trkpt lat="48.52353" lon="2.23707">
        <ele>128</ele>
        <time>2018-06-03T13:58:21Z</time>
      </trkpt>
      <trkpt lat="48.52331" lon="2.23699">
        <ele>128</ele>
        <time>2018-06-03T13:58:38Z</time>
      </trkpt>
      <trkpt lat="48.52299" lon="2.23674">
        <ele>128</ele>
        <time>2018-06-03T13:59:10Z</time>
      </trkpt>
      <trkpt lat="48.52292" lon="2.23665">
        <ele>127</ele>
        <time>2018-06-03T13:59:17Z</time>
      </trkpt>
      <trkpt lat="48.52275" lon="2.23654">
        <ele>127</ele>
        <time>2018-06-03T13:59:33Z</time>
      </trkpt>
      <trkpt lat="48.52248" lon="2.23629">
        <ele>127</ele>
        <time>2018-06-03T13:59:56Z</time>
      </trkpt>
      <trkpt lat="48.52228" lon="2.23626">
        <ele>127</ele>
        <time>2018-06-03T14:00:06Z</time>
      </trkpt>
      <trkpt lat="48.52204" lon="2.23597">
        <ele>126</ele>
        <time>2018-06-03T14:00:33Z</time>
      </trkpt>
      <trkpt lat="48.52188" lon="2.23562">
        <ele>126</ele>
        <time>2018-06-03T14:00:51Z</time>
      </trkpt>
      <trkpt lat="48.52185" lon="2.23549">
        <ele>127</ele>
        <time>2018-06-03T14:01:04Z</time>
      </trkpt>
      <trkpt lat="48.52187" lon="2.23542">
        <ele>127</ele>
        <time>2018-06-03T14:01:43Z</time>
      </trkpt>
      <trkpt lat="48.52192" lon="2.23544">
        <ele>127</ele>
        <time>2018-06-03T14:01:48Z</time>
      </trkpt>
      <trkpt lat="48.52197" lon="2.23538">
        <ele>127</ele>
        <time>2018-06-03T14:01:57Z</time>
      </trkpt>
      <trkpt lat="48.52203" lon="2.23512">
        <ele>126</ele>
        <time>2018-06-03T14:02:07Z</time>
      </trkpt>
      <trkpt lat="48.52205" lon="2.23495">
        <ele>127</ele>
        <time>2018-06-03T14:02:15Z</time>
      </trkpt>
      <trkpt lat="48.52205" lon="2.23486">
        <ele>127</ele>
        <time>2018-06-03T14:02:19Z</time>
      </trkpt>
      <trkpt lat="48.52209" lon="2.23456">
        <ele>127</ele>
        <time>2018-06-03T14:02:34Z</time>
      </trkpt>
      <trkpt lat="48.52205" lon="2.23447">
        <ele>127</ele>
        <time>2018-06-03T14:02:40Z</time>
      </trkpt>
      <trkpt lat="48.522" lon="2.23441">
        <ele>127</ele>
        <time>2018-06-03T14:02:45Z</time>
      </trkpt>
      <trkpt lat="48.52198" lon="2.23434">
        <ele>127</ele>
        <time>2018-06-03T14:02:50Z</time>
      </trkpt>
      <trkpt lat="48.52194" lon="2.23415">
        <ele>127</ele>
        <time>2018-06-03T14:03:02Z</time>
      </trkpt>
      <trkpt lat="48.52186" lon="2.23393">
        <ele>127</ele>
        <time>2018-06-03T14:03:16Z</time>
      </trkpt>
      <trkpt lat="48.52181" lon="2.23377">
        <ele>127</ele>
        <time>2018-06-03T14:03:23Z</time>
      </trkpt>
      <trkpt lat="48.52176" lon="2.23371">
        <ele>127</ele>
        <time>2018-06-03T14:03:27Z</time>
      </trkpt>
      <trkpt lat="48.5217" lon="2.23358">
        <ele>127</ele>
        <time>2018-06-03T14:03:37Z</time>
      </trkpt>
      <trkpt lat="48.52165" lon="2.23353">
        <ele>127</ele>
        <time>2018-06-03T14:03:43Z</time>
      </trkpt>
      <trkpt lat="48.52159" lon="2.23358">
        <ele>129</ele>
        <time>2018-06-03T14:03:57Z</time>
      </trkpt>
      <trkpt lat="48.52166" lon="2.23371">
        <ele>131</ele>
        <time>2018-06-03T14:05:29Z</time>
      </trkpt>
      <trkpt lat="48.52168" lon="2.23417">
        <ele>135</ele>
        <time>2018-06-03T14:06:04Z</time>
      </trkpt>
      <trkpt lat="48.52155" lon="2.2346">
        <ele>139</ele>
        <time>2018-06-03T14:06:34Z</time>
      </trkpt>
      <trkpt lat="48.5215" lon="2.23467">
        <ele>141</ele>
        <time>2018-06-03T14:06:46Z</time>
      </trkpt>
      <trkpt lat="48.52145" lon="2.23471">
        <ele>141</ele>
        <time>2018-06-03T14:06:51Z</time>
      </trkpt>
      <trkpt lat="48.52138" lon="2.23475">
        <ele>141</ele>
        <time>2018-06-03T14:06:58Z</time>
      </trkpt>
      <trkpt lat="48.52126" lon="2.23483">
        <ele>142</ele>
        <time>2018-06-03T14:07:15Z</time>
      </trkpt>
      <trkpt lat="48.52124" lon="2.23494">
        <ele>142</ele>
        <time>2018-06-03T14:07:29Z</time>
      </trkpt>
      <trkpt lat="48.52122" lon="2.23507">
        <ele>143</ele>
        <time>2018-06-03T14:07:39Z</time>
      </trkpt>
      <trkpt lat="48.52124" lon="2.23515">
        <ele>143</ele>
        <time>2018-06-03T14:07:44Z</time>
      </trkpt>
      <trkpt lat="48.52123" lon="2.23522">
        <ele>144</ele>
        <time>2018-06-03T14:07:49Z</time>
      </trkpt>
      <trkpt lat="48.52122" lon="2.23531">
        <ele>144</ele>
        <time>2018-06-03T14:07:55Z</time>
      </trkpt>
      <trkpt lat="48.52121" lon="2.2354">
        <ele>144</ele>
        <time>2018-06-03T14:07:58Z</time>
      </trkpt>
      <trkpt lat="48.52119" lon="2.23549">
        <ele>145</ele>
        <time>2018-06-03T14:08:02Z</time>
      </trkpt>
      <trkpt lat="48.52115" lon="2.23554">
        <ele>145</ele>
        <time>2018-06-03T14:08:05Z</time>
      </trkpt>
      <trkpt lat="48.5211" lon="2.23557">
        <ele>145</ele>
        <time>2018-06-03T14:08:08Z</time>
      </trkpt>
      <trkpt lat="48.52109" lon="2.23564">
        <ele>146</ele>
        <time>2018-06-03T14:08:13Z</time>
      </trkpt>
      <trkpt lat="48.52099" lon="2.23582">
        <ele>147</ele>
        <time>2018-06-03T14:08:33Z</time>
      </trkpt>
      <trkpt lat="48.52081" lon="2.23596">
        <ele>147</ele>
        <time>2018-06-03T14:08:47Z</time>
      </trkpt>
      <trkpt lat="48.52073" lon="2.23605">
        <ele>148</ele>
        <time>2018-06-03T14:08:54Z</time>
      </trkpt>
      <trkpt lat="48.52067" lon="2.23615">
        <ele>148</ele>
        <time>2018-06-03T14:09:03Z</time>
      </trkpt>
      <trkpt lat="48.52066" lon="2.23642">
        <ele>149</ele>
        <time>2018-06-03T14:09:21Z</time>
      </trkpt>
      <trkpt lat="48.52073" lon="2.2367">
        <ele>149</ele>
        <time>2018-06-03T14:09:40Z</time>
      </trkpt>
      <trkpt lat="48.52074" lon="2.23685">
        <ele>149</ele>
        <time>2018-06-03T14:09:47Z</time>
      </trkpt>
      <trkpt lat="48.5207" lon="2.237">
        <ele>149</ele>
        <time>2018-06-03T14:09:56Z</time>
      </trkpt>
      <trkpt lat="48.52077" lon="2.23726">
        <ele>150</ele>
        <time>2018-06-03T14:10:12Z</time>
      </trkpt>
      <trkpt lat="48.52081" lon="2.23738">
        <ele>150</ele>
        <time>2018-06-03T14:10:20Z</time>
      </trkpt>
      <trkpt lat="48.5209" lon="2.23753">
        <ele>150</ele>
        <time>2018-06-03T14:10:31Z</time>
      </trkpt>
      <trkpt lat="48.52093" lon="2.23767">
        <ele>150</ele>
        <time>2018-06-03T14:10:38Z</time>
      </trkpt>
      <trkpt lat="48.521" lon="2.23784">
        <ele>150</ele>
        <time>2018-06-03T14:10:51Z</time>
      </trkpt>
      <trkpt lat="48.52112" lon="2.23801">
        <ele>150</ele>
        <time>2018-06-03T14:11:08Z</time>
      </trkpt>
      <trkpt lat="48.52123" lon="2.23842">
        <ele>152</ele>
        <time>2018-06-03T14:11:34Z</time>
      </trkpt>
      <trkpt lat="48.52123" lon="2.23858">
        <ele>152</ele>
        <time>2018-06-03T14:11:50Z</time>
      </trkpt>
      <trkpt lat="48.52125" lon="2.23878">
        <ele>152</ele>
        <time>2018-06-03T14:12:06Z</time>
      </trkpt>
      <trkpt lat="48.52119" lon="2.23889">
        <ele>152</ele>
        <time>2018-06-03T14:12:45Z</time>
      </trkpt>
      <trkpt lat="48.52119" lon="2.23897">
        <ele>152</ele>
        <time>2018-06-03T14:12:54Z</time>
      </trkpt>
      <trkpt lat="48.52122" lon="2.23894">
        <ele>152</ele>
        <time>2018-06-03T14:13:50Z</time>
      </trkpt>
      <trkpt lat="48.52126" lon="2.23888">
        <ele>151</ele>
        <time>2018-06-03T14:15:56Z</time>
      </trkpt>
      <trkpt lat="48.52128" lon="2.23888">
        <ele>152</ele>
        <time>2018-06-03T14:17:34Z</time>
      </trkpt>
      <trkpt lat="48.52134" lon="2.23904">
        <ele>152</ele>
        <time>2018-06-03T14:17:47Z</time>
      </trkpt>
      <trkpt lat="48.52138" lon="2.23908">
        <ele>152</ele>
        <time>2018-06-03T14:17:50Z</time>
      </trkpt>
      <trkpt lat="48.52165" lon="2.23963">
        <ele>153</ele>
        <time>2018-06-03T14:18:28Z</time>
      </trkpt>
      <trkpt lat="48.52171" lon="2.23977">
        <ele>152</ele>
        <time>2018-06-03T14:18:37Z</time>
      </trkpt>
      <trkpt lat="48.52174" lon="2.23991">
        <ele>153</ele>
        <time>2018-06-03T14:18:43Z</time>
      </trkpt>
      <trkpt lat="48.52175" lon="2.24004">
        <ele>153</ele>
        <time>2018-06-03T14:18:52Z</time>
      </trkpt>
      <trkpt lat="48.5218" lon="2.24019">
        <ele>153</ele>
        <time>2018-06-03T14:18:59Z</time>
      </trkpt>
      <trkpt lat="48.52194" lon="2.24087">
        <ele>154</ele>
        <time>2018-06-03T14:19:32Z</time>
      </trkpt>
      <trkpt lat="48.52198" lon="2.241">
        <ele>154</ele>
        <time>2018-06-03T14:19:41Z</time>
      </trkpt>
      <trkpt lat="48.52205" lon="2.2411">
        <ele>154</ele>
        <time>2018-06-03T14:19:48Z</time>
      </trkpt>
      <trkpt lat="48.5221" lon="2.24126">
        <ele>155</ele>
        <time>2018-06-03T14:19:55Z</time>
      </trkpt>
      <trkpt lat="48.52214" lon="2.24139">
        <ele>154</ele>
        <time>2018-06-03T14:20:00Z</time>
      </trkpt>
      <trkpt lat="48.52222" lon="2.24149">
        <ele>155</ele>
        <time>2018-06-03T14:20:08Z</time>
      </trkpt>
      <trkpt lat="48.52229" lon="2.2416">
        <ele>154</ele>
        <time>2018-06-03T14:20:16Z</time>
      </trkpt>
      <trkpt lat="48.52233" lon="2.24173">
        <ele>154</ele>
        <time>2018-06-03T14:20:23Z</time>
      </trkpt>
      <trkpt lat="48.52241" lon="2.24182">
        <ele>154</ele>
        <time>2018-06-03T14:20:30Z</time>
      </trkpt>
      <trkpt lat="48.52246" lon="2.24226">
        <ele>154</ele>
        <time>2018-06-03T14:20:52Z</time>
      </trkpt>
      <trkpt lat="48.52267" lon="2.24291">
        <ele>154</ele>
        <time>2018-06-03T14:21:27Z</time>
      </trkpt>
      <trkpt lat="48.52272" lon="2.24303">
        <ele>154</ele>
        <time>2018-06-03T14:21:35Z</time>
      </trkpt>
      <trkpt lat="48.52282" lon="2.24362">
        <ele>155</ele>
        <time>2018-06-03T14:22:05Z</time>
      </trkpt>
      <trkpt lat="48.52295" lon="2.244">
        <ele>155</ele>
        <time>2018-06-03T14:22:27Z</time>
      </trkpt>
      <trkpt lat="48.52295" lon="2.24416">
        <ele>155</ele>
        <time>2018-06-03T14:22:38Z</time>
      </trkpt>
      <trkpt lat="48.52288" lon="2.24431">
        <ele>155</ele>
        <time>2018-06-03T14:22:50Z</time>
      </trkpt>
      <trkpt lat="48.5228" lon="2.24444">
        <ele>155</ele>
        <time>2018-06-03T14:23:02Z</time>
      </trkpt>
      <trkpt lat="48.52241" lon="2.24477">
        <ele>155</ele>
        <time>2018-06-03T14:23:35Z</time>
      </trkpt>
      <trkpt lat="48.52233" lon="2.24482">
        <ele>155</ele>
        <time>2018-06-03T14:23:41Z</time>
      </trkpt>
      <trkpt lat="48.52204" lon="2.24492">
        <ele>154</ele>
        <time>2018-06-03T14:24:01Z</time>
      </trkpt>
      <trkpt lat="48.52185" lon="2.24503">
        <ele>154</ele>
        <time>2018-06-03T14:24:13Z</time>
      </trkpt>
      <trkpt lat="48.52177" lon="2.24506">
        <ele>153</ele>
        <time>2018-06-03T14:24:21Z</time>
      </trkpt>
      <trkpt lat="48.52176" lon="2.2453">
        <ele>152</ele>
        <time>2018-06-03T14:24:40Z</time>
      </trkpt>
      <trkpt lat="48.52183" lon="2.2456">
        <ele>153</ele>
        <time>2018-06-03T14:24:58Z</time>
      </trkpt>
      <trkpt lat="48.52185" lon="2.24574">
        <ele>152</ele>
        <time>2018-06-03T14:25:06Z</time>
      </trkpt>
      <trkpt lat="48.52182" lon="2.24588">
        <ele>152</ele>
        <time>2018-06-03T14:25:14Z</time>
      </trkpt>
      <trkpt lat="48.52193" lon="2.24646">
        <ele>152</ele>
        <time>2018-06-03T14:25:47Z</time>
      </trkpt>
      <trkpt lat="48.52194" lon="2.24659">
        <ele>151</ele>
        <time>2018-06-03T14:25:54Z</time>
      </trkpt>
      <trkpt lat="48.52199" lon="2.24671">
        <ele>151</ele>
        <time>2018-06-03T14:26:02Z</time>
      </trkpt>
      <trkpt lat="48.52203" lon="2.24699">
        <ele>151</ele>
        <time>2018-06-03T14:26:14Z</time>
      </trkpt>
      <trkpt lat="48.52203" lon="2.24707">
        <ele>151</ele>
        <time>2018-06-03T14:26:17Z</time>
      </trkpt>
      <trkpt lat="48.52201" lon="2.24713">
        <ele>151</ele>
        <time>2018-06-03T14:26:20Z</time>
      </trkpt>
      <trkpt lat="48.52203" lon="2.24729">
        <ele>151</ele>
        <time>2018-06-03T14:26:26Z</time>
      </trkpt>
      <trkpt lat="48.522" lon="2.24752">
        <ele>151</ele>
        <time>2018-06-03T14:26:39Z</time>
      </trkpt>
      <trkpt lat="48.52203" lon="2.24787">
        <ele>149</ele>
        <time>2018-06-03T14:26:57Z</time>
      </trkpt>
      <trkpt lat="48.52203" lon="2.24795">
        <ele>149</ele>
        <time>2018-06-03T14:27:00Z</time>
      </trkpt>
      <trkpt lat="48.522" lon="2.24802">
        <ele>149</ele>
        <time>2018-06-03T14:27:04Z</time>
      </trkpt>
      <trkpt lat="48.52199" lon="2.24813">
        <ele>148</ele>
        <time>2018-06-03T14:27:11Z</time>
      </trkpt>
      <trkpt lat="48.52201" lon="2.2482">
        <ele>148</ele>
        <time>2018-06-03T14:27:15Z</time>
      </trkpt>
      <trkpt lat="48.52204" lon="2.24849">
        <ele>148</ele>
        <time>2018-06-03T14:27:33Z</time>
      </trkpt>
      <trkpt lat="48.52208" lon="2.24863">
        <ele>149</ele>
        <time>2018-06-03T14:27:40Z</time>
      </trkpt>
      <trkpt lat="48.52211" lon="2.24885">
        <ele>148</ele>
        <time>2018-06-03T14:27:52Z</time>
      </trkpt>
      <trkpt lat="48.52214" lon="2.24893">
        <ele>148</ele>
        <time>2018-06-03T14:27:56Z</time>
      </trkpt>
      <trkpt lat="48.5222" lon="2.24955">
        <ele>147</ele>
        <time>2018-06-03T14:28:28Z</time>
      </trkpt>
      <trkpt lat="48.52223" lon="2.24979">
        <ele>146</ele>
        <time>2018-06-03T14:28:37Z</time>
      </trkpt>
      <trkpt lat="48.52221" lon="2.24993">
        <ele>145</ele>
        <time>2018-06-03T14:28:44Z</time>
      </trkpt>
      <trkpt lat="48.52228" lon="2.2503">
        <ele>144</ele>
        <time>2018-06-03T14:29:04Z</time>
      </trkpt>
      <trkpt lat="48.5224" lon="2.25055">
        <ele>144</ele>
        <time>2018-06-03T14:29:21Z</time>
      </trkpt>
      <trkpt lat="48.52243" lon="2.25071">
        <ele>144</ele>
        <time>2018-06-03T14:29:30Z</time>
      </trkpt>
      <trkpt lat="48.52246" lon="2.25078">
        <ele>144</ele>
        <time>2018-06-03T14:29:33Z</time>
      </trkpt>
      <trkpt lat="48.52249" lon="2.25082">
        <ele>143</ele>
        <time>2018-06-03T14:29:35Z</time>
      </trkpt>
      <trkpt lat="48.52252" lon="2.25088">
        <ele>143</ele>
        <time>2018-06-03T14:29:38Z</time>
      </trkpt>
      <trkpt lat="48.52254" lon="2.25103">
        <ele>143</ele>
        <time>2018-06-03T14:29:44Z</time>
      </trkpt>
      <trkpt lat="48.52257" lon="2.25108">
        <ele>143</ele>
        <time>2018-06-03T14:29:49Z</time>
      </trkpt>
      <trkpt lat="48.52262" lon="2.25112">
        <ele>143</ele>
        <time>2018-06-03T14:29:53Z</time>
      </trkpt>
      <trkpt lat="48.52275" lon="2.25137">
        <ele>142</ele>
        <time>2018-06-03T14:30:10Z</time>
      </trkpt>
      <trkpt lat="48.52276" lon="2.25146">
        <ele>142</ele>
        <time>2018-06-03T14:30:14Z</time>
      </trkpt>
      <trkpt lat="48.52276" lon="2.25154">
        <ele>142</ele>
        <time>2018-06-03T14:30:17Z</time>
      </trkpt>
      <trkpt lat="48.52275" lon="2.25162">
        <ele>141</ele>
        <time>2018-06-03T14:30:21Z</time>
      </trkpt>
      <trkpt lat="48.52276" lon="2.25169">
        <ele>141</ele>
        <time>2018-06-03T14:30:25Z</time>
      </trkpt>
      <trkpt lat="48.52273" lon="2.25177">
        <ele>140</ele>
        <time>2018-06-03T14:30:30Z</time>
      </trkpt>
      <trkpt lat="48.52264" lon="2.25188">
        <ele>139</ele>
        <time>2018-06-03T14:30:39Z</time>
      </trkpt>
      <trkpt lat="48.52258" lon="2.25202">
        <ele>137</ele>
        <time>2018-06-03T14:30:47Z</time>
      </trkpt>
      <trkpt lat="48.5225" lon="2.25238">
        <ele>133</ele>
        <time>2018-06-03T14:31:03Z</time>
      </trkpt>
      <trkpt lat="48.52247" lon="2.25277">
        <ele>130</ele>
        <time>2018-06-03T14:31:23Z</time>
      </trkpt>
      <trkpt lat="48.52243" lon="2.2529">
        <ele>128</ele>
        <time>2018-06-03T14:31:32Z</time>
      </trkpt>
      <trkpt lat="48.52245" lon="2.25304">
        <ele>126</ele>
        <time>2018-06-03T14:31:40Z</time>
      </trkpt>
      <trkpt lat="48.52248" lon="2.25311">
        <ele>125</ele>
        <time>2018-06-03T14:31:44Z</time>
      </trkpt>
      <trkpt lat="48.52246" lon="2.25318">
        <ele>125</ele>
        <time>2018-06-03T14:31:48Z</time>
      </trkpt>
      <trkpt lat="48.52242" lon="2.25323">
        <ele>124</ele>
        <time>2018-06-03T14:31:52Z</time>
      </trkpt>
      <trkpt lat="48.52241" lon="2.2533">
        <ele>123</ele>
        <time>2018-06-03T14:31:57Z</time>
      </trkpt>
      <trkpt lat="48.52237" lon="2.25337">
        <ele>122</ele>
        <time>2018-06-03T14:32:02Z</time>
      </trkpt>
      <trkpt lat="48.52226" lon="2.25353">
        <ele>118</ele>
        <time>2018-06-03T14:32:13Z</time>
      </trkpt>
      <trkpt lat="48.52212" lon="2.25363">
        <ele>116</ele>
        <time>2018-06-03T14:32:26Z</time>
      </trkpt>
      <trkpt lat="48.52204" lon="2.25375">
        <ele>114</ele>
        <time>2018-06-03T14:32:39Z</time>
      </trkpt>
      <trkpt lat="48.52191" lon="2.25407">
        <ele>109</ele>
        <time>2018-06-03T14:33:01Z</time>
      </trkpt>
      <trkpt lat="48.52189" lon="2.25414">
        <ele>108</ele>
        <time>2018-06-03T14:33:05Z</time>
      </trkpt>
      <trkpt lat="48.52182" lon="2.25427">
        <ele>107</ele>
        <time>2018-06-03T14:33:13Z</time>
      </trkpt>
      <trkpt lat="48.52184" lon="2.25435">
        <ele>106</ele>
        <time>2018-06-03T14:33:18Z</time>
      </trkpt>
      <trkpt lat="48.52182" lon="2.25444">
        <ele>105</ele>
        <time>2018-06-03T14:33:23Z</time>
      </trkpt>
      <trkpt lat="48.52163" lon="2.25472">
        <ele>102</ele>
        <time>2018-06-03T14:33:42Z</time>
      </trkpt>
      <trkpt lat="48.52162" lon="2.2548">
        <ele>102</ele>
        <time>2018-06-03T14:33:46Z</time>
      </trkpt>
      <trkpt lat="48.5216" lon="2.25496">
        <ele>101</ele>
        <time>2018-06-03T14:33:55Z</time>
      </trkpt>
      <trkpt lat="48.52159" lon="2.25503">
        <ele>100</ele>
        <time>2018-06-03T14:33:59Z</time>
      </trkpt>
      <trkpt lat="48.52151" lon="2.25514">
        <ele>99</ele>
        <time>2018-06-03T14:34:06Z</time>
      </trkpt>
      <trkpt lat="48.52148" lon="2.25521">
        <ele>99</ele>
        <time>2018-06-03T14:34:10Z</time>
      </trkpt>
      <trkpt lat="48.52146" lon="2.25529">
        <ele>98</ele>
        <time>2018-06-03T14:34:15Z</time>
      </trkpt>
      <trkpt lat="48.5214" lon="2.25542">
        <ele>98</ele>
        <time>2018-06-03T14:34:23Z</time>
      </trkpt>
      <trkpt lat="48.52135" lon="2.25549">
        <ele>97</ele>
        <time>2018-06-03T14:34:28Z</time>
      </trkpt>
      <trkpt lat="48.52132" lon="2.25556">
        <ele>96</ele>
        <time>2018-06-03T14:34:33Z</time>
      </trkpt>
      <trkpt lat="48.5212" lon="2.25575">
        <ele>95</ele>
        <time>2018-06-03T14:34:45Z</time>
      </trkpt>
      <trkpt lat="48.52115" lon="2.25576">
        <ele>94</ele>
        <time>2018-06-03T14:34:50Z</time>
      </trkpt>
      <trkpt lat="48.52111" lon="2.25573">
        <ele>94</ele>
        <time>2018-06-03T14:34:58Z</time>
      </trkpt>
      <trkpt lat="48.52106" lon="2.2557">
        <ele>93</ele>
        <time>2018-06-03T14:35:04Z</time>
      </trkpt>
      <trkpt lat="48.52105" lon="2.25556">
        <ele>92</ele>
        <time>2018-06-03T14:35:14Z</time>
      </trkpt>
      <trkpt lat="48.52099" lon="2.25545">
        <ele>91</ele>
        <time>2018-06-03T14:35:21Z</time>
      </trkpt>
      <trkpt lat="48.52096" lon="2.25538">
        <ele>91</ele>
        <time>2018-06-03T14:35:25Z</time>
      </trkpt>
      <trkpt lat="48.52091" lon="2.25538">
        <ele>91</ele>
        <time>2018-06-03T14:35:46Z</time>
      </trkpt>
      <trkpt lat="48.52088" lon="2.25544">
        <ele>92</ele>
        <time>2018-06-03T14:35:50Z</time>
      </trkpt>
      <trkpt lat="48.52084" lon="2.25544">
        <ele>92</ele>
        <time>2018-06-03T14:35:55Z</time>
      </trkpt>
      <trkpt lat="48.52078" lon="2.25544">
        <ele>93</ele>
        <time>2018-06-03T14:36:33Z</time>
      </trkpt>
    </trkseg>
  </trk>
</gpx>